<?xml version="1.0" encoding="UTF-8" standalone="no" ?>
<gpx xmlns="http://www.topografix.com/GPX/1/1" xmlns:xsi="http://www.w3.org/2001/XMLSchema-instance" xsi:schemaLocation="http://www.topografix.com/GPX/1/1 http://www.topografix.com/GPX/1/1/gpx.xsd" version="1.1" creator="VisuGPX - https://www.visugpx.com">
  <metadata>
    <name>Raid Encantats 2011 - J4</name>
    <desc><![CDATA[[b]J4[/b] : Refuge Saboredo - Port Ratera - Refuge Colomers - Banhs de Tredos]]></desc>
  </metadata>
  <trk>
    <name><![CDATA[J4-------- 15:43:18]]></name>
    <trkseg>
      <trkpt lat="42.62104" lon="0.96325">
        <ele>2314.99</ele>
        <time>2011-03-13T08:31:01Z</time>
      </trkpt>
      <trkpt lat="42.62105" lon="0.96325">
        <ele>2311.15</ele>
        <time>2011-03-13T08:31:04Z</time>
      </trkpt>
      <trkpt lat="42.62106" lon="0.96327">
        <ele>2307.3</ele>
        <time>2011-03-13T08:31:07Z</time>
      </trkpt>
      <trkpt lat="42.62106" lon="0.96327">
        <ele>2311.63</ele>
        <time>2011-03-13T08:31:09Z</time>
      </trkpt>
      <trkpt lat="42.62106" lon="0.96327">
        <ele>2306.34</ele>
        <time>2011-03-13T08:31:10Z</time>
      </trkpt>
      <trkpt lat="42.62107" lon="0.96328">
        <ele>2304.42</ele>
        <time>2011-03-13T08:31:13Z</time>
      </trkpt>
      <trkpt lat="42.62107" lon="0.96328">
        <ele>2301.05</ele>
        <time>2011-03-13T08:31:18Z</time>
      </trkpt>
      <trkpt lat="42.62107" lon="0.9633">
        <ele>2297.69</ele>
        <time>2011-03-13T08:31:25Z</time>
      </trkpt>
      <trkpt lat="42.62105" lon="0.9633">
        <ele>2294.32</ele>
        <time>2011-03-13T08:31:41Z</time>
      </trkpt>
      <trkpt lat="42.62106" lon="0.96328">
        <ele>2292.88</ele>
        <time>2011-03-13T08:31:54Z</time>
      </trkpt>
      <trkpt lat="42.62106" lon="0.96328">
        <ele>2289.52</ele>
        <time>2011-03-13T08:32:15Z</time>
      </trkpt>
      <trkpt lat="42.62104" lon="0.96329">
        <ele>2285.19</ele>
        <time>2011-03-13T08:34:00Z</time>
      </trkpt>
      <trkpt lat="42.62104" lon="0.96329">
        <ele>2288.56</ele>
        <time>2011-03-13T08:34:06Z</time>
      </trkpt>
      <trkpt lat="42.62104" lon="0.96329">
        <ele>2280.87</ele>
        <time>2011-03-13T08:34:32Z</time>
      </trkpt>
      <trkpt lat="42.62104" lon="0.96329">
        <ele>2290</ele>
        <time>2011-03-13T08:34:33Z</time>
      </trkpt>
      <trkpt lat="42.62104" lon="0.96329">
        <ele>2289.04</ele>
        <time>2011-03-13T08:34:34Z</time>
      </trkpt>
      <trkpt lat="42.62104" lon="0.96328">
        <ele>2285.19</ele>
        <time>2011-03-13T08:34:40Z</time>
      </trkpt>
      <trkpt lat="42.62104" lon="0.96328">
        <ele>2288.56</ele>
        <time>2011-03-13T08:34:43Z</time>
      </trkpt>
      <trkpt lat="42.62104" lon="0.96328">
        <ele>2287.59</ele>
        <time>2011-03-13T08:34:48Z</time>
      </trkpt>
      <trkpt lat="42.62104" lon="0.96328">
        <ele>2281.35</ele>
        <time>2011-03-13T08:35:14Z</time>
      </trkpt>
      <trkpt lat="42.62104" lon="0.96328">
        <ele>2293.36</ele>
        <time>2011-03-13T08:35:15Z</time>
      </trkpt>
      <trkpt lat="42.62104" lon="0.96328">
        <ele>2291.92</ele>
        <time>2011-03-13T08:35:16Z</time>
      </trkpt>
      <trkpt lat="42.62104" lon="0.96328">
        <ele>2289.04</ele>
        <time>2011-03-13T08:35:18Z</time>
      </trkpt>
      <trkpt lat="42.62103" lon="0.96328">
        <ele>2289.04</ele>
        <time>2011-03-13T08:35:57Z</time>
      </trkpt>
      <trkpt lat="42.62101" lon="0.96327">
        <ele>2288.08</ele>
        <time>2011-03-13T08:38:04Z</time>
      </trkpt>
      <trkpt lat="42.62101" lon="0.96327">
        <ele>2288.08</ele>
        <time>2011-03-13T08:38:12Z</time>
      </trkpt>
      <trkpt lat="42.62101" lon="0.96327">
        <ele>2286.15</ele>
        <time>2011-03-13T08:38:29Z</time>
      </trkpt>
      <trkpt lat="42.62101" lon="0.96327">
        <ele>2287.59</ele>
        <time>2011-03-13T08:38:32Z</time>
      </trkpt>
      <trkpt lat="42.62101" lon="0.96325">
        <ele>2287.11</ele>
        <time>2011-03-13T08:38:37Z</time>
      </trkpt>
      <trkpt lat="42.621" lon="0.96318">
        <ele>2287.59</ele>
        <time>2011-03-13T08:38:58Z</time>
      </trkpt>
      <trkpt lat="42.621" lon="0.96318">
        <ele>2287.59</ele>
        <time>2011-03-13T08:39:24Z</time>
      </trkpt>
      <trkpt lat="42.621" lon="0.96317">
        <ele>2287.11</ele>
        <time>2011-03-13T08:40:10Z</time>
      </trkpt>
      <trkpt lat="42.62104" lon="0.96311">
        <ele>2286.15</ele>
        <time>2011-03-13T08:40:47Z</time>
      </trkpt>
      <trkpt lat="42.62105" lon="0.96303">
        <ele>2286.15</ele>
        <time>2011-03-13T08:41:30Z</time>
      </trkpt>
      <trkpt lat="42.62105" lon="0.96302">
        <ele>2284.23</ele>
        <time>2011-03-13T08:41:31Z</time>
      </trkpt>
      <trkpt lat="42.62108" lon="0.96293">
        <ele>2282.79</ele>
        <time>2011-03-13T08:41:36Z</time>
      </trkpt>
      <trkpt lat="42.62108" lon="0.96288">
        <ele>2282.79</ele>
        <time>2011-03-13T08:41:49Z</time>
      </trkpt>
      <trkpt lat="42.62111" lon="0.96287">
        <ele>2281.83</ele>
        <time>2011-03-13T08:42:11Z</time>
      </trkpt>
      <trkpt lat="42.62112" lon="0.96286">
        <ele>2282.31</ele>
        <time>2011-03-13T08:42:13Z</time>
      </trkpt>
      <trkpt lat="42.62116" lon="0.96283">
        <ele>2281.35</ele>
        <time>2011-03-13T08:42:17Z</time>
      </trkpt>
      <trkpt lat="42.62123" lon="0.96273">
        <ele>2277.98</ele>
        <time>2011-03-13T08:42:25Z</time>
      </trkpt>
      <trkpt lat="42.6212" lon="0.96267">
        <ele>2276.06</ele>
        <time>2011-03-13T08:42:35Z</time>
      </trkpt>
      <trkpt lat="42.62118" lon="0.96266">
        <ele>2276.06</ele>
        <time>2011-03-13T08:42:44Z</time>
      </trkpt>
      <trkpt lat="42.62099" lon="0.96258">
        <ele>2274.62</ele>
        <time>2011-03-13T08:42:57Z</time>
      </trkpt>
      <trkpt lat="42.62093" lon="0.96255">
        <ele>2272.69</ele>
        <time>2011-03-13T08:43:01Z</time>
      </trkpt>
      <trkpt lat="42.62076" lon="0.96242">
        <ele>2270.77</ele>
        <time>2011-03-13T08:43:14Z</time>
      </trkpt>
      <trkpt lat="42.62075" lon="0.96241">
        <ele>2270.29</ele>
        <time>2011-03-13T08:43:15Z</time>
      </trkpt>
      <trkpt lat="42.62071" lon="0.96231">
        <ele>2270.29</ele>
        <time>2011-03-13T08:43:28Z</time>
      </trkpt>
      <trkpt lat="42.62065" lon="0.96231">
        <ele>2270.77</ele>
        <time>2011-03-13T08:44:12Z</time>
      </trkpt>
      <trkpt lat="42.62063" lon="0.96234">
        <ele>2270.77</ele>
        <time>2011-03-13T08:44:15Z</time>
      </trkpt>
      <trkpt lat="42.6206" lon="0.96236">
        <ele>2271.73</ele>
        <time>2011-03-13T08:44:18Z</time>
      </trkpt>
      <trkpt lat="42.62043" lon="0.9623">
        <ele>2269.33</ele>
        <time>2011-03-13T08:44:31Z</time>
      </trkpt>
      <trkpt lat="42.62041" lon="0.96229">
        <ele>2269.81</ele>
        <time>2011-03-13T08:44:33Z</time>
      </trkpt>
      <trkpt lat="42.6203" lon="0.96216">
        <ele>2270.29</ele>
        <time>2011-03-13T08:44:49Z</time>
      </trkpt>
      <trkpt lat="42.62025" lon="0.9621">
        <ele>2269.33</ele>
        <time>2011-03-13T08:44:56Z</time>
      </trkpt>
      <trkpt lat="42.62014" lon="0.96205">
        <ele>2270.77</ele>
        <time>2011-03-13T08:45:11Z</time>
      </trkpt>
      <trkpt lat="42.62007" lon="0.96207">
        <ele>2272.21</ele>
        <time>2011-03-13T08:45:25Z</time>
      </trkpt>
      <trkpt lat="42.62003" lon="0.9621">
        <ele>2273.17</ele>
        <time>2011-03-13T08:45:36Z</time>
      </trkpt>
      <trkpt lat="42.61997" lon="0.96212">
        <ele>2273.66</ele>
        <time>2011-03-13T08:45:55Z</time>
      </trkpt>
      <trkpt lat="42.61985" lon="0.96209">
        <ele>2273.17</ele>
        <time>2011-03-13T08:46:12Z</time>
      </trkpt>
      <trkpt lat="42.61975" lon="0.96206">
        <ele>2275.1</ele>
        <time>2011-03-13T08:46:27Z</time>
      </trkpt>
      <trkpt lat="42.61961" lon="0.96205">
        <ele>2275.1</ele>
        <time>2011-03-13T08:46:47Z</time>
      </trkpt>
      <trkpt lat="42.61954" lon="0.96208">
        <ele>2274.62</ele>
        <time>2011-03-13T08:47:00Z</time>
      </trkpt>
      <trkpt lat="42.61947" lon="0.96208">
        <ele>2275.58</ele>
        <time>2011-03-13T08:47:14Z</time>
      </trkpt>
      <trkpt lat="42.61939" lon="0.96209">
        <ele>2275.58</ele>
        <time>2011-03-13T08:47:28Z</time>
      </trkpt>
      <trkpt lat="42.61928" lon="0.96209">
        <ele>2275.1</ele>
        <time>2011-03-13T08:47:41Z</time>
      </trkpt>
      <trkpt lat="42.61924" lon="0.96209">
        <ele>2275.1</ele>
        <time>2011-03-13T08:47:58Z</time>
      </trkpt>
      <trkpt lat="42.61913" lon="0.96211">
        <ele>2276.06</ele>
        <time>2011-03-13T08:48:12Z</time>
      </trkpt>
      <trkpt lat="42.619" lon="0.96215">
        <ele>2275.58</ele>
        <time>2011-03-13T08:48:30Z</time>
      </trkpt>
      <trkpt lat="42.6189" lon="0.96214">
        <ele>2276.54</ele>
        <time>2011-03-13T08:48:44Z</time>
      </trkpt>
      <trkpt lat="42.61883" lon="0.96215">
        <ele>2276.06</ele>
        <time>2011-03-13T08:48:58Z</time>
      </trkpt>
      <trkpt lat="42.61881" lon="0.96216">
        <ele>2276.54</ele>
        <time>2011-03-13T08:49:34Z</time>
      </trkpt>
      <trkpt lat="42.61876" lon="0.96216">
        <ele>2276.54</ele>
        <time>2011-03-13T08:49:53Z</time>
      </trkpt>
      <trkpt lat="42.61873" lon="0.96218">
        <ele>2276.54</ele>
        <time>2011-03-13T08:49:58Z</time>
      </trkpt>
      <trkpt lat="42.61849" lon="0.96224">
        <ele>2271.73</ele>
        <time>2011-03-13T08:50:10Z</time>
      </trkpt>
      <trkpt lat="42.61835" lon="0.96223">
        <ele>2271.73</ele>
        <time>2011-03-13T08:50:18Z</time>
      </trkpt>
      <trkpt lat="42.61823" lon="0.9622">
        <ele>2272.21</ele>
        <time>2011-03-13T08:50:31Z</time>
      </trkpt>
      <trkpt lat="42.61812" lon="0.96216">
        <ele>2273.66</ele>
        <time>2011-03-13T08:50:44Z</time>
      </trkpt>
      <trkpt lat="42.61805" lon="0.96215">
        <ele>2273.66</ele>
        <time>2011-03-13T08:50:58Z</time>
      </trkpt>
      <trkpt lat="42.61794" lon="0.96217">
        <ele>2273.17</ele>
        <time>2011-03-13T08:51:11Z</time>
      </trkpt>
      <trkpt lat="42.61776" lon="0.96217">
        <ele>2270.77</ele>
        <time>2011-03-13T08:51:23Z</time>
      </trkpt>
      <trkpt lat="42.6177" lon="0.96214">
        <ele>2270.77</ele>
        <time>2011-03-13T08:51:34Z</time>
      </trkpt>
      <trkpt lat="42.61761" lon="0.9621">
        <ele>2271.25</ele>
        <time>2011-03-13T08:51:49Z</time>
      </trkpt>
      <trkpt lat="42.61754" lon="0.96206">
        <ele>2271.73</ele>
        <time>2011-03-13T08:52:03Z</time>
      </trkpt>
      <trkpt lat="42.61746" lon="0.96204">
        <ele>2273.17</ele>
        <time>2011-03-13T08:52:19Z</time>
      </trkpt>
      <trkpt lat="42.61733" lon="0.9621">
        <ele>2274.14</ele>
        <time>2011-03-13T08:52:38Z</time>
      </trkpt>
      <trkpt lat="42.61723" lon="0.96217">
        <ele>2275.58</ele>
        <time>2011-03-13T08:52:55Z</time>
      </trkpt>
      <trkpt lat="42.61713" lon="0.96219">
        <ele>2274.14</ele>
        <time>2011-03-13T08:53:11Z</time>
      </trkpt>
      <trkpt lat="42.61702" lon="0.96217">
        <ele>2274.14</ele>
        <time>2011-03-13T08:53:24Z</time>
      </trkpt>
      <trkpt lat="42.61693" lon="0.96211">
        <ele>2275.58</ele>
        <time>2011-03-13T08:53:38Z</time>
      </trkpt>
      <trkpt lat="42.61687" lon="0.96202">
        <ele>2276.54</ele>
        <time>2011-03-13T08:53:54Z</time>
      </trkpt>
      <trkpt lat="42.61682" lon="0.96199">
        <ele>2277.02</ele>
        <time>2011-03-13T08:54:07Z</time>
      </trkpt>
      <trkpt lat="42.61678" lon="0.96194">
        <ele>2277.98</ele>
        <time>2011-03-13T08:54:22Z</time>
      </trkpt>
      <trkpt lat="42.61674" lon="0.96189">
        <ele>2279.9</ele>
        <time>2011-03-13T08:54:39Z</time>
      </trkpt>
      <trkpt lat="42.61669" lon="0.96185">
        <ele>2280.38</ele>
        <time>2011-03-13T08:54:52Z</time>
      </trkpt>
      <trkpt lat="42.61663" lon="0.96183">
        <ele>2282.79</ele>
        <time>2011-03-13T08:55:07Z</time>
      </trkpt>
      <trkpt lat="42.61654" lon="0.96183">
        <ele>2283.75</ele>
        <time>2011-03-13T08:55:23Z</time>
      </trkpt>
      <trkpt lat="42.61646" lon="0.96183">
        <ele>2282.79</ele>
        <time>2011-03-13T08:55:35Z</time>
      </trkpt>
      <trkpt lat="42.61639" lon="0.96183">
        <ele>2283.27</ele>
        <time>2011-03-13T08:55:49Z</time>
      </trkpt>
      <trkpt lat="42.61633" lon="0.96187">
        <ele>2283.75</ele>
        <time>2011-03-13T08:56:03Z</time>
      </trkpt>
      <trkpt lat="42.61634" lon="0.962">
        <ele>2283.75</ele>
        <time>2011-03-13T08:56:16Z</time>
      </trkpt>
      <trkpt lat="42.61631" lon="0.96209">
        <ele>2285.19</ele>
        <time>2011-03-13T08:56:30Z</time>
      </trkpt>
      <trkpt lat="42.61628" lon="0.96216">
        <ele>2286.15</ele>
        <time>2011-03-13T08:56:45Z</time>
      </trkpt>
      <trkpt lat="42.61626" lon="0.96225">
        <ele>2287.59</ele>
        <time>2011-03-13T08:57:03Z</time>
      </trkpt>
      <trkpt lat="42.61624" lon="0.96234">
        <ele>2289.52</ele>
        <time>2011-03-13T08:57:18Z</time>
      </trkpt>
      <trkpt lat="42.6162" lon="0.96239">
        <ele>2290.48</ele>
        <time>2011-03-13T08:57:34Z</time>
      </trkpt>
      <trkpt lat="42.61614" lon="0.96246">
        <ele>2290.96</ele>
        <time>2011-03-13T08:57:47Z</time>
      </trkpt>
      <trkpt lat="42.61609" lon="0.96251">
        <ele>2292.88</ele>
        <time>2011-03-13T08:58:02Z</time>
      </trkpt>
      <trkpt lat="42.61606" lon="0.96256">
        <ele>2293.36</ele>
        <time>2011-03-13T08:58:17Z</time>
      </trkpt>
      <trkpt lat="42.61604" lon="0.96258">
        <ele>2293.36</ele>
        <time>2011-03-13T08:58:20Z</time>
      </trkpt>
      <trkpt lat="42.61597" lon="0.96266">
        <ele>2295.28</ele>
        <time>2011-03-13T08:58:35Z</time>
      </trkpt>
      <trkpt lat="42.61588" lon="0.96266">
        <ele>2296.25</ele>
        <time>2011-03-13T08:58:56Z</time>
      </trkpt>
      <trkpt lat="42.61582" lon="0.96267">
        <ele>2298.17</ele>
        <time>2011-03-13T08:59:09Z</time>
      </trkpt>
      <trkpt lat="42.61573" lon="0.96267">
        <ele>2299.61</ele>
        <time>2011-03-13T08:59:28Z</time>
      </trkpt>
      <trkpt lat="42.61565" lon="0.96268">
        <ele>2300.57</ele>
        <time>2011-03-13T08:59:44Z</time>
      </trkpt>
      <trkpt lat="42.61556" lon="0.96271">
        <ele>2302.49</ele>
        <time>2011-03-13T09:00:01Z</time>
      </trkpt>
      <trkpt lat="42.61547" lon="0.96279">
        <ele>2302.49</ele>
        <time>2011-03-13T09:00:15Z</time>
      </trkpt>
      <trkpt lat="42.61545" lon="0.96283">
        <ele>2303.46</ele>
        <time>2011-03-13T09:00:25Z</time>
      </trkpt>
      <trkpt lat="42.61543" lon="0.96291">
        <ele>2303.46</ele>
        <time>2011-03-13T09:00:36Z</time>
      </trkpt>
      <trkpt lat="42.6154" lon="0.96301">
        <ele>2304.42</ele>
        <time>2011-03-13T09:00:48Z</time>
      </trkpt>
      <trkpt lat="42.61535" lon="0.96308">
        <ele>2305.86</ele>
        <time>2011-03-13T09:01:06Z</time>
      </trkpt>
      <trkpt lat="42.61532" lon="0.96319">
        <ele>2307.3</ele>
        <time>2011-03-13T09:01:21Z</time>
      </trkpt>
      <trkpt lat="42.61526" lon="0.96317">
        <ele>2307.78</ele>
        <time>2011-03-13T09:01:31Z</time>
      </trkpt>
      <trkpt lat="42.61522" lon="0.96316">
        <ele>2308.26</ele>
        <time>2011-03-13T09:01:48Z</time>
      </trkpt>
      <trkpt lat="42.61521" lon="0.96319">
        <ele>2307.78</ele>
        <time>2011-03-13T09:02:24Z</time>
      </trkpt>
      <trkpt lat="42.61521" lon="0.96319">
        <ele>2308.26</ele>
        <time>2011-03-13T09:03:09Z</time>
      </trkpt>
      <trkpt lat="42.61522" lon="0.9632">
        <ele>2307.3</ele>
        <time>2011-03-13T09:03:51Z</time>
      </trkpt>
      <trkpt lat="42.61523" lon="0.96321">
        <ele>2308.26</ele>
        <time>2011-03-13T09:05:00Z</time>
      </trkpt>
      <trkpt lat="42.61523" lon="0.96321">
        <ele>2308.26</ele>
        <time>2011-03-13T09:05:16Z</time>
      </trkpt>
      <trkpt lat="42.61521" lon="0.96319">
        <ele>2301.53</ele>
        <time>2011-03-13T09:05:34Z</time>
      </trkpt>
      <trkpt lat="42.61521" lon="0.96318">
        <ele>2305.38</ele>
        <time>2011-03-13T09:05:35Z</time>
      </trkpt>
      <trkpt lat="42.61521" lon="0.96317">
        <ele>2315.47</ele>
        <time>2011-03-13T09:05:41Z</time>
      </trkpt>
      <trkpt lat="42.61521" lon="0.96317">
        <ele>2307.78</ele>
        <time>2011-03-13T09:05:42Z</time>
      </trkpt>
      <trkpt lat="42.61523" lon="0.96317">
        <ele>2307.78</ele>
        <time>2011-03-13T09:06:44Z</time>
      </trkpt>
      <trkpt lat="42.61518" lon="0.96313">
        <ele>2308.26</ele>
        <time>2011-03-13T09:07:00Z</time>
      </trkpt>
      <trkpt lat="42.61517" lon="0.96314">
        <ele>2299.13</ele>
        <time>2011-03-13T09:07:20Z</time>
      </trkpt>
      <trkpt lat="42.61517" lon="0.96314">
        <ele>2314.03</ele>
        <time>2011-03-13T09:07:21Z</time>
      </trkpt>
      <trkpt lat="42.61517" lon="0.96314">
        <ele>2309.22</ele>
        <time>2011-03-13T09:07:22Z</time>
      </trkpt>
      <trkpt lat="42.61517" lon="0.96313">
        <ele>2307.78</ele>
        <time>2011-03-13T09:07:46Z</time>
      </trkpt>
      <trkpt lat="42.61517" lon="0.96313">
        <ele>2307.78</ele>
        <time>2011-03-13T09:07:51Z</time>
      </trkpt>
      <trkpt lat="42.61517" lon="0.96313">
        <ele>2309.22</ele>
        <time>2011-03-13T09:08:22Z</time>
      </trkpt>
      <trkpt lat="42.61511" lon="0.96315">
        <ele>2309.22</ele>
        <time>2011-03-13T09:09:02Z</time>
      </trkpt>
      <trkpt lat="42.61496" lon="0.96323">
        <ele>2307.78</ele>
        <time>2011-03-13T09:09:15Z</time>
      </trkpt>
      <trkpt lat="42.61494" lon="0.96325">
        <ele>2307.3</ele>
        <time>2011-03-13T09:09:17Z</time>
      </trkpt>
      <trkpt lat="42.61484" lon="0.96325">
        <ele>2307.78</ele>
        <time>2011-03-13T09:09:26Z</time>
      </trkpt>
      <trkpt lat="42.6147" lon="0.96331">
        <ele>2307.78</ele>
        <time>2011-03-13T09:09:40Z</time>
      </trkpt>
      <trkpt lat="42.61467" lon="0.96334">
        <ele>2308.26</ele>
        <time>2011-03-13T09:09:44Z</time>
      </trkpt>
      <trkpt lat="42.61461" lon="0.96334">
        <ele>2308.26</ele>
        <time>2011-03-13T09:09:50Z</time>
      </trkpt>
      <trkpt lat="42.61443" lon="0.96333">
        <ele>2308.74</ele>
        <time>2011-03-13T09:10:06Z</time>
      </trkpt>
      <trkpt lat="42.61418" lon="0.96326">
        <ele>2307.78</ele>
        <time>2011-03-13T09:10:22Z</time>
      </trkpt>
      <trkpt lat="42.61399" lon="0.9632">
        <ele>2307.78</ele>
        <time>2011-03-13T09:10:36Z</time>
      </trkpt>
      <trkpt lat="42.61384" lon="0.9631">
        <ele>2307.3</ele>
        <time>2011-03-13T09:10:51Z</time>
      </trkpt>
      <trkpt lat="42.61373" lon="0.96304">
        <ele>2308.26</ele>
        <time>2011-03-13T09:11:06Z</time>
      </trkpt>
      <trkpt lat="42.61372" lon="0.96303">
        <ele>2307.78</ele>
        <time>2011-03-13T09:11:10Z</time>
      </trkpt>
      <trkpt lat="42.61361" lon="0.96304">
        <ele>2308.26</ele>
        <time>2011-03-13T09:11:27Z</time>
      </trkpt>
      <trkpt lat="42.61349" lon="0.96304">
        <ele>2309.22</ele>
        <time>2011-03-13T09:12:50Z</time>
      </trkpt>
      <trkpt lat="42.61336" lon="0.96299">
        <ele>2310.67</ele>
        <time>2011-03-13T09:13:05Z</time>
      </trkpt>
      <trkpt lat="42.61329" lon="0.96299">
        <ele>2311.15</ele>
        <time>2011-03-13T09:13:19Z</time>
      </trkpt>
      <trkpt lat="42.61325" lon="0.96299">
        <ele>2312.59</ele>
        <time>2011-03-13T09:13:30Z</time>
      </trkpt>
      <trkpt lat="42.61315" lon="0.96299">
        <ele>2314.03</ele>
        <time>2011-03-13T09:13:50Z</time>
      </trkpt>
      <trkpt lat="42.61312" lon="0.96297">
        <ele>2315.47</ele>
        <time>2011-03-13T09:14:04Z</time>
      </trkpt>
      <trkpt lat="42.61305" lon="0.9628">
        <ele>2318.84</ele>
        <time>2011-03-13T09:14:35Z</time>
      </trkpt>
      <trkpt lat="42.61296" lon="0.96281">
        <ele>2322.2</ele>
        <time>2011-03-13T09:15:04Z</time>
      </trkpt>
      <trkpt lat="42.61287" lon="0.96282">
        <ele>2323.16</ele>
        <time>2011-03-13T09:15:20Z</time>
      </trkpt>
      <trkpt lat="42.61283" lon="0.96282">
        <ele>2324.12</ele>
        <time>2011-03-13T09:15:34Z</time>
      </trkpt>
      <trkpt lat="42.6128" lon="0.96275">
        <ele>2326.05</ele>
        <time>2011-03-13T09:15:48Z</time>
      </trkpt>
      <trkpt lat="42.61274" lon="0.96269">
        <ele>2327.01</ele>
        <time>2011-03-13T09:16:02Z</time>
      </trkpt>
      <trkpt lat="42.61268" lon="0.96267">
        <ele>2328.93</ele>
        <time>2011-03-13T09:16:18Z</time>
      </trkpt>
      <trkpt lat="42.61263" lon="0.96269">
        <ele>2329.89</ele>
        <time>2011-03-13T09:16:33Z</time>
      </trkpt>
      <trkpt lat="42.61258" lon="0.96263">
        <ele>2332.3</ele>
        <time>2011-03-13T09:16:48Z</time>
      </trkpt>
      <trkpt lat="42.61255" lon="0.96254">
        <ele>2332.78</ele>
        <time>2011-03-13T09:17:07Z</time>
      </trkpt>
      <trkpt lat="42.6125" lon="0.96241">
        <ele>2335.66</ele>
        <time>2011-03-13T09:17:35Z</time>
      </trkpt>
      <trkpt lat="42.61252" lon="0.96231">
        <ele>2337.58</ele>
        <time>2011-03-13T09:17:49Z</time>
      </trkpt>
      <trkpt lat="42.61252" lon="0.96226">
        <ele>2338.54</ele>
        <time>2011-03-13T09:18:13Z</time>
      </trkpt>
      <trkpt lat="42.61252" lon="0.96211">
        <ele>2341.43</ele>
        <time>2011-03-13T09:19:18Z</time>
      </trkpt>
      <trkpt lat="42.61246" lon="0.96217">
        <ele>2342.87</ele>
        <time>2011-03-13T09:19:38Z</time>
      </trkpt>
      <trkpt lat="42.6124" lon="0.96222">
        <ele>2343.83</ele>
        <time>2011-03-13T09:19:51Z</time>
      </trkpt>
      <trkpt lat="42.61234" lon="0.96226">
        <ele>2344.79</ele>
        <time>2011-03-13T09:20:03Z</time>
      </trkpt>
      <trkpt lat="42.61227" lon="0.96234">
        <ele>2346.72</ele>
        <time>2011-03-13T09:20:20Z</time>
      </trkpt>
      <trkpt lat="42.61223" lon="0.96239">
        <ele>2348.16</ele>
        <time>2011-03-13T09:20:31Z</time>
      </trkpt>
      <trkpt lat="42.61216" lon="0.96253">
        <ele>2350.08</ele>
        <time>2011-03-13T09:20:56Z</time>
      </trkpt>
      <trkpt lat="42.61213" lon="0.96253">
        <ele>2352</ele>
        <time>2011-03-13T09:21:34Z</time>
      </trkpt>
      <trkpt lat="42.6121" lon="0.96248">
        <ele>2352.96</ele>
        <time>2011-03-13T09:21:56Z</time>
      </trkpt>
      <trkpt lat="42.61207" lon="0.96236">
        <ele>2355.37</ele>
        <time>2011-03-13T09:22:11Z</time>
      </trkpt>
      <trkpt lat="42.61204" lon="0.96228">
        <ele>2357.77</ele>
        <time>2011-03-13T09:22:36Z</time>
      </trkpt>
      <trkpt lat="42.61197" lon="0.96234">
        <ele>2359.69</ele>
        <time>2011-03-13T09:22:53Z</time>
      </trkpt>
      <trkpt lat="42.6119" lon="0.96243">
        <ele>2362.1</ele>
        <time>2011-03-13T09:23:14Z</time>
      </trkpt>
      <trkpt lat="42.61187" lon="0.96237">
        <ele>2364.02</ele>
        <time>2011-03-13T09:23:47Z</time>
      </trkpt>
      <trkpt lat="42.61186" lon="0.96229">
        <ele>2364.98</ele>
        <time>2011-03-13T09:23:58Z</time>
      </trkpt>
      <trkpt lat="42.61184" lon="0.96218">
        <ele>2366.42</ele>
        <time>2011-03-13T09:24:13Z</time>
      </trkpt>
      <trkpt lat="42.61185" lon="0.96207">
        <ele>2368.83</ele>
        <time>2011-03-13T09:24:30Z</time>
      </trkpt>
      <trkpt lat="42.61188" lon="0.96198">
        <ele>2370.27</ele>
        <time>2011-03-13T09:24:44Z</time>
      </trkpt>
      <trkpt lat="42.61185" lon="0.96193">
        <ele>2372.19</ele>
        <time>2011-03-13T09:24:58Z</time>
      </trkpt>
      <trkpt lat="42.61176" lon="0.96192">
        <ele>2373.15</ele>
        <time>2011-03-13T09:25:12Z</time>
      </trkpt>
      <trkpt lat="42.61166" lon="0.96197">
        <ele>2375.07</ele>
        <time>2011-03-13T09:25:28Z</time>
      </trkpt>
      <trkpt lat="42.61158" lon="0.96196">
        <ele>2376.04</ele>
        <time>2011-03-13T09:25:43Z</time>
      </trkpt>
      <trkpt lat="42.6115" lon="0.96198">
        <ele>2376.04</ele>
        <time>2011-03-13T09:25:56Z</time>
      </trkpt>
      <trkpt lat="42.6115" lon="0.96202">
        <ele>2376.52</ele>
        <time>2011-03-13T09:26:19Z</time>
      </trkpt>
      <trkpt lat="42.61143" lon="0.96206">
        <ele>2377.48</ele>
        <time>2011-03-13T09:26:41Z</time>
      </trkpt>
      <trkpt lat="42.61138" lon="0.96218">
        <ele>2377.96</ele>
        <time>2011-03-13T09:26:58Z</time>
      </trkpt>
      <trkpt lat="42.61128" lon="0.96225">
        <ele>2378.92</ele>
        <time>2011-03-13T09:27:11Z</time>
      </trkpt>
      <trkpt lat="42.61122" lon="0.96233">
        <ele>2378.92</ele>
        <time>2011-03-13T09:27:21Z</time>
      </trkpt>
      <trkpt lat="42.61118" lon="0.96244">
        <ele>2379.4</ele>
        <time>2011-03-13T09:27:30Z</time>
      </trkpt>
      <trkpt lat="42.61116" lon="0.96255">
        <ele>2381.32</ele>
        <time>2011-03-13T09:27:42Z</time>
      </trkpt>
      <trkpt lat="42.61113" lon="0.9626">
        <ele>2382.28</ele>
        <time>2011-03-13T09:27:52Z</time>
      </trkpt>
      <trkpt lat="42.61109" lon="0.96272">
        <ele>2384.21</ele>
        <time>2011-03-13T09:28:05Z</time>
      </trkpt>
      <trkpt lat="42.61103" lon="0.96279">
        <ele>2385.65</ele>
        <time>2011-03-13T09:28:18Z</time>
      </trkpt>
      <trkpt lat="42.61095" lon="0.96279">
        <ele>2386.61</ele>
        <time>2011-03-13T09:28:33Z</time>
      </trkpt>
      <trkpt lat="42.6109" lon="0.96278">
        <ele>2388.05</ele>
        <time>2011-03-13T09:28:44Z</time>
      </trkpt>
      <trkpt lat="42.6108" lon="0.96279">
        <ele>2390.46</ele>
        <time>2011-03-13T09:29:08Z</time>
      </trkpt>
      <trkpt lat="42.61073" lon="0.96281">
        <ele>2391.42</ele>
        <time>2011-03-13T09:29:26Z</time>
      </trkpt>
      <trkpt lat="42.61068" lon="0.96281">
        <ele>2393.34</ele>
        <time>2011-03-13T09:29:40Z</time>
      </trkpt>
      <trkpt lat="42.61065" lon="0.96283">
        <ele>2395.74</ele>
        <time>2011-03-13T09:30:01Z</time>
      </trkpt>
      <trkpt lat="42.61063" lon="0.96296">
        <ele>2398.63</ele>
        <time>2011-03-13T09:30:31Z</time>
      </trkpt>
      <trkpt lat="42.61058" lon="0.96297">
        <ele>2399.59</ele>
        <time>2011-03-13T09:30:44Z</time>
      </trkpt>
      <trkpt lat="42.61053" lon="0.96293">
        <ele>2400.07</ele>
        <time>2011-03-13T09:32:40Z</time>
      </trkpt>
      <trkpt lat="42.6105" lon="0.96294">
        <ele>2403.43</ele>
        <time>2011-03-13T09:33:36Z</time>
      </trkpt>
      <trkpt lat="42.6105" lon="0.96302">
        <ele>2403.91</ele>
        <time>2011-03-13T09:33:46Z</time>
      </trkpt>
      <trkpt lat="42.61052" lon="0.96303">
        <ele>2405.36</ele>
        <time>2011-03-13T09:33:59Z</time>
      </trkpt>
      <trkpt lat="42.61058" lon="0.96312">
        <ele>2406.8</ele>
        <time>2011-03-13T09:34:16Z</time>
      </trkpt>
      <trkpt lat="42.61059" lon="0.96317">
        <ele>2407.76</ele>
        <time>2011-03-13T09:34:27Z</time>
      </trkpt>
      <trkpt lat="42.61057" lon="0.96321">
        <ele>2409.68</ele>
        <time>2011-03-13T09:34:34Z</time>
      </trkpt>
      <trkpt lat="42.61049" lon="0.96319">
        <ele>2410.64</ele>
        <time>2011-03-13T09:34:48Z</time>
      </trkpt>
      <trkpt lat="42.6104" lon="0.96318">
        <ele>2413.53</ele>
        <time>2011-03-13T09:35:11Z</time>
      </trkpt>
      <trkpt lat="42.61032" lon="0.96313">
        <ele>2415.45</ele>
        <time>2011-03-13T09:35:34Z</time>
      </trkpt>
      <trkpt lat="42.61026" lon="0.96307">
        <ele>2417.85</ele>
        <time>2011-03-13T09:36:11Z</time>
      </trkpt>
      <trkpt lat="42.61024" lon="0.9631">
        <ele>2419.3</ele>
        <time>2011-03-13T09:36:19Z</time>
      </trkpt>
      <trkpt lat="42.61023" lon="0.96312">
        <ele>2420.74</ele>
        <time>2011-03-13T09:36:23Z</time>
      </trkpt>
      <trkpt lat="42.6102" lon="0.9632">
        <ele>2420.74</ele>
        <time>2011-03-13T09:36:35Z</time>
      </trkpt>
      <trkpt lat="42.61018" lon="0.96325">
        <ele>2423.14</ele>
        <time>2011-03-13T09:36:56Z</time>
      </trkpt>
      <trkpt lat="42.61011" lon="0.96328">
        <ele>2424.58</ele>
        <time>2011-03-13T09:37:16Z</time>
      </trkpt>
      <trkpt lat="42.61004" lon="0.96322">
        <ele>2426.99</ele>
        <time>2011-03-13T09:37:30Z</time>
      </trkpt>
      <trkpt lat="42.61" lon="0.96315">
        <ele>2429.39</ele>
        <time>2011-03-13T09:37:44Z</time>
      </trkpt>
      <trkpt lat="42.60995" lon="0.96315">
        <ele>2430.35</ele>
        <time>2011-03-13T09:37:56Z</time>
      </trkpt>
      <trkpt lat="42.60995" lon="0.96315">
        <ele>2430.83</ele>
        <time>2011-03-13T09:38:23Z</time>
      </trkpt>
      <trkpt lat="42.60997" lon="0.96316">
        <ele>2431.31</ele>
        <time>2011-03-13T09:38:39Z</time>
      </trkpt>
      <trkpt lat="42.60997" lon="0.96316">
        <ele>2430.83</ele>
        <time>2011-03-13T09:38:55Z</time>
      </trkpt>
      <trkpt lat="42.60995" lon="0.96319">
        <ele>2431.31</ele>
        <time>2011-03-13T09:38:59Z</time>
      </trkpt>
      <trkpt lat="42.60994" lon="0.96321">
        <ele>2432.27</ele>
        <time>2011-03-13T09:39:15Z</time>
      </trkpt>
      <trkpt lat="42.60994" lon="0.96322">
        <ele>2433.23</ele>
        <time>2011-03-13T09:39:35Z</time>
      </trkpt>
      <trkpt lat="42.60989" lon="0.96317">
        <ele>2436.12</ele>
        <time>2011-03-13T09:39:49Z</time>
      </trkpt>
      <trkpt lat="42.60989" lon="0.96316">
        <ele>2436.12</ele>
        <time>2011-03-13T09:39:50Z</time>
      </trkpt>
      <trkpt lat="42.60988" lon="0.96311">
        <ele>2437.56</ele>
        <time>2011-03-13T09:40:08Z</time>
      </trkpt>
      <trkpt lat="42.60989" lon="0.96297">
        <ele>2440.44</ele>
        <time>2011-03-13T09:40:26Z</time>
      </trkpt>
      <trkpt lat="42.60988" lon="0.96295">
        <ele>2442.37</ele>
        <time>2011-03-13T09:40:41Z</time>
      </trkpt>
      <trkpt lat="42.60983" lon="0.96296">
        <ele>2442.85</ele>
        <time>2011-03-13T09:40:52Z</time>
      </trkpt>
      <trkpt lat="42.60978" lon="0.96297">
        <ele>2444.77</ele>
        <time>2011-03-13T09:41:04Z</time>
      </trkpt>
      <trkpt lat="42.60973" lon="0.963">
        <ele>2445.73</ele>
        <time>2011-03-13T09:41:14Z</time>
      </trkpt>
      <trkpt lat="42.60967" lon="0.96304">
        <ele>2447.65</ele>
        <time>2011-03-13T09:41:27Z</time>
      </trkpt>
      <trkpt lat="42.60962" lon="0.96307">
        <ele>2449.1</ele>
        <time>2011-03-13T09:41:40Z</time>
      </trkpt>
      <trkpt lat="42.60959" lon="0.9631">
        <ele>2450.54</ele>
        <time>2011-03-13T09:41:52Z</time>
      </trkpt>
      <trkpt lat="42.60956" lon="0.96316">
        <ele>2451.5</ele>
        <time>2011-03-13T09:42:05Z</time>
      </trkpt>
      <trkpt lat="42.60955" lon="0.96318">
        <ele>2451.5</ele>
        <time>2011-03-13T09:42:20Z</time>
      </trkpt>
      <trkpt lat="42.60953" lon="0.96323">
        <ele>2452.46</ele>
        <time>2011-03-13T09:43:13Z</time>
      </trkpt>
      <trkpt lat="42.60951" lon="0.96321">
        <ele>2453.42</ele>
        <time>2011-03-13T09:43:22Z</time>
      </trkpt>
      <trkpt lat="42.60946" lon="0.96313">
        <ele>2455.34</ele>
        <time>2011-03-13T09:43:33Z</time>
      </trkpt>
      <trkpt lat="42.60943" lon="0.96305">
        <ele>2457.27</ele>
        <time>2011-03-13T09:43:46Z</time>
      </trkpt>
      <trkpt lat="42.60944" lon="0.96298">
        <ele>2459.19</ele>
        <time>2011-03-13T09:43:58Z</time>
      </trkpt>
      <trkpt lat="42.60946" lon="0.96292">
        <ele>2460.15</ele>
        <time>2011-03-13T09:44:11Z</time>
      </trkpt>
      <trkpt lat="42.60946" lon="0.96288">
        <ele>2461.11</ele>
        <time>2011-03-13T09:44:25Z</time>
      </trkpt>
      <trkpt lat="42.60946" lon="0.96287">
        <ele>2461.11</ele>
        <time>2011-03-13T09:44:41Z</time>
      </trkpt>
      <trkpt lat="42.60944" lon="0.96281">
        <ele>2462.07</ele>
        <time>2011-03-13T09:44:51Z</time>
      </trkpt>
      <trkpt lat="42.6094" lon="0.96285">
        <ele>2464.48</ele>
        <time>2011-03-13T09:45:01Z</time>
      </trkpt>
      <trkpt lat="42.60935" lon="0.9629">
        <ele>2465.92</ele>
        <time>2011-03-13T09:45:14Z</time>
      </trkpt>
      <trkpt lat="42.60933" lon="0.96291">
        <ele>2466.88</ele>
        <time>2011-03-13T09:45:34Z</time>
      </trkpt>
      <trkpt lat="42.60932" lon="0.96291">
        <ele>2468.32</ele>
        <time>2011-03-13T09:45:56Z</time>
      </trkpt>
      <trkpt lat="42.60931" lon="0.96288">
        <ele>2469.76</ele>
        <time>2011-03-13T09:46:03Z</time>
      </trkpt>
      <trkpt lat="42.60925" lon="0.96288">
        <ele>2471.69</ele>
        <time>2011-03-13T09:46:13Z</time>
      </trkpt>
      <trkpt lat="42.6092" lon="0.96291">
        <ele>2473.61</ele>
        <time>2011-03-13T09:46:23Z</time>
      </trkpt>
      <trkpt lat="42.60919" lon="0.96289">
        <ele>2474.09</ele>
        <time>2011-03-13T09:46:35Z</time>
      </trkpt>
      <trkpt lat="42.60913" lon="0.96282">
        <ele>2475.53</ele>
        <time>2011-03-13T09:46:48Z</time>
      </trkpt>
      <trkpt lat="42.60909" lon="0.96279">
        <ele>2477.45</ele>
        <time>2011-03-13T09:46:59Z</time>
      </trkpt>
      <trkpt lat="42.60904" lon="0.96281">
        <ele>2477.94</ele>
        <time>2011-03-13T09:47:11Z</time>
      </trkpt>
      <trkpt lat="42.609" lon="0.96286">
        <ele>2480.34</ele>
        <time>2011-03-13T09:47:25Z</time>
      </trkpt>
      <trkpt lat="42.60895" lon="0.96292">
        <ele>2481.78</ele>
        <time>2011-03-13T09:47:39Z</time>
      </trkpt>
      <trkpt lat="42.60888" lon="0.96299">
        <ele>2482.74</ele>
        <time>2011-03-13T09:47:54Z</time>
      </trkpt>
      <trkpt lat="42.60884" lon="0.96301">
        <ele>2483.22</ele>
        <time>2011-03-13T09:48:05Z</time>
      </trkpt>
      <trkpt lat="42.60878" lon="0.96306">
        <ele>2485.15</ele>
        <time>2011-03-13T09:48:17Z</time>
      </trkpt>
      <trkpt lat="42.60872" lon="0.96308">
        <ele>2486.59</ele>
        <time>2011-03-13T09:48:31Z</time>
      </trkpt>
      <trkpt lat="42.60867" lon="0.96312">
        <ele>2487.55</ele>
        <time>2011-03-13T09:48:43Z</time>
      </trkpt>
      <trkpt lat="42.60861" lon="0.96319">
        <ele>2488.99</ele>
        <time>2011-03-13T09:48:57Z</time>
      </trkpt>
      <trkpt lat="42.60854" lon="0.96323">
        <ele>2490.43</ele>
        <time>2011-03-13T09:49:09Z</time>
      </trkpt>
      <trkpt lat="42.60848" lon="0.96327">
        <ele>2491.39</ele>
        <time>2011-03-13T09:49:24Z</time>
      </trkpt>
      <trkpt lat="42.60841" lon="0.96332">
        <ele>2493.32</ele>
        <time>2011-03-13T09:49:41Z</time>
      </trkpt>
      <trkpt lat="42.60834" lon="0.9634">
        <ele>2493.8</ele>
        <time>2011-03-13T09:49:53Z</time>
      </trkpt>
      <trkpt lat="42.60829" lon="0.96342">
        <ele>2494.76</ele>
        <time>2011-03-13T09:50:09Z</time>
      </trkpt>
      <trkpt lat="42.60827" lon="0.96343">
        <ele>2494.76</ele>
        <time>2011-03-13T09:50:20Z</time>
      </trkpt>
      <trkpt lat="42.60817" lon="0.96342">
        <ele>2495.72</ele>
        <time>2011-03-13T09:50:33Z</time>
      </trkpt>
      <trkpt lat="42.60808" lon="0.96336">
        <ele>2496.68</ele>
        <time>2011-03-13T09:50:50Z</time>
      </trkpt>
      <trkpt lat="42.60803" lon="0.96329">
        <ele>2497.16</ele>
        <time>2011-03-13T09:51:00Z</time>
      </trkpt>
      <trkpt lat="42.60797" lon="0.9632">
        <ele>2498.12</ele>
        <time>2011-03-13T09:51:15Z</time>
      </trkpt>
      <trkpt lat="42.60796" lon="0.96316">
        <ele>2498.12</ele>
        <time>2011-03-13T09:51:25Z</time>
      </trkpt>
      <trkpt lat="42.60795" lon="0.96314">
        <ele>2499.57</ele>
        <time>2011-03-13T09:51:37Z</time>
      </trkpt>
      <trkpt lat="42.6079" lon="0.96309">
        <ele>2500.53</ele>
        <time>2011-03-13T09:51:48Z</time>
      </trkpt>
      <trkpt lat="42.60784" lon="0.96304">
        <ele>2501.49</ele>
        <time>2011-03-13T09:52:01Z</time>
      </trkpt>
      <trkpt lat="42.60783" lon="0.96305">
        <ele>2500.53</ele>
        <time>2011-03-13T09:52:11Z</time>
      </trkpt>
      <trkpt lat="42.60781" lon="0.96298">
        <ele>2500.53</ele>
        <time>2011-03-13T09:52:19Z</time>
      </trkpt>
      <trkpt lat="42.60782" lon="0.96298">
        <ele>2500.53</ele>
        <time>2011-03-13T09:52:28Z</time>
      </trkpt>
      <trkpt lat="42.60783" lon="0.96296">
        <ele>2500.53</ele>
        <time>2011-03-13T09:52:41Z</time>
      </trkpt>
      <trkpt lat="42.60783" lon="0.96296">
        <ele>2500.53</ele>
        <time>2011-03-13T09:52:46Z</time>
      </trkpt>
      <trkpt lat="42.60783" lon="0.96295">
        <ele>2500.05</ele>
        <time>2011-03-13T09:52:57Z</time>
      </trkpt>
      <trkpt lat="42.60782" lon="0.96298">
        <ele>2501.49</ele>
        <time>2011-03-13T09:53:13Z</time>
      </trkpt>
      <trkpt lat="42.60781" lon="0.96301">
        <ele>2501.01</ele>
        <time>2011-03-13T09:53:25Z</time>
      </trkpt>
      <trkpt lat="42.60781" lon="0.96301">
        <ele>2501.49</ele>
        <time>2011-03-13T09:53:44Z</time>
      </trkpt>
      <trkpt lat="42.6078" lon="0.96302">
        <ele>2501.49</ele>
        <time>2011-03-13T09:54:07Z</time>
      </trkpt>
      <trkpt lat="42.60779" lon="0.96304">
        <ele>2501.49</ele>
        <time>2011-03-13T09:54:33Z</time>
      </trkpt>
      <trkpt lat="42.60779" lon="0.96305">
        <ele>2499.57</ele>
        <time>2011-03-13T09:56:13Z</time>
      </trkpt>
      <trkpt lat="42.60778" lon="0.96305">
        <ele>2500.53</ele>
        <time>2011-03-13T09:58:20Z</time>
      </trkpt>
      <trkpt lat="42.60777" lon="0.96306">
        <ele>2501.01</ele>
        <time>2011-03-13T09:59:07Z</time>
      </trkpt>
      <trkpt lat="42.60777" lon="0.96306">
        <ele>2497.64</ele>
        <time>2011-03-13T09:59:37Z</time>
      </trkpt>
      <trkpt lat="42.60777" lon="0.96306">
        <ele>2501.01</ele>
        <time>2011-03-13T09:59:38Z</time>
      </trkpt>
      <trkpt lat="42.60777" lon="0.96306">
        <ele>2501.97</ele>
        <time>2011-03-13T10:00:19Z</time>
      </trkpt>
      <trkpt lat="42.60777" lon="0.96306">
        <ele>2500.05</ele>
        <time>2011-03-13T10:00:33Z</time>
      </trkpt>
      <trkpt lat="42.60778" lon="0.96306">
        <ele>2501.97</ele>
        <time>2011-03-13T10:04:04Z</time>
      </trkpt>
      <trkpt lat="42.60778" lon="0.96306">
        <ele>2501.97</ele>
        <time>2011-03-13T10:04:24Z</time>
      </trkpt>
      <trkpt lat="42.60778" lon="0.96306">
        <ele>2502.45</ele>
        <time>2011-03-13T10:04:33Z</time>
      </trkpt>
      <trkpt lat="42.60775" lon="0.96307">
        <ele>2501.49</ele>
        <time>2011-03-13T10:04:45Z</time>
      </trkpt>
      <trkpt lat="42.60775" lon="0.96307">
        <ele>2501.01</ele>
        <time>2011-03-13T10:04:46Z</time>
      </trkpt>
      <trkpt lat="42.60771" lon="0.963">
        <ele>2500.53</ele>
        <time>2011-03-13T10:04:53Z</time>
      </trkpt>
      <trkpt lat="42.60763" lon="0.96289">
        <ele>2501.01</ele>
        <time>2011-03-13T10:05:06Z</time>
      </trkpt>
      <trkpt lat="42.60756" lon="0.9628">
        <ele>2501.49</ele>
        <time>2011-03-13T10:05:18Z</time>
      </trkpt>
      <trkpt lat="42.6075" lon="0.96271">
        <ele>2502.45</ele>
        <time>2011-03-13T10:05:31Z</time>
      </trkpt>
      <trkpt lat="42.60749" lon="0.96262">
        <ele>2503.89</ele>
        <time>2011-03-13T10:05:42Z</time>
      </trkpt>
      <trkpt lat="42.60748" lon="0.96251">
        <ele>2504.37</ele>
        <time>2011-03-13T10:05:55Z</time>
      </trkpt>
      <trkpt lat="42.60748" lon="0.96248">
        <ele>2504.85</ele>
        <time>2011-03-13T10:05:57Z</time>
      </trkpt>
      <trkpt lat="42.6075" lon="0.96236">
        <ele>2505.81</ele>
        <time>2011-03-13T10:06:08Z</time>
      </trkpt>
      <trkpt lat="42.60749" lon="0.96231">
        <ele>2506.77</ele>
        <time>2011-03-13T10:06:12Z</time>
      </trkpt>
      <trkpt lat="42.60741" lon="0.96225">
        <ele>2508.22</ele>
        <time>2011-03-13T10:06:26Z</time>
      </trkpt>
      <trkpt lat="42.60734" lon="0.96222">
        <ele>2510.14</ele>
        <time>2011-03-13T10:06:36Z</time>
      </trkpt>
      <trkpt lat="42.60726" lon="0.96216">
        <ele>2511.1</ele>
        <time>2011-03-13T10:06:49Z</time>
      </trkpt>
      <trkpt lat="42.60721" lon="0.96209">
        <ele>2511.58</ele>
        <time>2011-03-13T10:07:00Z</time>
      </trkpt>
      <trkpt lat="42.6072" lon="0.96204">
        <ele>2512.54</ele>
        <time>2011-03-13T10:07:06Z</time>
      </trkpt>
      <trkpt lat="42.60717" lon="0.9619">
        <ele>2514.47</ele>
        <time>2011-03-13T10:07:21Z</time>
      </trkpt>
      <trkpt lat="42.60714" lon="0.96174">
        <ele>2515.91</ele>
        <time>2011-03-13T10:07:36Z</time>
      </trkpt>
      <trkpt lat="42.60711" lon="0.96168">
        <ele>2517.83</ele>
        <time>2011-03-13T10:07:47Z</time>
      </trkpt>
      <trkpt lat="42.60703" lon="0.96156">
        <ele>2519.75</ele>
        <time>2011-03-13T10:08:02Z</time>
      </trkpt>
      <trkpt lat="42.607" lon="0.96153">
        <ele>2520.23</ele>
        <time>2011-03-13T10:08:09Z</time>
      </trkpt>
      <trkpt lat="42.60689" lon="0.96151">
        <ele>2521.68</ele>
        <time>2011-03-13T10:08:22Z</time>
      </trkpt>
      <trkpt lat="42.60682" lon="0.96157">
        <ele>2523.6</ele>
        <time>2011-03-13T10:08:33Z</time>
      </trkpt>
      <trkpt lat="42.60681" lon="0.96158">
        <ele>2523.6</ele>
        <time>2011-03-13T10:08:34Z</time>
      </trkpt>
      <trkpt lat="42.60674" lon="0.9616">
        <ele>2524.08</ele>
        <time>2011-03-13T10:08:42Z</time>
      </trkpt>
      <trkpt lat="42.60665" lon="0.96151">
        <ele>2523.6</ele>
        <time>2011-03-13T10:08:56Z</time>
      </trkpt>
      <trkpt lat="42.60658" lon="0.96134">
        <ele>2523.12</ele>
        <time>2011-03-13T10:09:09Z</time>
      </trkpt>
      <trkpt lat="42.60654" lon="0.96118">
        <ele>2521.68</ele>
        <time>2011-03-13T10:09:21Z</time>
      </trkpt>
      <trkpt lat="42.60652" lon="0.96102">
        <ele>2520.71</ele>
        <time>2011-03-13T10:09:34Z</time>
      </trkpt>
      <trkpt lat="42.60644" lon="0.96094">
        <ele>2521.19</ele>
        <time>2011-03-13T10:09:46Z</time>
      </trkpt>
      <trkpt lat="42.60636" lon="0.96085">
        <ele>2523.12</ele>
        <time>2011-03-13T10:10:01Z</time>
      </trkpt>
      <trkpt lat="42.60634" lon="0.96086">
        <ele>2524.08</ele>
        <time>2011-03-13T10:10:12Z</time>
      </trkpt>
      <trkpt lat="42.60628" lon="0.96083">
        <ele>2525.04</ele>
        <time>2011-03-13T10:10:23Z</time>
      </trkpt>
      <trkpt lat="42.60619" lon="0.96079">
        <ele>2527.44</ele>
        <time>2011-03-13T10:10:40Z</time>
      </trkpt>
      <trkpt lat="42.60614" lon="0.96075">
        <ele>2529.37</ele>
        <time>2011-03-13T10:10:53Z</time>
      </trkpt>
      <trkpt lat="42.60612" lon="0.96064">
        <ele>2530.33</ele>
        <time>2011-03-13T10:11:07Z</time>
      </trkpt>
      <trkpt lat="42.60612" lon="0.96053">
        <ele>2531.77</ele>
        <time>2011-03-13T10:11:18Z</time>
      </trkpt>
      <trkpt lat="42.60612" lon="0.96048">
        <ele>2532.73</ele>
        <time>2011-03-13T10:11:23Z</time>
      </trkpt>
      <trkpt lat="42.60611" lon="0.96041">
        <ele>2532.25</ele>
        <time>2011-03-13T10:11:29Z</time>
      </trkpt>
      <trkpt lat="42.60605" lon="0.96034">
        <ele>2533.69</ele>
        <time>2011-03-13T10:11:43Z</time>
      </trkpt>
      <trkpt lat="42.60604" lon="0.96032">
        <ele>2535.13</ele>
        <time>2011-03-13T10:11:46Z</time>
      </trkpt>
      <trkpt lat="42.606" lon="0.96023">
        <ele>2536.1</ele>
        <time>2011-03-13T10:11:59Z</time>
      </trkpt>
      <trkpt lat="42.60598" lon="0.96009">
        <ele>2538.02</ele>
        <time>2011-03-13T10:12:16Z</time>
      </trkpt>
      <trkpt lat="42.60598" lon="0.95995">
        <ele>2538.98</ele>
        <time>2011-03-13T10:12:29Z</time>
      </trkpt>
      <trkpt lat="42.60597" lon="0.95984">
        <ele>2540.9</ele>
        <time>2011-03-13T10:12:44Z</time>
      </trkpt>
      <trkpt lat="42.60591" lon="0.95978">
        <ele>2542.34</ele>
        <time>2011-03-13T10:13:01Z</time>
      </trkpt>
      <trkpt lat="42.60587" lon="0.9597">
        <ele>2544.27</ele>
        <time>2011-03-13T10:13:17Z</time>
      </trkpt>
      <trkpt lat="42.60586" lon="0.9596">
        <ele>2545.71</ele>
        <time>2011-03-13T10:13:30Z</time>
      </trkpt>
      <trkpt lat="42.60585" lon="0.9595">
        <ele>2547.63</ele>
        <time>2011-03-13T10:13:43Z</time>
      </trkpt>
      <trkpt lat="42.60584" lon="0.95936">
        <ele>2548.59</ele>
        <time>2011-03-13T10:13:56Z</time>
      </trkpt>
      <trkpt lat="42.60583" lon="0.95925">
        <ele>2550.51</ele>
        <time>2011-03-13T10:14:11Z</time>
      </trkpt>
      <trkpt lat="42.60581" lon="0.95915">
        <ele>2551</ele>
        <time>2011-03-13T10:14:22Z</time>
      </trkpt>
      <trkpt lat="42.6058" lon="0.95908">
        <ele>2552.92</ele>
        <time>2011-03-13T10:14:34Z</time>
      </trkpt>
      <trkpt lat="42.6058" lon="0.95901">
        <ele>2554.36</ele>
        <time>2011-03-13T10:14:44Z</time>
      </trkpt>
      <trkpt lat="42.6058" lon="0.9589">
        <ele>2555.8</ele>
        <time>2011-03-13T10:14:58Z</time>
      </trkpt>
      <trkpt lat="42.60581" lon="0.9588">
        <ele>2557.73</ele>
        <time>2011-03-13T10:15:09Z</time>
      </trkpt>
      <trkpt lat="42.60581" lon="0.95874">
        <ele>2557.73</ele>
        <time>2011-03-13T10:15:14Z</time>
      </trkpt>
      <trkpt lat="42.60582" lon="0.9587">
        <ele>2558.21</ele>
        <time>2011-03-13T10:15:19Z</time>
      </trkpt>
      <trkpt lat="42.60581" lon="0.95858">
        <ele>2559.65</ele>
        <time>2011-03-13T10:15:33Z</time>
      </trkpt>
      <trkpt lat="42.60576" lon="0.95856">
        <ele>2562.53</ele>
        <time>2011-03-13T10:15:48Z</time>
      </trkpt>
      <trkpt lat="42.60568" lon="0.9585">
        <ele>2563.49</ele>
        <time>2011-03-13T10:16:00Z</time>
      </trkpt>
      <trkpt lat="42.6056" lon="0.95843">
        <ele>2565.42</ele>
        <time>2011-03-13T10:16:13Z</time>
      </trkpt>
      <trkpt lat="42.60555" lon="0.95836">
        <ele>2567.34</ele>
        <time>2011-03-13T10:16:25Z</time>
      </trkpt>
      <trkpt lat="42.60557" lon="0.95825">
        <ele>2568.78</ele>
        <time>2011-03-13T10:16:37Z</time>
      </trkpt>
      <trkpt lat="42.60561" lon="0.95818">
        <ele>2569.26</ele>
        <time>2011-03-13T10:16:46Z</time>
      </trkpt>
      <trkpt lat="42.60566" lon="0.95804">
        <ele>2569.26</ele>
        <time>2011-03-13T10:17:00Z</time>
      </trkpt>
      <trkpt lat="42.60568" lon="0.95787">
        <ele>2570.7</ele>
        <time>2011-03-13T10:17:16Z</time>
      </trkpt>
      <trkpt lat="42.60565" lon="0.95774">
        <ele>2572.14</ele>
        <time>2011-03-13T10:17:29Z</time>
      </trkpt>
      <trkpt lat="42.60562" lon="0.95767">
        <ele>2572.63</ele>
        <time>2011-03-13T10:17:36Z</time>
      </trkpt>
      <trkpt lat="42.60555" lon="0.9576">
        <ele>2574.07</ele>
        <time>2011-03-13T10:17:50Z</time>
      </trkpt>
      <trkpt lat="42.60549" lon="0.95754">
        <ele>2575.03</ele>
        <time>2011-03-13T10:17:59Z</time>
      </trkpt>
      <trkpt lat="42.60541" lon="0.95748">
        <ele>2575.99</ele>
        <time>2011-03-13T10:18:11Z</time>
      </trkpt>
      <trkpt lat="42.60538" lon="0.95738">
        <ele>2577.43</ele>
        <time>2011-03-13T10:18:22Z</time>
      </trkpt>
      <trkpt lat="42.60541" lon="0.95731">
        <ele>2577.91</ele>
        <time>2011-03-13T10:18:28Z</time>
      </trkpt>
      <trkpt lat="42.6054" lon="0.95714">
        <ele>2578.39</ele>
        <time>2011-03-13T10:18:43Z</time>
      </trkpt>
      <trkpt lat="42.6054" lon="0.9571">
        <ele>2578.39</ele>
        <time>2011-03-13T10:18:46Z</time>
      </trkpt>
      <trkpt lat="42.60541" lon="0.95701">
        <ele>2578.87</ele>
        <time>2011-03-13T10:18:54Z</time>
      </trkpt>
      <trkpt lat="42.60548" lon="0.95685">
        <ele>2577.43</ele>
        <time>2011-03-13T10:19:08Z</time>
      </trkpt>
      <trkpt lat="42.60558" lon="0.95671">
        <ele>2575.51</ele>
        <time>2011-03-13T10:19:23Z</time>
      </trkpt>
      <trkpt lat="42.6057" lon="0.95662">
        <ele>2574.07</ele>
        <time>2011-03-13T10:19:37Z</time>
      </trkpt>
      <trkpt lat="42.60577" lon="0.95657">
        <ele>2574.07</ele>
        <time>2011-03-13T10:19:44Z</time>
      </trkpt>
      <trkpt lat="42.60589" lon="0.95653">
        <ele>2572.63</ele>
        <time>2011-03-13T10:19:58Z</time>
      </trkpt>
      <trkpt lat="42.60599" lon="0.95648">
        <ele>2571.66</ele>
        <time>2011-03-13T10:20:08Z</time>
      </trkpt>
      <trkpt lat="42.60608" lon="0.95644">
        <ele>2570.7</ele>
        <time>2011-03-13T10:20:20Z</time>
      </trkpt>
      <trkpt lat="42.60608" lon="0.95644">
        <ele>2569.74</ele>
        <time>2011-03-13T10:20:34Z</time>
      </trkpt>
      <trkpt lat="42.60608" lon="0.95644">
        <ele>2569.26</ele>
        <time>2011-03-13T10:21:13Z</time>
      </trkpt>
      <trkpt lat="42.60608" lon="0.95644">
        <ele>2570.7</ele>
        <time>2011-03-13T10:23:39Z</time>
      </trkpt>
      <trkpt lat="42.60609" lon="0.95643">
        <ele>2569.74</ele>
        <time>2011-03-13T10:28:14Z</time>
      </trkpt>
      <trkpt lat="42.60609" lon="0.95643">
        <ele>2571.18</ele>
        <time>2011-03-13T10:29:31Z</time>
      </trkpt>
      <trkpt lat="42.60608" lon="0.95645">
        <ele>2572.14</ele>
        <time>2011-03-13T10:32:36Z</time>
      </trkpt>
      <trkpt lat="42.60608" lon="0.95645">
        <ele>2571.66</ele>
        <time>2011-03-13T10:32:56Z</time>
      </trkpt>
      <trkpt lat="42.60608" lon="0.95646">
        <ele>2572.14</ele>
        <time>2011-03-13T10:33:19Z</time>
      </trkpt>
      <trkpt lat="42.60608" lon="0.95646">
        <ele>2572.14</ele>
        <time>2011-03-13T10:33:42Z</time>
      </trkpt>
      <trkpt lat="42.60608" lon="0.95645">
        <ele>2571.66</ele>
        <time>2011-03-13T10:34:06Z</time>
      </trkpt>
      <trkpt lat="42.60608" lon="0.95645">
        <ele>2571.66</ele>
        <time>2011-03-13T10:34:08Z</time>
      </trkpt>
      <trkpt lat="42.60615" lon="0.95629">
        <ele>2570.22</ele>
        <time>2011-03-13T10:34:13Z</time>
      </trkpt>
      <trkpt lat="42.60624" lon="0.9561">
        <ele>2566.38</ele>
        <time>2011-03-13T10:34:17Z</time>
      </trkpt>
      <trkpt lat="42.60626" lon="0.95606">
        <ele>2565.9</ele>
        <time>2011-03-13T10:34:18Z</time>
      </trkpt>
      <trkpt lat="42.60638" lon="0.95599">
        <ele>2563.97</ele>
        <time>2011-03-13T10:34:21Z</time>
      </trkpt>
      <trkpt lat="42.6065" lon="0.9559">
        <ele>2559.65</ele>
        <time>2011-03-13T10:34:24Z</time>
      </trkpt>
      <trkpt lat="42.60658" lon="0.95584">
        <ele>2556.28</ele>
        <time>2011-03-13T10:34:27Z</time>
      </trkpt>
      <trkpt lat="42.6066" lon="0.95585">
        <ele>2555.32</ele>
        <time>2011-03-13T10:34:29Z</time>
      </trkpt>
      <trkpt lat="42.6066" lon="0.95585">
        <ele>2554.84</ele>
        <time>2011-03-13T10:34:34Z</time>
      </trkpt>
      <trkpt lat="42.60666" lon="0.95568">
        <ele>2549.07</ele>
        <time>2011-03-13T10:34:38Z</time>
      </trkpt>
      <trkpt lat="42.60671" lon="0.9556">
        <ele>2545.23</ele>
        <time>2011-03-13T10:34:40Z</time>
      </trkpt>
      <trkpt lat="42.60675" lon="0.95556">
        <ele>2543.31</ele>
        <time>2011-03-13T10:34:41Z</time>
      </trkpt>
      <trkpt lat="42.60689" lon="0.9554">
        <ele>2535.13</ele>
        <time>2011-03-13T10:34:45Z</time>
      </trkpt>
      <trkpt lat="42.60696" lon="0.95532">
        <ele>2530.81</ele>
        <time>2011-03-13T10:34:47Z</time>
      </trkpt>
      <trkpt lat="42.607" lon="0.95529">
        <ele>2529.37</ele>
        <time>2011-03-13T10:34:48Z</time>
      </trkpt>
      <trkpt lat="42.60708" lon="0.95523">
        <ele>2525.04</ele>
        <time>2011-03-13T10:34:50Z</time>
      </trkpt>
      <trkpt lat="42.60722" lon="0.95512">
        <ele>2519.75</ele>
        <time>2011-03-13T10:34:53Z</time>
      </trkpt>
      <trkpt lat="42.60728" lon="0.95509">
        <ele>2517.83</ele>
        <time>2011-03-13T10:34:54Z</time>
      </trkpt>
      <trkpt lat="42.60739" lon="0.95505">
        <ele>2513.02</ele>
        <time>2011-03-13T10:34:56Z</time>
      </trkpt>
      <trkpt lat="42.60761" lon="0.95492">
        <ele>2507.26</ele>
        <time>2011-03-13T10:35:00Z</time>
      </trkpt>
      <trkpt lat="42.60779" lon="0.95485">
        <ele>2503.41</ele>
        <time>2011-03-13T10:35:03Z</time>
      </trkpt>
      <trkpt lat="42.60785" lon="0.95481">
        <ele>2502.45</ele>
        <time>2011-03-13T10:35:04Z</time>
      </trkpt>
      <trkpt lat="42.60793" lon="0.95473">
        <ele>2501.01</ele>
        <time>2011-03-13T10:35:06Z</time>
      </trkpt>
      <trkpt lat="42.60801" lon="0.95459">
        <ele>2497.64</ele>
        <time>2011-03-13T10:35:09Z</time>
      </trkpt>
      <trkpt lat="42.60804" lon="0.95456">
        <ele>2497.64</ele>
        <time>2011-03-13T10:35:10Z</time>
      </trkpt>
      <trkpt lat="42.60807" lon="0.95453">
        <ele>2497.64</ele>
        <time>2011-03-13T10:35:11Z</time>
      </trkpt>
      <trkpt lat="42.60822" lon="0.95436">
        <ele>2494.28</ele>
        <time>2011-03-13T10:35:16Z</time>
      </trkpt>
      <trkpt lat="42.60835" lon="0.95423">
        <ele>2492.36</ele>
        <time>2011-03-13T10:35:20Z</time>
      </trkpt>
      <trkpt lat="42.60848" lon="0.9541">
        <ele>2490.43</ele>
        <time>2011-03-13T10:35:24Z</time>
      </trkpt>
      <trkpt lat="42.60853" lon="0.95407">
        <ele>2489.47</ele>
        <time>2011-03-13T10:35:26Z</time>
      </trkpt>
      <trkpt lat="42.60856" lon="0.95405">
        <ele>2489.47</ele>
        <time>2011-03-13T10:35:36Z</time>
      </trkpt>
      <trkpt lat="42.60856" lon="0.95406">
        <ele>2489.47</ele>
        <time>2011-03-13T10:35:58Z</time>
      </trkpt>
      <trkpt lat="42.60856" lon="0.95405">
        <ele>2488.51</ele>
        <time>2011-03-13T10:36:10Z</time>
      </trkpt>
      <trkpt lat="42.60866" lon="0.95391">
        <ele>2487.07</ele>
        <time>2011-03-13T10:36:15Z</time>
      </trkpt>
      <trkpt lat="42.60876" lon="0.95379">
        <ele>2485.15</ele>
        <time>2011-03-13T10:36:19Z</time>
      </trkpt>
      <trkpt lat="42.60893" lon="0.95358">
        <ele>2481.78</ele>
        <time>2011-03-13T10:36:26Z</time>
      </trkpt>
      <trkpt lat="42.60907" lon="0.95334">
        <ele>2478.42</ele>
        <time>2011-03-13T10:36:32Z</time>
      </trkpt>
      <trkpt lat="42.60921" lon="0.95315">
        <ele>2476.49</ele>
        <time>2011-03-13T10:36:39Z</time>
      </trkpt>
      <trkpt lat="42.60929" lon="0.95309">
        <ele>2475.05</ele>
        <time>2011-03-13T10:36:44Z</time>
      </trkpt>
      <trkpt lat="42.60931" lon="0.95307">
        <ele>2475.53</ele>
        <time>2011-03-13T10:36:47Z</time>
      </trkpt>
      <trkpt lat="42.60934" lon="0.95301">
        <ele>2475.05</ele>
        <time>2011-03-13T10:36:54Z</time>
      </trkpt>
      <trkpt lat="42.60936" lon="0.95291">
        <ele>2475.05</ele>
        <time>2011-03-13T10:37:03Z</time>
      </trkpt>
      <trkpt lat="42.60937" lon="0.95288">
        <ele>2475.53</ele>
        <time>2011-03-13T10:37:07Z</time>
      </trkpt>
      <trkpt lat="42.60939" lon="0.95282">
        <ele>2475.53</ele>
        <time>2011-03-13T10:37:12Z</time>
      </trkpt>
      <trkpt lat="42.60947" lon="0.95266">
        <ele>2473.61</ele>
        <time>2011-03-13T10:37:25Z</time>
      </trkpt>
      <trkpt lat="42.60963" lon="0.95243">
        <ele>2472.17</ele>
        <time>2011-03-13T10:37:37Z</time>
      </trkpt>
      <trkpt lat="42.60973" lon="0.95238">
        <ele>2471.21</ele>
        <time>2011-03-13T10:37:43Z</time>
      </trkpt>
      <trkpt lat="42.60976" lon="0.95237">
        <ele>2470.73</ele>
        <time>2011-03-13T10:37:46Z</time>
      </trkpt>
      <trkpt lat="42.6098" lon="0.95234">
        <ele>2471.21</ele>
        <time>2011-03-13T10:37:50Z</time>
      </trkpt>
      <trkpt lat="42.60982" lon="0.95232">
        <ele>2470.73</ele>
        <time>2011-03-13T10:37:53Z</time>
      </trkpt>
      <trkpt lat="42.60986" lon="0.95228">
        <ele>2471.21</ele>
        <time>2011-03-13T10:38:01Z</time>
      </trkpt>
      <trkpt lat="42.60991" lon="0.95219">
        <ele>2470.24</ele>
        <time>2011-03-13T10:38:12Z</time>
      </trkpt>
      <trkpt lat="42.60993" lon="0.95217">
        <ele>2470.24</ele>
        <time>2011-03-13T10:38:19Z</time>
      </trkpt>
      <trkpt lat="42.60993" lon="0.95216">
        <ele>2468.8</ele>
        <time>2011-03-13T10:38:21Z</time>
      </trkpt>
      <trkpt lat="42.60994" lon="0.95216">
        <ele>2469.28</ele>
        <time>2011-03-13T10:38:42Z</time>
      </trkpt>
      <trkpt lat="42.60995" lon="0.95216">
        <ele>2469.76</ele>
        <time>2011-03-13T10:38:43Z</time>
      </trkpt>
      <trkpt lat="42.61" lon="0.95201">
        <ele>2466.4</ele>
        <time>2011-03-13T10:38:48Z</time>
      </trkpt>
      <trkpt lat="42.60997" lon="0.95185">
        <ele>2463.52</ele>
        <time>2011-03-13T10:38:51Z</time>
      </trkpt>
      <trkpt lat="42.60994" lon="0.95181">
        <ele>2461.59</ele>
        <time>2011-03-13T10:38:53Z</time>
      </trkpt>
      <trkpt lat="42.60987" lon="0.9517">
        <ele>2460.15</ele>
        <time>2011-03-13T10:39:09Z</time>
      </trkpt>
      <trkpt lat="42.60985" lon="0.95166">
        <ele>2459.67</ele>
        <time>2011-03-13T10:39:27Z</time>
      </trkpt>
      <trkpt lat="42.60982" lon="0.95164">
        <ele>2459.19</ele>
        <time>2011-03-13T10:39:29Z</time>
      </trkpt>
      <trkpt lat="42.60981" lon="0.95163">
        <ele>2458.71</ele>
        <time>2011-03-13T10:39:31Z</time>
      </trkpt>
      <trkpt lat="42.60974" lon="0.95158">
        <ele>2457.27</ele>
        <time>2011-03-13T10:39:35Z</time>
      </trkpt>
      <trkpt lat="42.60971" lon="0.95159">
        <ele>2454.38</ele>
        <time>2011-03-13T10:39:40Z</time>
      </trkpt>
      <trkpt lat="42.60973" lon="0.95142">
        <ele>2450.54</ele>
        <time>2011-03-13T10:39:45Z</time>
      </trkpt>
      <trkpt lat="42.60984" lon="0.95131">
        <ele>2446.69</ele>
        <time>2011-03-13T10:39:50Z</time>
      </trkpt>
      <trkpt lat="42.60985" lon="0.95131">
        <ele>2446.69</ele>
        <time>2011-03-13T10:40:08Z</time>
      </trkpt>
      <trkpt lat="42.60985" lon="0.95131">
        <ele>2447.17</ele>
        <time>2011-03-13T10:40:22Z</time>
      </trkpt>
      <trkpt lat="42.60974" lon="0.95115">
        <ele>2442.85</ele>
        <time>2011-03-13T10:40:28Z</time>
      </trkpt>
      <trkpt lat="42.60971" lon="0.95107">
        <ele>2439.48</ele>
        <time>2011-03-13T10:40:30Z</time>
      </trkpt>
      <trkpt lat="42.6097" lon="0.95105">
        <ele>2439.48</ele>
        <time>2011-03-13T10:40:31Z</time>
      </trkpt>
      <trkpt lat="42.60968" lon="0.95103">
        <ele>2439</ele>
        <time>2011-03-13T10:40:44Z</time>
      </trkpt>
      <trkpt lat="42.60968" lon="0.95103">
        <ele>2439</ele>
        <time>2011-03-13T10:40:50Z</time>
      </trkpt>
      <trkpt lat="42.60968" lon="0.95103">
        <ele>2438.52</ele>
        <time>2011-03-13T10:40:51Z</time>
      </trkpt>
      <trkpt lat="42.60983" lon="0.95098">
        <ele>2434.2</ele>
        <time>2011-03-13T10:40:57Z</time>
      </trkpt>
      <trkpt lat="42.60994" lon="0.95089">
        <ele>2430.83</ele>
        <time>2011-03-13T10:41:00Z</time>
      </trkpt>
      <trkpt lat="42.61002" lon="0.95087">
        <ele>2428.91</ele>
        <time>2011-03-13T10:41:03Z</time>
      </trkpt>
      <trkpt lat="42.61007" lon="0.95085">
        <ele>2427.47</ele>
        <time>2011-03-13T10:41:06Z</time>
      </trkpt>
      <trkpt lat="42.6101" lon="0.95085">
        <ele>2426.5</ele>
        <time>2011-03-13T10:41:08Z</time>
      </trkpt>
      <trkpt lat="42.61022" lon="0.95083">
        <ele>2424.1</ele>
        <time>2011-03-13T10:41:25Z</time>
      </trkpt>
      <trkpt lat="42.61029" lon="0.95083">
        <ele>2422.66</ele>
        <time>2011-03-13T10:41:40Z</time>
      </trkpt>
      <trkpt lat="42.61029" lon="0.95083">
        <ele>2422.18</ele>
        <time>2011-03-13T10:42:02Z</time>
      </trkpt>
      <trkpt lat="42.61023" lon="0.95073">
        <ele>2418.81</ele>
        <time>2011-03-13T10:42:06Z</time>
      </trkpt>
      <trkpt lat="42.6102" lon="0.95071">
        <ele>2417.37</ele>
        <time>2011-03-13T10:42:07Z</time>
      </trkpt>
      <trkpt lat="42.61016" lon="0.95067">
        <ele>2416.41</ele>
        <time>2011-03-13T10:42:09Z</time>
      </trkpt>
      <trkpt lat="42.61012" lon="0.95064">
        <ele>2414.97</ele>
        <time>2011-03-13T10:42:12Z</time>
      </trkpt>
      <trkpt lat="42.61012" lon="0.95064">
        <ele>2414.97</ele>
        <time>2011-03-13T10:42:23Z</time>
      </trkpt>
      <trkpt lat="42.61012" lon="0.95064">
        <ele>2414.97</ele>
        <time>2011-03-13T10:42:24Z</time>
      </trkpt>
      <trkpt lat="42.61022" lon="0.95055">
        <ele>2411.6</ele>
        <time>2011-03-13T10:42:28Z</time>
      </trkpt>
      <trkpt lat="42.61024" lon="0.95051">
        <ele>2409.2</ele>
        <time>2011-03-13T10:42:29Z</time>
      </trkpt>
      <trkpt lat="42.61027" lon="0.95038">
        <ele>2402.95</ele>
        <time>2011-03-13T10:42:32Z</time>
      </trkpt>
      <trkpt lat="42.61027" lon="0.95033">
        <ele>2400.07</ele>
        <time>2011-03-13T10:42:33Z</time>
      </trkpt>
      <trkpt lat="42.6103" lon="0.95019">
        <ele>2393.34</ele>
        <time>2011-03-13T10:42:36Z</time>
      </trkpt>
      <trkpt lat="42.61034" lon="0.9501">
        <ele>2388.05</ele>
        <time>2011-03-13T10:42:38Z</time>
      </trkpt>
      <trkpt lat="42.61037" lon="0.95006">
        <ele>2386.61</ele>
        <time>2011-03-13T10:42:39Z</time>
      </trkpt>
      <trkpt lat="42.61042" lon="0.94996">
        <ele>2382.76</ele>
        <time>2011-03-13T10:42:41Z</time>
      </trkpt>
      <trkpt lat="42.61046" lon="0.94984">
        <ele>2376.52</ele>
        <time>2011-03-13T10:42:43Z</time>
      </trkpt>
      <trkpt lat="42.61045" lon="0.9497">
        <ele>2371.71</ele>
        <time>2011-03-13T10:42:46Z</time>
      </trkpt>
      <trkpt lat="42.61042" lon="0.94969">
        <ele>2369.31</ele>
        <time>2011-03-13T10:42:49Z</time>
      </trkpt>
      <trkpt lat="42.61042" lon="0.94969">
        <ele>2369.31</ele>
        <time>2011-03-13T10:43:05Z</time>
      </trkpt>
      <trkpt lat="42.61042" lon="0.9497">
        <ele>2369.79</ele>
        <time>2011-03-13T10:43:22Z</time>
      </trkpt>
      <trkpt lat="42.61044" lon="0.94952">
        <ele>2366.42</ele>
        <time>2011-03-13T10:43:27Z</time>
      </trkpt>
      <trkpt lat="42.61041" lon="0.94942">
        <ele>2362.1</ele>
        <time>2011-03-13T10:43:29Z</time>
      </trkpt>
      <trkpt lat="42.61037" lon="0.9493">
        <ele>2357.77</ele>
        <time>2011-03-13T10:43:31Z</time>
      </trkpt>
      <trkpt lat="42.61032" lon="0.94919">
        <ele>2354.41</ele>
        <time>2011-03-13T10:43:33Z</time>
      </trkpt>
      <trkpt lat="42.61028" lon="0.94907">
        <ele>2350.08</ele>
        <time>2011-03-13T10:43:35Z</time>
      </trkpt>
      <trkpt lat="42.61028" lon="0.94896">
        <ele>2348.64</ele>
        <time>2011-03-13T10:43:37Z</time>
      </trkpt>
      <trkpt lat="42.6103" lon="0.94876">
        <ele>2343.83</ele>
        <time>2011-03-13T10:43:41Z</time>
      </trkpt>
      <trkpt lat="42.61032" lon="0.94867">
        <ele>2340.95</ele>
        <time>2011-03-13T10:43:43Z</time>
      </trkpt>
      <trkpt lat="42.61034" lon="0.9485">
        <ele>2337.1</ele>
        <time>2011-03-13T10:43:46Z</time>
      </trkpt>
      <trkpt lat="42.61037" lon="0.94831">
        <ele>2331.81</ele>
        <time>2011-03-13T10:43:49Z</time>
      </trkpt>
      <trkpt lat="42.61039" lon="0.94826">
        <ele>2330.85</ele>
        <time>2011-03-13T10:43:50Z</time>
      </trkpt>
      <trkpt lat="42.61044" lon="0.94807">
        <ele>2325.09</ele>
        <time>2011-03-13T10:43:53Z</time>
      </trkpt>
      <trkpt lat="42.61048" lon="0.94788">
        <ele>2322.2</ele>
        <time>2011-03-13T10:43:58Z</time>
      </trkpt>
      <trkpt lat="42.61047" lon="0.94787">
        <ele>2321.72</ele>
        <time>2011-03-13T10:44:09Z</time>
      </trkpt>
      <trkpt lat="42.61047" lon="0.94788">
        <ele>2321.24</ele>
        <time>2011-03-13T10:44:29Z</time>
      </trkpt>
      <trkpt lat="42.6105" lon="0.94783">
        <ele>2320.76</ele>
        <time>2011-03-13T10:44:36Z</time>
      </trkpt>
      <trkpt lat="42.61063" lon="0.94773">
        <ele>2317.4</ele>
        <time>2011-03-13T10:44:43Z</time>
      </trkpt>
      <trkpt lat="42.61073" lon="0.94757">
        <ele>2313.07</ele>
        <time>2011-03-13T10:44:47Z</time>
      </trkpt>
      <trkpt lat="42.61082" lon="0.94742">
        <ele>2308.26</ele>
        <time>2011-03-13T10:44:51Z</time>
      </trkpt>
      <trkpt lat="42.61098" lon="0.9474">
        <ele>2303.46</ele>
        <time>2011-03-13T10:44:55Z</time>
      </trkpt>
      <trkpt lat="42.61109" lon="0.94739">
        <ele>2300.09</ele>
        <time>2011-03-13T10:44:58Z</time>
      </trkpt>
      <trkpt lat="42.61119" lon="0.94736">
        <ele>2296.25</ele>
        <time>2011-03-13T10:45:01Z</time>
      </trkpt>
      <trkpt lat="42.61125" lon="0.94729">
        <ele>2294.8</ele>
        <time>2011-03-13T10:45:03Z</time>
      </trkpt>
      <trkpt lat="42.61135" lon="0.94719">
        <ele>2289.52</ele>
        <time>2011-03-13T10:45:06Z</time>
      </trkpt>
      <trkpt lat="42.61141" lon="0.94713">
        <ele>2288.08</ele>
        <time>2011-03-13T10:45:08Z</time>
      </trkpt>
      <trkpt lat="42.61143" lon="0.94709">
        <ele>2286.15</ele>
        <time>2011-03-13T10:45:09Z</time>
      </trkpt>
      <trkpt lat="42.61145" lon="0.94698">
        <ele>2281.83</ele>
        <time>2011-03-13T10:45:12Z</time>
      </trkpt>
      <trkpt lat="42.61146" lon="0.94682">
        <ele>2277.5</ele>
        <time>2011-03-13T10:45:15Z</time>
      </trkpt>
      <trkpt lat="42.61151" lon="0.9466">
        <ele>2272.21</ele>
        <time>2011-03-13T10:45:18Z</time>
      </trkpt>
      <trkpt lat="42.61157" lon="0.9465">
        <ele>2267.89</ele>
        <time>2011-03-13T10:45:20Z</time>
      </trkpt>
      <trkpt lat="42.6116" lon="0.94643">
        <ele>2266.45</ele>
        <time>2011-03-13T10:45:22Z</time>
      </trkpt>
      <trkpt lat="42.61163" lon="0.94637">
        <ele>2265</ele>
        <time>2011-03-13T10:45:32Z</time>
      </trkpt>
      <trkpt lat="42.6117" lon="0.94629">
        <ele>2262.6</ele>
        <time>2011-03-13T10:45:41Z</time>
      </trkpt>
      <trkpt lat="42.61173" lon="0.94627">
        <ele>2262.12</ele>
        <time>2011-03-13T10:45:42Z</time>
      </trkpt>
      <trkpt lat="42.61183" lon="0.94619">
        <ele>2260.2</ele>
        <time>2011-03-13T10:45:45Z</time>
      </trkpt>
      <trkpt lat="42.61194" lon="0.94613">
        <ele>2256.83</ele>
        <time>2011-03-13T10:45:48Z</time>
      </trkpt>
      <trkpt lat="42.61202" lon="0.94605">
        <ele>2255.39</ele>
        <time>2011-03-13T10:45:58Z</time>
      </trkpt>
      <trkpt lat="42.61202" lon="0.94605">
        <ele>2255.39</ele>
        <time>2011-03-13T10:46:12Z</time>
      </trkpt>
      <trkpt lat="42.61202" lon="0.94605">
        <ele>2255.39</ele>
        <time>2011-03-13T10:46:13Z</time>
      </trkpt>
      <trkpt lat="42.61202" lon="0.94603">
        <ele>2255.39</ele>
        <time>2011-03-13T10:46:22Z</time>
      </trkpt>
      <trkpt lat="42.61213" lon="0.94594">
        <ele>2252.51</ele>
        <time>2011-03-13T10:46:29Z</time>
      </trkpt>
      <trkpt lat="42.61214" lon="0.94592">
        <ele>2252.51</ele>
        <time>2011-03-13T10:46:30Z</time>
      </trkpt>
      <trkpt lat="42.61221" lon="0.9457">
        <ele>2250.1</ele>
        <time>2011-03-13T10:46:41Z</time>
      </trkpt>
      <trkpt lat="42.61223" lon="0.94556">
        <ele>2248.18</ele>
        <time>2011-03-13T10:46:45Z</time>
      </trkpt>
      <trkpt lat="42.61226" lon="0.94543">
        <ele>2245.3</ele>
        <time>2011-03-13T10:46:48Z</time>
      </trkpt>
      <trkpt lat="42.61233" lon="0.94524">
        <ele>2240.49</ele>
        <time>2011-03-13T10:46:52Z</time>
      </trkpt>
      <trkpt lat="42.61238" lon="0.94514">
        <ele>2237.61</ele>
        <time>2011-03-13T10:46:54Z</time>
      </trkpt>
      <trkpt lat="42.61242" lon="0.94507">
        <ele>2234.24</ele>
        <time>2011-03-13T10:46:56Z</time>
      </trkpt>
      <trkpt lat="42.61249" lon="0.94496">
        <ele>2229.43</ele>
        <time>2011-03-13T10:46:59Z</time>
      </trkpt>
      <trkpt lat="42.61254" lon="0.94487">
        <ele>2226.55</ele>
        <time>2011-03-13T10:47:02Z</time>
      </trkpt>
      <trkpt lat="42.61255" lon="0.94485">
        <ele>2226.55</ele>
        <time>2011-03-13T10:47:03Z</time>
      </trkpt>
      <trkpt lat="42.61256" lon="0.94482">
        <ele>2225.59</ele>
        <time>2011-03-13T10:47:14Z</time>
      </trkpt>
      <trkpt lat="42.61259" lon="0.94478">
        <ele>2224.15</ele>
        <time>2011-03-13T10:47:23Z</time>
      </trkpt>
      <trkpt lat="42.61259" lon="0.94477">
        <ele>2223.67</ele>
        <time>2011-03-13T10:47:38Z</time>
      </trkpt>
      <trkpt lat="42.61261" lon="0.94472">
        <ele>2223.67</ele>
        <time>2011-03-13T10:47:47Z</time>
      </trkpt>
      <trkpt lat="42.61261" lon="0.94471">
        <ele>2223.67</ele>
        <time>2011-03-13T10:47:54Z</time>
      </trkpt>
      <trkpt lat="42.61265" lon="0.94463">
        <ele>2223.19</ele>
        <time>2011-03-13T10:48:04Z</time>
      </trkpt>
      <trkpt lat="42.6127" lon="0.94457">
        <ele>2222.71</ele>
        <time>2011-03-13T10:48:17Z</time>
      </trkpt>
      <trkpt lat="42.61273" lon="0.94454">
        <ele>2223.67</ele>
        <time>2011-03-13T10:48:20Z</time>
      </trkpt>
      <trkpt lat="42.61276" lon="0.94448">
        <ele>2223.67</ele>
        <time>2011-03-13T10:48:26Z</time>
      </trkpt>
      <trkpt lat="42.61278" lon="0.94446">
        <ele>2224.15</ele>
        <time>2011-03-13T10:48:29Z</time>
      </trkpt>
      <trkpt lat="42.6128" lon="0.94443">
        <ele>2223.67</ele>
        <time>2011-03-13T10:48:38Z</time>
      </trkpt>
      <trkpt lat="42.6128" lon="0.94443">
        <ele>2227.03</ele>
        <time>2011-03-13T10:48:50Z</time>
      </trkpt>
      <trkpt lat="42.6128" lon="0.94443">
        <ele>2220.78</ele>
        <time>2011-03-13T10:48:51Z</time>
      </trkpt>
      <trkpt lat="42.6128" lon="0.94443">
        <ele>2223.67</ele>
        <time>2011-03-13T10:49:19Z</time>
      </trkpt>
      <trkpt lat="42.6128" lon="0.94442">
        <ele>2222.22</ele>
        <time>2011-03-13T10:49:45Z</time>
      </trkpt>
      <trkpt lat="42.6128" lon="0.94442">
        <ele>2221.74</ele>
        <time>2011-03-13T10:50:38Z</time>
      </trkpt>
      <trkpt lat="42.6128" lon="0.94442">
        <ele>2221.74</ele>
        <time>2011-03-13T10:51:16Z</time>
      </trkpt>
      <trkpt lat="42.6128" lon="0.94442">
        <ele>2223.67</ele>
        <time>2011-03-13T10:51:29Z</time>
      </trkpt>
      <trkpt lat="42.61279" lon="0.94442">
        <ele>2224.15</ele>
        <time>2011-03-13T10:51:46Z</time>
      </trkpt>
      <trkpt lat="42.61279" lon="0.9444">
        <ele>2223.19</ele>
        <time>2011-03-13T10:52:03Z</time>
      </trkpt>
      <trkpt lat="42.61282" lon="0.94435">
        <ele>2223.67</ele>
        <time>2011-03-13T10:52:08Z</time>
      </trkpt>
      <trkpt lat="42.61293" lon="0.94415">
        <ele>2222.22</ele>
        <time>2011-03-13T10:52:21Z</time>
      </trkpt>
      <trkpt lat="42.61297" lon="0.94402">
        <ele>2222.71</ele>
        <time>2011-03-13T10:52:31Z</time>
      </trkpt>
      <trkpt lat="42.61308" lon="0.94374">
        <ele>2222.71</ele>
        <time>2011-03-13T10:52:46Z</time>
      </trkpt>
      <trkpt lat="42.61317" lon="0.94351">
        <ele>2222.71</ele>
        <time>2011-03-13T10:52:59Z</time>
      </trkpt>
      <trkpt lat="42.61326" lon="0.94329">
        <ele>2223.19</ele>
        <time>2011-03-13T10:53:12Z</time>
      </trkpt>
      <trkpt lat="42.6134" lon="0.94305">
        <ele>2222.71</ele>
        <time>2011-03-13T10:53:28Z</time>
      </trkpt>
      <trkpt lat="42.61352" lon="0.94281">
        <ele>2223.19</ele>
        <time>2011-03-13T10:53:42Z</time>
      </trkpt>
      <trkpt lat="42.61362" lon="0.94264">
        <ele>2222.71</ele>
        <time>2011-03-13T10:53:53Z</time>
      </trkpt>
      <trkpt lat="42.61371" lon="0.94242">
        <ele>2223.19</ele>
        <time>2011-03-13T10:54:06Z</time>
      </trkpt>
      <trkpt lat="42.61384" lon="0.9422">
        <ele>2222.71</ele>
        <time>2011-03-13T10:54:20Z</time>
      </trkpt>
      <trkpt lat="42.61395" lon="0.94198">
        <ele>2223.19</ele>
        <time>2011-03-13T10:54:34Z</time>
      </trkpt>
      <trkpt lat="42.61405" lon="0.94177">
        <ele>2223.67</ele>
        <time>2011-03-13T10:54:47Z</time>
      </trkpt>
      <trkpt lat="42.61416" lon="0.94155">
        <ele>2223.19</ele>
        <time>2011-03-13T10:55:01Z</time>
      </trkpt>
      <trkpt lat="42.61419" lon="0.94147">
        <ele>2223.19</ele>
        <time>2011-03-13T10:55:14Z</time>
      </trkpt>
      <trkpt lat="42.61419" lon="0.94147">
        <ele>2222.71</ele>
        <time>2011-03-13T10:55:45Z</time>
      </trkpt>
      <trkpt lat="42.61422" lon="0.94144">
        <ele>2222.71</ele>
        <time>2011-03-13T10:55:52Z</time>
      </trkpt>
      <trkpt lat="42.61422" lon="0.94142">
        <ele>2222.71</ele>
        <time>2011-03-13T10:55:53Z</time>
      </trkpt>
      <trkpt lat="42.6143" lon="0.94123">
        <ele>2223.67</ele>
        <time>2011-03-13T10:56:06Z</time>
      </trkpt>
      <trkpt lat="42.61439" lon="0.94104">
        <ele>2223.67</ele>
        <time>2011-03-13T10:56:18Z</time>
      </trkpt>
      <trkpt lat="42.61449" lon="0.94084">
        <ele>2223.67</ele>
        <time>2011-03-13T10:56:31Z</time>
      </trkpt>
      <trkpt lat="42.6146" lon="0.94063">
        <ele>2223.19</ele>
        <time>2011-03-13T10:56:44Z</time>
      </trkpt>
      <trkpt lat="42.61472" lon="0.9404">
        <ele>2223.67</ele>
        <time>2011-03-13T10:56:58Z</time>
      </trkpt>
      <trkpt lat="42.61482" lon="0.94019">
        <ele>2223.67</ele>
        <time>2011-03-13T10:57:11Z</time>
      </trkpt>
      <trkpt lat="42.61496" lon="0.93999">
        <ele>2223.19</ele>
        <time>2011-03-13T10:57:25Z</time>
      </trkpt>
      <trkpt lat="42.61507" lon="0.93983">
        <ele>2223.19</ele>
        <time>2011-03-13T10:57:37Z</time>
      </trkpt>
      <trkpt lat="42.61518" lon="0.93967">
        <ele>2223.19</ele>
        <time>2011-03-13T10:57:49Z</time>
      </trkpt>
      <trkpt lat="42.61534" lon="0.93946">
        <ele>2223.67</ele>
        <time>2011-03-13T10:58:04Z</time>
      </trkpt>
      <trkpt lat="42.61547" lon="0.93935">
        <ele>2223.67</ele>
        <time>2011-03-13T10:58:14Z</time>
      </trkpt>
      <trkpt lat="42.61548" lon="0.93934">
        <ele>2224.15</ele>
        <time>2011-03-13T10:58:16Z</time>
      </trkpt>
      <trkpt lat="42.61552" lon="0.93932">
        <ele>2225.11</ele>
        <time>2011-03-13T10:58:20Z</time>
      </trkpt>
      <trkpt lat="42.61556" lon="0.93929">
        <ele>2225.11</ele>
        <time>2011-03-13T10:58:24Z</time>
      </trkpt>
      <trkpt lat="42.61558" lon="0.93928">
        <ele>2225.11</ele>
        <time>2011-03-13T10:58:26Z</time>
      </trkpt>
      <trkpt lat="42.61564" lon="0.93924">
        <ele>2226.07</ele>
        <time>2011-03-13T10:58:38Z</time>
      </trkpt>
      <trkpt lat="42.61566" lon="0.93922">
        <ele>2225.59</ele>
        <time>2011-03-13T10:58:52Z</time>
      </trkpt>
      <trkpt lat="42.61577" lon="0.93915">
        <ele>2225.59</ele>
        <time>2011-03-13T10:59:02Z</time>
      </trkpt>
      <trkpt lat="42.61603" lon="0.93898">
        <ele>2224.63</ele>
        <time>2011-03-13T10:59:17Z</time>
      </trkpt>
      <trkpt lat="42.61619" lon="0.93888">
        <ele>2224.15</ele>
        <time>2011-03-13T10:59:27Z</time>
      </trkpt>
      <trkpt lat="42.61642" lon="0.93881">
        <ele>2221.74</ele>
        <time>2011-03-13T10:59:38Z</time>
      </trkpt>
      <trkpt lat="42.61673" lon="0.93877">
        <ele>2219.82</ele>
        <time>2011-03-13T10:59:51Z</time>
      </trkpt>
      <trkpt lat="42.61689" lon="0.93881">
        <ele>2220.3</ele>
        <time>2011-03-13T11:00:01Z</time>
      </trkpt>
      <trkpt lat="42.61704" lon="0.93863">
        <ele>2219.82</ele>
        <time>2011-03-13T11:00:15Z</time>
      </trkpt>
      <trkpt lat="42.61731" lon="0.9385">
        <ele>2217.9</ele>
        <time>2011-03-13T11:00:30Z</time>
      </trkpt>
      <trkpt lat="42.61732" lon="0.9385">
        <ele>2217.9</ele>
        <time>2011-03-13T11:00:46Z</time>
      </trkpt>
      <trkpt lat="42.61732" lon="0.9385">
        <ele>2217.9</ele>
        <time>2011-03-13T11:01:11Z</time>
      </trkpt>
      <trkpt lat="42.61732" lon="0.9385">
        <ele>2217.9</ele>
        <time>2011-03-13T11:01:34Z</time>
      </trkpt>
      <trkpt lat="42.61732" lon="0.93848">
        <ele>2218.38</ele>
        <time>2011-03-13T11:01:46Z</time>
      </trkpt>
      <trkpt lat="42.61731" lon="0.93848">
        <ele>2217.9</ele>
        <time>2011-03-13T11:02:10Z</time>
      </trkpt>
      <trkpt lat="42.61731" lon="0.93848">
        <ele>2218.38</ele>
        <time>2011-03-13T11:02:22Z</time>
      </trkpt>
      <trkpt lat="42.61731" lon="0.93848">
        <ele>2216.94</ele>
        <time>2011-03-13T11:02:36Z</time>
      </trkpt>
      <trkpt lat="42.61731" lon="0.93848">
        <ele>2217.42</ele>
        <time>2011-03-13T11:03:34Z</time>
      </trkpt>
      <trkpt lat="42.61731" lon="0.93848">
        <ele>2220.78</ele>
        <time>2011-03-13T11:03:39Z</time>
      </trkpt>
      <trkpt lat="42.61731" lon="0.93848">
        <ele>2217.42</ele>
        <time>2011-03-13T11:03:40Z</time>
      </trkpt>
      <trkpt lat="42.61731" lon="0.93849">
        <ele>2218.86</ele>
        <time>2011-03-13T11:03:53Z</time>
      </trkpt>
      <trkpt lat="42.6173" lon="0.93849">
        <ele>2217.42</ele>
        <time>2011-03-13T11:04:08Z</time>
      </trkpt>
      <trkpt lat="42.61731" lon="0.93849">
        <ele>2218.86</ele>
        <time>2011-03-13T11:04:25Z</time>
      </trkpt>
      <trkpt lat="42.6173" lon="0.93849">
        <ele>2217.9</ele>
        <time>2011-03-13T11:04:34Z</time>
      </trkpt>
      <trkpt lat="42.61729" lon="0.93849">
        <ele>2218.38</ele>
        <time>2011-03-13T11:04:39Z</time>
      </trkpt>
      <trkpt lat="42.61734" lon="0.93849">
        <ele>2218.38</ele>
        <time>2011-03-13T11:04:49Z</time>
      </trkpt>
      <trkpt lat="42.61748" lon="0.93852">
        <ele>2216.94</ele>
        <time>2011-03-13T11:04:53Z</time>
      </trkpt>
      <trkpt lat="42.61754" lon="0.93835">
        <ele>2213.57</ele>
        <time>2011-03-13T11:04:57Z</time>
      </trkpt>
      <trkpt lat="42.61756" lon="0.93822">
        <ele>2210.21</ele>
        <time>2011-03-13T11:05:00Z</time>
      </trkpt>
      <trkpt lat="42.61768" lon="0.93816">
        <ele>2205.88</ele>
        <time>2011-03-13T11:05:04Z</time>
      </trkpt>
      <trkpt lat="42.61779" lon="0.93814">
        <ele>2202.52</ele>
        <time>2011-03-13T11:05:07Z</time>
      </trkpt>
      <trkpt lat="42.61788" lon="0.93805">
        <ele>2199.63</ele>
        <time>2011-03-13T11:05:10Z</time>
      </trkpt>
      <trkpt lat="42.61792" lon="0.93802">
        <ele>2198.19</ele>
        <time>2011-03-13T11:05:11Z</time>
      </trkpt>
      <trkpt lat="42.61803" lon="0.93796">
        <ele>2193.39</ele>
        <time>2011-03-13T11:05:14Z</time>
      </trkpt>
      <trkpt lat="42.61814" lon="0.9378">
        <ele>2190.5</ele>
        <time>2011-03-13T11:05:18Z</time>
      </trkpt>
      <trkpt lat="42.61824" lon="0.93769">
        <ele>2188.1</ele>
        <time>2011-03-13T11:05:21Z</time>
      </trkpt>
      <trkpt lat="42.61832" lon="0.93757">
        <ele>2184.73</ele>
        <time>2011-03-13T11:05:24Z</time>
      </trkpt>
      <trkpt lat="42.61846" lon="0.93734">
        <ele>2180.41</ele>
        <time>2011-03-13T11:05:28Z</time>
      </trkpt>
      <trkpt lat="42.61856" lon="0.93719">
        <ele>2177.52</ele>
        <time>2011-03-13T11:05:31Z</time>
      </trkpt>
      <trkpt lat="42.61877" lon="0.93688">
        <ele>2174.16</ele>
        <time>2011-03-13T11:05:39Z</time>
      </trkpt>
      <trkpt lat="42.61885" lon="0.9368">
        <ele>2173.2</ele>
        <time>2011-03-13T11:05:42Z</time>
      </trkpt>
      <trkpt lat="42.61904" lon="0.93646">
        <ele>2169.83</ele>
        <time>2011-03-13T11:05:51Z</time>
      </trkpt>
      <trkpt lat="42.61924" lon="0.93619">
        <ele>2167.43</ele>
        <time>2011-03-13T11:06:01Z</time>
      </trkpt>
      <trkpt lat="42.61934" lon="0.93605">
        <ele>2166.47</ele>
        <time>2011-03-13T11:06:08Z</time>
      </trkpt>
      <trkpt lat="42.6194" lon="0.93598">
        <ele>2166.95</ele>
        <time>2011-03-13T11:06:14Z</time>
      </trkpt>
      <trkpt lat="42.61953" lon="0.93584">
        <ele>2165.51</ele>
        <time>2011-03-13T11:06:27Z</time>
      </trkpt>
      <trkpt lat="42.61954" lon="0.93584">
        <ele>2165.03</ele>
        <time>2011-03-13T11:06:39Z</time>
      </trkpt>
      <trkpt lat="42.61954" lon="0.93584">
        <ele>2165.51</ele>
        <time>2011-03-13T11:06:47Z</time>
      </trkpt>
      <trkpt lat="42.61953" lon="0.93583">
        <ele>2163.58</ele>
        <time>2011-03-13T11:07:01Z</time>
      </trkpt>
      <trkpt lat="42.61953" lon="0.93583">
        <ele>2167.91</ele>
        <time>2011-03-13T11:07:13Z</time>
      </trkpt>
      <trkpt lat="42.61953" lon="0.93583">
        <ele>2164.06</ele>
        <time>2011-03-13T11:07:14Z</time>
      </trkpt>
      <trkpt lat="42.61953" lon="0.93583">
        <ele>2163.58</ele>
        <time>2011-03-13T11:07:16Z</time>
      </trkpt>
      <trkpt lat="42.61954" lon="0.93583">
        <ele>2164.06</ele>
        <time>2011-03-13T11:11:45Z</time>
      </trkpt>
      <trkpt lat="42.61954" lon="0.93583">
        <ele>2165.03</ele>
        <time>2011-03-13T11:12:14Z</time>
      </trkpt>
      <trkpt lat="42.61954" lon="0.93584">
        <ele>2164.55</ele>
        <time>2011-03-13T11:12:20Z</time>
      </trkpt>
      <trkpt lat="42.61953" lon="0.93585">
        <ele>2165.99</ele>
        <time>2011-03-13T11:12:32Z</time>
      </trkpt>
      <trkpt lat="42.61953" lon="0.93585">
        <ele>2165.51</ele>
        <time>2011-03-13T11:12:50Z</time>
      </trkpt>
      <trkpt lat="42.61953" lon="0.93585">
        <ele>2165.03</ele>
        <time>2011-03-13T11:13:15Z</time>
      </trkpt>
      <trkpt lat="42.61953" lon="0.93585">
        <ele>2165.99</ele>
        <time>2011-03-13T11:13:45Z</time>
      </trkpt>
      <trkpt lat="42.61953" lon="0.93585">
        <ele>2165.03</ele>
        <time>2011-03-13T11:13:55Z</time>
      </trkpt>
      <trkpt lat="42.6196" lon="0.93574">
        <ele>2164.06</ele>
        <time>2011-03-13T11:14:07Z</time>
      </trkpt>
      <trkpt lat="42.6196" lon="0.93574">
        <ele>2163.1</ele>
        <time>2011-03-13T11:14:12Z</time>
      </trkpt>
      <trkpt lat="42.6196" lon="0.93572">
        <ele>2165.51</ele>
        <time>2011-03-13T11:14:30Z</time>
      </trkpt>
      <trkpt lat="42.61974" lon="0.93559">
        <ele>2165.03</ele>
        <time>2011-03-13T11:14:45Z</time>
      </trkpt>
      <trkpt lat="42.61979" lon="0.93555">
        <ele>2164.55</ele>
        <time>2011-03-13T11:14:50Z</time>
      </trkpt>
      <trkpt lat="42.61981" lon="0.93554">
        <ele>2165.03</ele>
        <time>2011-03-13T11:14:52Z</time>
      </trkpt>
      <trkpt lat="42.61992" lon="0.93544">
        <ele>2165.51</ele>
        <time>2011-03-13T11:15:05Z</time>
      </trkpt>
      <trkpt lat="42.62005" lon="0.93536">
        <ele>2167.43</ele>
        <time>2011-03-13T11:15:19Z</time>
      </trkpt>
      <trkpt lat="42.62009" lon="0.93533">
        <ele>2167.43</ele>
        <time>2011-03-13T11:15:24Z</time>
      </trkpt>
      <trkpt lat="42.62013" lon="0.93529">
        <ele>2168.87</ele>
        <time>2011-03-13T11:15:29Z</time>
      </trkpt>
      <trkpt lat="42.62021" lon="0.9352">
        <ele>2171.27</ele>
        <time>2011-03-13T11:15:42Z</time>
      </trkpt>
      <trkpt lat="42.62028" lon="0.93517">
        <ele>2171.76</ele>
        <time>2011-03-13T11:15:52Z</time>
      </trkpt>
      <trkpt lat="42.62031" lon="0.93511">
        <ele>2173.68</ele>
        <time>2011-03-13T11:15:59Z</time>
      </trkpt>
      <trkpt lat="42.62035" lon="0.93502">
        <ele>2173.68</ele>
        <time>2011-03-13T11:16:08Z</time>
      </trkpt>
      <trkpt lat="42.62041" lon="0.93493">
        <ele>2175.12</ele>
        <time>2011-03-13T11:16:18Z</time>
      </trkpt>
      <trkpt lat="42.62045" lon="0.93489">
        <ele>2174.16</ele>
        <time>2011-03-13T11:16:22Z</time>
      </trkpt>
      <trkpt lat="42.62057" lon="0.93477">
        <ele>2171.76</ele>
        <time>2011-03-13T11:16:33Z</time>
      </trkpt>
      <trkpt lat="42.62066" lon="0.9346">
        <ele>2170.31</ele>
        <time>2011-03-13T11:16:46Z</time>
      </trkpt>
      <trkpt lat="42.62071" lon="0.9345">
        <ele>2168.87</ele>
        <time>2011-03-13T11:16:53Z</time>
      </trkpt>
      <trkpt lat="42.62074" lon="0.93446">
        <ele>2168.87</ele>
        <time>2011-03-13T11:16:56Z</time>
      </trkpt>
      <trkpt lat="42.62086" lon="0.93429">
        <ele>2166.95</ele>
        <time>2011-03-13T11:17:11Z</time>
      </trkpt>
      <trkpt lat="42.62089" lon="0.93426">
        <ele>2166.95</ele>
        <time>2011-03-13T11:17:14Z</time>
      </trkpt>
      <trkpt lat="42.62095" lon="0.93421">
        <ele>2166.47</ele>
        <time>2011-03-13T11:17:20Z</time>
      </trkpt>
      <trkpt lat="42.62103" lon="0.93414">
        <ele>2165.99</ele>
        <time>2011-03-13T11:17:29Z</time>
      </trkpt>
      <trkpt lat="42.62106" lon="0.9341">
        <ele>2165.51</ele>
        <time>2011-03-13T11:17:33Z</time>
      </trkpt>
      <trkpt lat="42.6211" lon="0.93407">
        <ele>2165.51</ele>
        <time>2011-03-13T11:17:38Z</time>
      </trkpt>
      <trkpt lat="42.6212" lon="0.93398">
        <ele>2165.99</ele>
        <time>2011-03-13T11:17:50Z</time>
      </trkpt>
      <trkpt lat="42.62121" lon="0.93398">
        <ele>2165.99</ele>
        <time>2011-03-13T11:17:51Z</time>
      </trkpt>
      <trkpt lat="42.62128" lon="0.93389">
        <ele>2165.99</ele>
        <time>2011-03-13T11:18:00Z</time>
      </trkpt>
      <trkpt lat="42.62138" lon="0.93377">
        <ele>2165.99</ele>
        <time>2011-03-13T11:18:13Z</time>
      </trkpt>
      <trkpt lat="42.62138" lon="0.93376">
        <ele>2165.99</ele>
        <time>2011-03-13T11:18:14Z</time>
      </trkpt>
      <trkpt lat="42.62148" lon="0.93359">
        <ele>2165.99</ele>
        <time>2011-03-13T11:18:27Z</time>
      </trkpt>
      <trkpt lat="42.62152" lon="0.93354">
        <ele>2165.03</ele>
        <time>2011-03-13T11:18:32Z</time>
      </trkpt>
      <trkpt lat="42.6216" lon="0.9334">
        <ele>2166.95</ele>
        <time>2011-03-13T11:18:44Z</time>
      </trkpt>
      <trkpt lat="42.62163" lon="0.93334">
        <ele>2166.95</ele>
        <time>2011-03-13T11:18:50Z</time>
      </trkpt>
      <trkpt lat="42.62165" lon="0.93329">
        <ele>2167.43</ele>
        <time>2011-03-13T11:18:54Z</time>
      </trkpt>
      <trkpt lat="42.62176" lon="0.93325">
        <ele>2168.87</ele>
        <time>2011-03-13T11:19:06Z</time>
      </trkpt>
      <trkpt lat="42.62179" lon="0.93324">
        <ele>2169.83</ele>
        <time>2011-03-13T11:19:09Z</time>
      </trkpt>
      <trkpt lat="42.62181" lon="0.93322">
        <ele>2170.31</ele>
        <time>2011-03-13T11:19:13Z</time>
      </trkpt>
      <trkpt lat="42.6218" lon="0.9331">
        <ele>2171.76</ele>
        <time>2011-03-13T11:19:23Z</time>
      </trkpt>
      <trkpt lat="42.62182" lon="0.93295">
        <ele>2172.72</ele>
        <time>2011-03-13T11:19:34Z</time>
      </trkpt>
      <trkpt lat="42.62184" lon="0.9329">
        <ele>2171.76</ele>
        <time>2011-03-13T11:19:39Z</time>
      </trkpt>
      <trkpt lat="42.62191" lon="0.93275">
        <ele>2171.76</ele>
        <time>2011-03-13T11:19:51Z</time>
      </trkpt>
      <trkpt lat="42.62192" lon="0.93263">
        <ele>2172.24</ele>
        <time>2011-03-13T11:19:59Z</time>
      </trkpt>
      <trkpt lat="42.62193" lon="0.93252">
        <ele>2172.72</ele>
        <time>2011-03-13T11:20:08Z</time>
      </trkpt>
      <trkpt lat="42.62196" lon="0.93243">
        <ele>2173.68</ele>
        <time>2011-03-13T11:20:16Z</time>
      </trkpt>
      <trkpt lat="42.62199" lon="0.93235">
        <ele>2174.16</ele>
        <time>2011-03-13T11:20:23Z</time>
      </trkpt>
      <trkpt lat="42.62199" lon="0.9323">
        <ele>2174.16</ele>
        <time>2011-03-13T11:20:28Z</time>
      </trkpt>
      <trkpt lat="42.62197" lon="0.93224">
        <ele>2175.6</ele>
        <time>2011-03-13T11:20:34Z</time>
      </trkpt>
      <trkpt lat="42.62197" lon="0.93217">
        <ele>2176.08</ele>
        <time>2011-03-13T11:20:40Z</time>
      </trkpt>
      <trkpt lat="42.62203" lon="0.93204">
        <ele>2177.52</ele>
        <time>2011-03-13T11:20:53Z</time>
      </trkpt>
      <trkpt lat="42.62206" lon="0.93194">
        <ele>2178</ele>
        <time>2011-03-13T11:21:02Z</time>
      </trkpt>
      <trkpt lat="42.6221" lon="0.93181">
        <ele>2179.93</ele>
        <time>2011-03-13T11:21:14Z</time>
      </trkpt>
      <trkpt lat="42.62211" lon="0.93176">
        <ele>2180.89</ele>
        <time>2011-03-13T11:21:18Z</time>
      </trkpt>
      <trkpt lat="42.62212" lon="0.93167">
        <ele>2181.37</ele>
        <time>2011-03-13T11:21:25Z</time>
      </trkpt>
      <trkpt lat="42.62214" lon="0.93161">
        <ele>2181.37</ele>
        <time>2011-03-13T11:21:38Z</time>
      </trkpt>
      <trkpt lat="42.62214" lon="0.93161">
        <ele>2181.85</ele>
        <time>2011-03-13T11:21:51Z</time>
      </trkpt>
      <trkpt lat="42.62214" lon="0.93161">
        <ele>2181.85</ele>
        <time>2011-03-13T11:22:41Z</time>
      </trkpt>
      <trkpt lat="42.62215" lon="0.93161">
        <ele>2181.37</ele>
        <time>2011-03-13T11:23:06Z</time>
      </trkpt>
      <trkpt lat="42.62217" lon="0.93159">
        <ele>2181.85</ele>
        <time>2011-03-13T11:23:30Z</time>
      </trkpt>
      <trkpt lat="42.62217" lon="0.93154">
        <ele>2181.85</ele>
        <time>2011-03-13T11:23:43Z</time>
      </trkpt>
      <trkpt lat="42.62218" lon="0.93149">
        <ele>2180.41</ele>
        <time>2011-03-13T11:23:46Z</time>
      </trkpt>
      <trkpt lat="42.62223" lon="0.9313">
        <ele>2179.45</ele>
        <time>2011-03-13T11:23:56Z</time>
      </trkpt>
      <trkpt lat="42.62228" lon="0.93118">
        <ele>2179.45</ele>
        <time>2011-03-13T11:24:04Z</time>
      </trkpt>
      <trkpt lat="42.62235" lon="0.93099">
        <ele>2178.97</ele>
        <time>2011-03-13T11:24:16Z</time>
      </trkpt>
      <trkpt lat="42.62246" lon="0.93076">
        <ele>2177.04</ele>
        <time>2011-03-13T11:24:29Z</time>
      </trkpt>
      <trkpt lat="42.62252" lon="0.93063">
        <ele>2176.08</ele>
        <time>2011-03-13T11:24:37Z</time>
      </trkpt>
      <trkpt lat="42.62254" lon="0.93058">
        <ele>2176.08</ele>
        <time>2011-03-13T11:24:40Z</time>
      </trkpt>
      <trkpt lat="42.62253" lon="0.93039">
        <ele>2175.6</ele>
        <time>2011-03-13T11:24:52Z</time>
      </trkpt>
      <trkpt lat="42.62254" lon="0.9302">
        <ele>2175.12</ele>
        <time>2011-03-13T11:25:04Z</time>
      </trkpt>
      <trkpt lat="42.62259" lon="0.9301">
        <ele>2177.52</ele>
        <time>2011-03-13T11:25:12Z</time>
      </trkpt>
      <trkpt lat="42.62261" lon="0.93006">
        <ele>2177.04</ele>
        <time>2011-03-13T11:25:16Z</time>
      </trkpt>
      <trkpt lat="42.62263" lon="0.93003">
        <ele>2177.52</ele>
        <time>2011-03-13T11:25:19Z</time>
      </trkpt>
      <trkpt lat="42.62269" lon="0.92996">
        <ele>2179.93</ele>
        <time>2011-03-13T11:25:28Z</time>
      </trkpt>
      <trkpt lat="42.62285" lon="0.92987">
        <ele>2178.97</ele>
        <time>2011-03-13T11:25:42Z</time>
      </trkpt>
      <trkpt lat="42.62296" lon="0.92985">
        <ele>2177.04</ele>
        <time>2011-03-13T11:25:47Z</time>
      </trkpt>
      <trkpt lat="42.62298" lon="0.92985">
        <ele>2176.56</ele>
        <time>2011-03-13T11:25:49Z</time>
      </trkpt>
      <trkpt lat="42.62314" lon="0.92983">
        <ele>2175.12</ele>
        <time>2011-03-13T11:26:00Z</time>
      </trkpt>
      <trkpt lat="42.62326" lon="0.92985">
        <ele>2175.6</ele>
        <time>2011-03-13T11:26:10Z</time>
      </trkpt>
      <trkpt lat="42.62336" lon="0.92989">
        <ele>2172.72</ele>
        <time>2011-03-13T11:26:17Z</time>
      </trkpt>
      <trkpt lat="42.62349" lon="0.92994">
        <ele>2170.31</ele>
        <time>2011-03-13T11:26:29Z</time>
      </trkpt>
      <trkpt lat="42.6235" lon="0.92994">
        <ele>2170.31</ele>
        <time>2011-03-13T11:26:30Z</time>
      </trkpt>
      <trkpt lat="42.62351" lon="0.92995">
        <ele>2169.83</ele>
        <time>2011-03-13T11:26:31Z</time>
      </trkpt>
      <trkpt lat="42.6236" lon="0.93007">
        <ele>2166.95</ele>
        <time>2011-03-13T11:26:38Z</time>
      </trkpt>
      <trkpt lat="42.6236" lon="0.93007">
        <ele>2166.95</ele>
        <time>2011-03-13T11:26:39Z</time>
      </trkpt>
      <trkpt lat="42.62374" lon="0.9301">
        <ele>2165.03</ele>
        <time>2011-03-13T11:26:51Z</time>
      </trkpt>
      <trkpt lat="42.62385" lon="0.93013">
        <ele>2164.06</ele>
        <time>2011-03-13T11:27:00Z</time>
      </trkpt>
      <trkpt lat="42.62391" lon="0.93018">
        <ele>2165.03</ele>
        <time>2011-03-13T11:27:06Z</time>
      </trkpt>
      <trkpt lat="42.62397" lon="0.93027">
        <ele>2165.99</ele>
        <time>2011-03-13T11:27:15Z</time>
      </trkpt>
      <trkpt lat="42.62405" lon="0.93034">
        <ele>2167.91</ele>
        <time>2011-03-13T11:27:26Z</time>
      </trkpt>
      <trkpt lat="42.62407" lon="0.93034">
        <ele>2167.43</ele>
        <time>2011-03-13T11:27:28Z</time>
      </trkpt>
      <trkpt lat="42.62409" lon="0.93037">
        <ele>2168.87</ele>
        <time>2011-03-13T11:27:31Z</time>
      </trkpt>
      <trkpt lat="42.6241" lon="0.93043">
        <ele>2167.91</ele>
        <time>2011-03-13T11:27:35Z</time>
      </trkpt>
      <trkpt lat="42.62414" lon="0.9305">
        <ele>2167.43</ele>
        <time>2011-03-13T11:27:41Z</time>
      </trkpt>
      <trkpt lat="42.62419" lon="0.93054">
        <ele>2168.39</ele>
        <time>2011-03-13T11:27:54Z</time>
      </trkpt>
      <trkpt lat="42.62419" lon="0.93054">
        <ele>2168.39</ele>
        <time>2011-03-13T11:27:55Z</time>
      </trkpt>
      <trkpt lat="42.62417" lon="0.93033">
        <ele>2168.87</ele>
        <time>2011-03-13T11:28:08Z</time>
      </trkpt>
      <trkpt lat="42.6242" lon="0.93015">
        <ele>2169.35</ele>
        <time>2011-03-13T11:28:19Z</time>
      </trkpt>
      <trkpt lat="42.6242" lon="0.93013">
        <ele>2169.35</ele>
        <time>2011-03-13T11:28:20Z</time>
      </trkpt>
      <trkpt lat="42.6242" lon="0.9301">
        <ele>2169.35</ele>
        <time>2011-03-13T11:28:22Z</time>
      </trkpt>
      <trkpt lat="42.62424" lon="0.92996">
        <ele>2170.31</ele>
        <time>2011-03-13T11:28:31Z</time>
      </trkpt>
      <trkpt lat="42.62427" lon="0.92993">
        <ele>2171.76</ele>
        <time>2011-03-13T11:28:34Z</time>
      </trkpt>
      <trkpt lat="42.62429" lon="0.92989">
        <ele>2172.24</ele>
        <time>2011-03-13T11:28:38Z</time>
      </trkpt>
      <trkpt lat="42.62431" lon="0.92987">
        <ele>2172.72</ele>
        <time>2011-03-13T11:28:41Z</time>
      </trkpt>
      <trkpt lat="42.62436" lon="0.92986">
        <ele>2174.16</ele>
        <time>2011-03-13T11:28:46Z</time>
      </trkpt>
      <trkpt lat="42.62445" lon="0.92983">
        <ele>2176.08</ele>
        <time>2011-03-13T11:28:57Z</time>
      </trkpt>
      <trkpt lat="42.62447" lon="0.92983">
        <ele>2175.6</ele>
        <time>2011-03-13T11:29:09Z</time>
      </trkpt>
      <trkpt lat="42.62453" lon="0.9298">
        <ele>2176.08</ele>
        <time>2011-03-13T11:29:15Z</time>
      </trkpt>
      <trkpt lat="42.6246" lon="0.92977">
        <ele>2175.6</ele>
        <time>2011-03-13T11:29:26Z</time>
      </trkpt>
      <trkpt lat="42.62462" lon="0.92975">
        <ele>2176.08</ele>
        <time>2011-03-13T11:29:28Z</time>
      </trkpt>
      <trkpt lat="42.6247" lon="0.92973">
        <ele>2175.12</ele>
        <time>2011-03-13T11:29:34Z</time>
      </trkpt>
      <trkpt lat="42.6249" lon="0.9297">
        <ele>2174.64</ele>
        <time>2011-03-13T11:29:46Z</time>
      </trkpt>
      <trkpt lat="42.62506" lon="0.92974">
        <ele>2172.72</ele>
        <time>2011-03-13T11:29:59Z</time>
      </trkpt>
      <trkpt lat="42.62507" lon="0.92973">
        <ele>2173.2</ele>
        <time>2011-03-13T11:30:13Z</time>
      </trkpt>
      <trkpt lat="42.62508" lon="0.9297">
        <ele>2173.2</ele>
        <time>2011-03-13T11:30:32Z</time>
      </trkpt>
      <trkpt lat="42.62508" lon="0.9297">
        <ele>2168.87</ele>
        <time>2011-03-13T11:30:46Z</time>
      </trkpt>
      <trkpt lat="42.62508" lon="0.9297">
        <ele>2173.2</ele>
        <time>2011-03-13T11:30:50Z</time>
      </trkpt>
      <trkpt lat="42.62508" lon="0.9297">
        <ele>2169.35</ele>
        <time>2011-03-13T11:31:34Z</time>
      </trkpt>
      <trkpt lat="42.62508" lon="0.9297">
        <ele>2172.72</ele>
        <time>2011-03-13T11:31:36Z</time>
      </trkpt>
      <trkpt lat="42.62508" lon="0.9297">
        <ele>2173.2</ele>
        <time>2011-03-13T11:31:51Z</time>
      </trkpt>
      <trkpt lat="42.62508" lon="0.9297">
        <ele>2172.72</ele>
        <time>2011-03-13T11:32:03Z</time>
      </trkpt>
      <trkpt lat="42.62508" lon="0.92969">
        <ele>2173.2</ele>
        <time>2011-03-13T11:32:19Z</time>
      </trkpt>
      <trkpt lat="42.62508" lon="0.92969">
        <ele>2172.72</ele>
        <time>2011-03-13T11:32:28Z</time>
      </trkpt>
      <trkpt lat="42.6251" lon="0.92964">
        <ele>2172.24</ele>
        <time>2011-03-13T11:32:38Z</time>
      </trkpt>
      <trkpt lat="42.62514" lon="0.92963">
        <ele>2172.24</ele>
        <time>2011-03-13T11:32:44Z</time>
      </trkpt>
      <trkpt lat="42.62524" lon="0.92977">
        <ele>2167.91</ele>
        <time>2011-03-13T11:32:53Z</time>
      </trkpt>
      <trkpt lat="42.62528" lon="0.92981">
        <ele>2165.99</ele>
        <time>2011-03-13T11:32:55Z</time>
      </trkpt>
      <trkpt lat="42.62535" lon="0.92983">
        <ele>2165.99</ele>
        <time>2011-03-13T11:33:01Z</time>
      </trkpt>
      <trkpt lat="42.6254" lon="0.92982">
        <ele>2165.99</ele>
        <time>2011-03-13T11:33:06Z</time>
      </trkpt>
      <trkpt lat="42.62557" lon="0.92969">
        <ele>2163.58</ele>
        <time>2011-03-13T11:33:20Z</time>
      </trkpt>
      <trkpt lat="42.62574" lon="0.92969">
        <ele>2160.22</ele>
        <time>2011-03-13T11:33:31Z</time>
      </trkpt>
      <trkpt lat="42.62592" lon="0.92981">
        <ele>2156.86</ele>
        <time>2011-03-13T11:33:41Z</time>
      </trkpt>
      <trkpt lat="42.62595" lon="0.92982">
        <ele>2157.34</ele>
        <time>2011-03-13T11:33:43Z</time>
      </trkpt>
      <trkpt lat="42.62598" lon="0.92983">
        <ele>2155.89</ele>
        <time>2011-03-13T11:33:46Z</time>
      </trkpt>
      <trkpt lat="42.62607" lon="0.92975">
        <ele>2153.97</ele>
        <time>2011-03-13T11:33:57Z</time>
      </trkpt>
      <trkpt lat="42.6261" lon="0.92973">
        <ele>2153.01</ele>
        <time>2011-03-13T11:34:08Z</time>
      </trkpt>
      <trkpt lat="42.62617" lon="0.92973">
        <ele>2152.05</ele>
        <time>2011-03-13T11:34:24Z</time>
      </trkpt>
      <trkpt lat="42.62629" lon="0.92979">
        <ele>2148.2</ele>
        <time>2011-03-13T11:34:34Z</time>
      </trkpt>
      <trkpt lat="42.62632" lon="0.92982">
        <ele>2147.72</ele>
        <time>2011-03-13T11:34:37Z</time>
      </trkpt>
      <trkpt lat="42.62635" lon="0.92988">
        <ele>2146.76</ele>
        <time>2011-03-13T11:34:42Z</time>
      </trkpt>
      <trkpt lat="42.6264" lon="0.92996">
        <ele>2144.84</ele>
        <time>2011-03-13T11:34:52Z</time>
      </trkpt>
      <trkpt lat="42.6264" lon="0.92996">
        <ele>2144.84</ele>
        <time>2011-03-13T11:35:09Z</time>
      </trkpt>
      <trkpt lat="42.62648" lon="0.93008">
        <ele>2143.4</ele>
        <time>2011-03-13T11:35:21Z</time>
      </trkpt>
      <trkpt lat="42.62656" lon="0.93023">
        <ele>2141.47</ele>
        <time>2011-03-13T11:35:32Z</time>
      </trkpt>
      <trkpt lat="42.62669" lon="0.93043">
        <ele>2139.07</ele>
        <time>2011-03-13T11:35:46Z</time>
      </trkpt>
      <trkpt lat="42.62671" lon="0.93047">
        <ele>2140.03</ele>
        <time>2011-03-13T11:35:49Z</time>
      </trkpt>
      <trkpt lat="42.6268" lon="0.93062">
        <ele>2139.07</ele>
        <time>2011-03-13T11:36:01Z</time>
      </trkpt>
      <trkpt lat="42.62682" lon="0.93067">
        <ele>2140.03</ele>
        <time>2011-03-13T11:36:05Z</time>
      </trkpt>
      <trkpt lat="42.62685" lon="0.93071">
        <ele>2140.03</ele>
        <time>2011-03-13T11:36:09Z</time>
      </trkpt>
      <trkpt lat="42.6269" lon="0.93081">
        <ele>2141.95</ele>
        <time>2011-03-13T11:36:17Z</time>
      </trkpt>
      <trkpt lat="42.62698" lon="0.93088">
        <ele>2143.88</ele>
        <time>2011-03-13T11:36:27Z</time>
      </trkpt>
      <trkpt lat="42.627" lon="0.93087">
        <ele>2144.36</ele>
        <time>2011-03-13T11:36:40Z</time>
      </trkpt>
      <trkpt lat="42.62702" lon="0.93083">
        <ele>2143.88</ele>
        <time>2011-03-13T11:36:46Z</time>
      </trkpt>
      <trkpt lat="42.62707" lon="0.93065">
        <ele>2143.88</ele>
        <time>2011-03-13T11:36:58Z</time>
      </trkpt>
      <trkpt lat="42.62708" lon="0.93054">
        <ele>2144.84</ele>
        <time>2011-03-13T11:37:05Z</time>
      </trkpt>
      <trkpt lat="42.6271" lon="0.93036">
        <ele>2145.32</ele>
        <time>2011-03-13T11:37:18Z</time>
      </trkpt>
      <trkpt lat="42.6271" lon="0.93035">
        <ele>2144.84</ele>
        <time>2011-03-13T11:37:33Z</time>
      </trkpt>
      <trkpt lat="42.62711" lon="0.93033">
        <ele>2144.84</ele>
        <time>2011-03-13T11:37:42Z</time>
      </trkpt>
      <trkpt lat="42.6271" lon="0.93033">
        <ele>2143.4</ele>
        <time>2011-03-13T11:37:49Z</time>
      </trkpt>
      <trkpt lat="42.6271" lon="0.93033">
        <ele>2146.28</ele>
        <time>2011-03-13T11:39:53Z</time>
      </trkpt>
      <trkpt lat="42.62709" lon="0.93033">
        <ele>2146.76</ele>
        <time>2011-03-13T11:40:05Z</time>
      </trkpt>
      <trkpt lat="42.62709" lon="0.93033">
        <ele>2146.28</ele>
        <time>2011-03-13T11:40:22Z</time>
      </trkpt>
      <trkpt lat="42.62709" lon="0.93033">
        <ele>2146.28</ele>
        <time>2011-03-13T11:40:46Z</time>
      </trkpt>
      <trkpt lat="42.62709" lon="0.93034">
        <ele>2146.28</ele>
        <time>2011-03-13T11:41:07Z</time>
      </trkpt>
      <trkpt lat="42.62709" lon="0.93034">
        <ele>2145.8</ele>
        <time>2011-03-13T11:41:33Z</time>
      </trkpt>
      <trkpt lat="42.62711" lon="0.93025">
        <ele>2146.28</ele>
        <time>2011-03-13T11:41:49Z</time>
      </trkpt>
      <trkpt lat="42.62711" lon="0.93022">
        <ele>2146.76</ele>
        <time>2011-03-13T11:41:51Z</time>
      </trkpt>
      <trkpt lat="42.62712" lon="0.93015">
        <ele>2146.76</ele>
        <time>2011-03-13T11:42:03Z</time>
      </trkpt>
      <trkpt lat="42.62712" lon="0.93015">
        <ele>2146.28</ele>
        <time>2011-03-13T11:42:10Z</time>
      </trkpt>
      <trkpt lat="42.62715" lon="0.93005">
        <ele>2145.8</ele>
        <time>2011-03-13T11:42:17Z</time>
      </trkpt>
      <trkpt lat="42.62721" lon="0.92988">
        <ele>2146.28</ele>
        <time>2011-03-13T11:42:29Z</time>
      </trkpt>
      <trkpt lat="42.62722" lon="0.92986">
        <ele>2146.28</ele>
        <time>2011-03-13T11:42:30Z</time>
      </trkpt>
      <trkpt lat="42.62728" lon="0.92974">
        <ele>2147.24</ele>
        <time>2011-03-13T11:42:38Z</time>
      </trkpt>
      <trkpt lat="42.62731" lon="0.92971">
        <ele>2148.2</ele>
        <time>2011-03-13T11:42:42Z</time>
      </trkpt>
      <trkpt lat="42.62739" lon="0.92963">
        <ele>2148.2</ele>
        <time>2011-03-13T11:42:50Z</time>
      </trkpt>
      <trkpt lat="42.62746" lon="0.9296">
        <ele>2148.68</ele>
        <time>2011-03-13T11:42:55Z</time>
      </trkpt>
      <trkpt lat="42.62755" lon="0.9295">
        <ele>2147.24</ele>
        <time>2011-03-13T11:43:08Z</time>
      </trkpt>
      <trkpt lat="42.62758" lon="0.92949">
        <ele>2146.76</ele>
        <time>2011-03-13T11:43:21Z</time>
      </trkpt>
      <trkpt lat="42.62758" lon="0.92949">
        <ele>2146.28</ele>
        <time>2011-03-13T11:43:42Z</time>
      </trkpt>
      <trkpt lat="42.62756" lon="0.92951">
        <ele>2146.76</ele>
        <time>2011-03-13T11:43:47Z</time>
      </trkpt>
      <trkpt lat="42.62753" lon="0.92952">
        <ele>2147.72</ele>
        <time>2011-03-13T11:43:49Z</time>
      </trkpt>
      <trkpt lat="42.62743" lon="0.92952">
        <ele>2149.65</ele>
        <time>2011-03-13T11:44:02Z</time>
      </trkpt>
      <trkpt lat="42.62741" lon="0.92951">
        <ele>2148.68</ele>
        <time>2011-03-13T11:44:26Z</time>
      </trkpt>
      <trkpt lat="42.6273" lon="0.92949">
        <ele>2150.13</ele>
        <time>2011-03-13T11:44:42Z</time>
      </trkpt>
      <trkpt lat="42.62729" lon="0.92949">
        <ele>2149.65</ele>
        <time>2011-03-13T11:44:43Z</time>
      </trkpt>
      <trkpt lat="42.62719" lon="0.92944">
        <ele>2151.57</ele>
        <time>2011-03-13T11:44:53Z</time>
      </trkpt>
      <trkpt lat="42.62717" lon="0.92944">
        <ele>2152.05</ele>
        <time>2011-03-13T11:44:55Z</time>
      </trkpt>
      <trkpt lat="42.62708" lon="0.92941">
        <ele>2153.97</ele>
        <time>2011-03-13T11:45:06Z</time>
      </trkpt>
      <trkpt lat="42.62704" lon="0.92941">
        <ele>2153.97</ele>
        <time>2011-03-13T11:45:16Z</time>
      </trkpt>
      <trkpt lat="42.62701" lon="0.92939">
        <ele>2154.93</ele>
        <time>2011-03-13T11:45:26Z</time>
      </trkpt>
      <trkpt lat="42.627" lon="0.92939">
        <ele>2155.89</ele>
        <time>2011-03-13T11:45:32Z</time>
      </trkpt>
      <trkpt lat="42.62695" lon="0.92936">
        <ele>2156.86</ele>
        <time>2011-03-13T11:45:40Z</time>
      </trkpt>
      <trkpt lat="42.62685" lon="0.92933">
        <ele>2158.3</ele>
        <time>2011-03-13T11:45:48Z</time>
      </trkpt>
      <trkpt lat="42.62675" lon="0.92935">
        <ele>2160.22</ele>
        <time>2011-03-13T11:46:00Z</time>
      </trkpt>
      <trkpt lat="42.62674" lon="0.92935">
        <ele>2159.26</ele>
        <time>2011-03-13T11:46:11Z</time>
      </trkpt>
      <trkpt lat="42.62673" lon="0.92935">
        <ele>2159.74</ele>
        <time>2011-03-13T11:46:25Z</time>
      </trkpt>
      <trkpt lat="42.62667" lon="0.92936">
        <ele>2159.74</ele>
        <time>2011-03-13T11:46:28Z</time>
      </trkpt>
      <trkpt lat="42.62653" lon="0.92937">
        <ele>2154.45</ele>
        <time>2011-03-13T11:46:31Z</time>
      </trkpt>
      <trkpt lat="42.62651" lon="0.92937">
        <ele>2153.97</ele>
        <time>2011-03-13T11:46:33Z</time>
      </trkpt>
      <trkpt lat="42.62652" lon="0.92937">
        <ele>2153.97</ele>
        <time>2011-03-13T11:46:48Z</time>
      </trkpt>
      <trkpt lat="42.62645" lon="0.92939">
        <ele>2151.57</ele>
        <time>2011-03-13T11:46:55Z</time>
      </trkpt>
      <trkpt lat="42.62645" lon="0.92939">
        <ele>2151.57</ele>
        <time>2011-03-13T11:47:17Z</time>
      </trkpt>
      <trkpt lat="42.62645" lon="0.92939">
        <ele>2151.57</ele>
        <time>2011-03-13T11:47:37Z</time>
      </trkpt>
      <trkpt lat="42.62637" lon="0.92945">
        <ele>2150.13</ele>
        <time>2011-03-13T11:47:45Z</time>
      </trkpt>
      <trkpt lat="42.62632" lon="0.92948">
        <ele>2150.13</ele>
        <time>2011-03-13T11:47:48Z</time>
      </trkpt>
      <trkpt lat="42.62624" lon="0.92958">
        <ele>2150.61</ele>
        <time>2011-03-13T11:47:57Z</time>
      </trkpt>
      <trkpt lat="42.62623" lon="0.9296">
        <ele>2151.09</ele>
        <time>2011-03-13T11:47:59Z</time>
      </trkpt>
      <trkpt lat="42.62624" lon="0.92965">
        <ele>2152.53</ele>
        <time>2011-03-13T11:48:08Z</time>
      </trkpt>
      <trkpt lat="42.62623" lon="0.92966">
        <ele>2153.01</ele>
        <time>2011-03-13T11:48:10Z</time>
      </trkpt>
      <trkpt lat="42.62616" lon="0.92968">
        <ele>2154.93</ele>
        <time>2011-03-13T11:48:20Z</time>
      </trkpt>
      <trkpt lat="42.62613" lon="0.92971">
        <ele>2156.86</ele>
        <time>2011-03-13T11:48:28Z</time>
      </trkpt>
      <trkpt lat="42.62603" lon="0.92981">
        <ele>2157.82</ele>
        <time>2011-03-13T11:48:38Z</time>
      </trkpt>
      <trkpt lat="42.62599" lon="0.92981">
        <ele>2158.3</ele>
        <time>2011-03-13T11:48:41Z</time>
      </trkpt>
      <trkpt lat="42.62593" lon="0.92979">
        <ele>2158.3</ele>
        <time>2011-03-13T11:48:47Z</time>
      </trkpt>
      <trkpt lat="42.62588" lon="0.92977">
        <ele>2159.74</ele>
        <time>2011-03-13T11:48:52Z</time>
      </trkpt>
      <trkpt lat="42.6258" lon="0.92972">
        <ele>2161.66</ele>
        <time>2011-03-13T11:49:04Z</time>
      </trkpt>
      <trkpt lat="42.62572" lon="0.92968">
        <ele>2162.62</ele>
        <time>2011-03-13T11:49:14Z</time>
      </trkpt>
      <trkpt lat="42.62565" lon="0.92967">
        <ele>2163.58</ele>
        <time>2011-03-13T11:49:22Z</time>
      </trkpt>
      <trkpt lat="42.6256" lon="0.92967">
        <ele>2164.06</ele>
        <time>2011-03-13T11:49:26Z</time>
      </trkpt>
      <trkpt lat="42.62557" lon="0.92963">
        <ele>2165.51</ele>
        <time>2011-03-13T11:49:36Z</time>
      </trkpt>
      <trkpt lat="42.62557" lon="0.92961">
        <ele>2166.47</ele>
        <time>2011-03-13T11:49:37Z</time>
      </trkpt>
      <trkpt lat="42.6256" lon="0.92953">
        <ele>2167.91</ele>
        <time>2011-03-13T11:49:47Z</time>
      </trkpt>
      <trkpt lat="42.62562" lon="0.92952">
        <ele>2168.87</ele>
        <time>2011-03-13T11:49:58Z</time>
      </trkpt>
      <trkpt lat="42.62566" lon="0.92948">
        <ele>2170.79</ele>
        <time>2011-03-13T11:50:09Z</time>
      </trkpt>
      <trkpt lat="42.62569" lon="0.92947">
        <ele>2172.24</ele>
        <time>2011-03-13T11:50:13Z</time>
      </trkpt>
      <trkpt lat="42.62572" lon="0.92942">
        <ele>2173.2</ele>
        <time>2011-03-13T11:50:17Z</time>
      </trkpt>
      <trkpt lat="42.62574" lon="0.9294">
        <ele>2173.68</ele>
        <time>2011-03-13T11:50:24Z</time>
      </trkpt>
      <trkpt lat="42.62576" lon="0.92935">
        <ele>2174.64</ele>
        <time>2011-03-13T11:50:29Z</time>
      </trkpt>
      <trkpt lat="42.62578" lon="0.9293">
        <ele>2176.08</ele>
        <time>2011-03-13T11:50:40Z</time>
      </trkpt>
      <trkpt lat="42.62577" lon="0.92933">
        <ele>2175.6</ele>
        <time>2011-03-13T11:51:02Z</time>
      </trkpt>
      <trkpt lat="42.62576" lon="0.92934">
        <ele>2175.6</ele>
        <time>2011-03-13T11:51:03Z</time>
      </trkpt>
      <trkpt lat="42.62563" lon="0.92949">
        <ele>2171.76</ele>
        <time>2011-03-13T11:51:10Z</time>
      </trkpt>
      <trkpt lat="42.62552" lon="0.92961">
        <ele>2167.91</ele>
        <time>2011-03-13T11:51:13Z</time>
      </trkpt>
      <trkpt lat="42.62549" lon="0.92967">
        <ele>2166.47</ele>
        <time>2011-03-13T11:51:16Z</time>
      </trkpt>
      <trkpt lat="42.62544" lon="0.92974">
        <ele>2166.47</ele>
        <time>2011-03-13T11:51:27Z</time>
      </trkpt>
      <trkpt lat="42.62536" lon="0.92981">
        <ele>2167.43</ele>
        <time>2011-03-13T11:51:40Z</time>
      </trkpt>
      <trkpt lat="42.62535" lon="0.92982">
        <ele>2166.95</ele>
        <time>2011-03-13T11:51:41Z</time>
      </trkpt>
      <trkpt lat="42.6253" lon="0.92982">
        <ele>2166.95</ele>
        <time>2011-03-13T11:51:45Z</time>
      </trkpt>
      <trkpt lat="42.62524" lon="0.92978">
        <ele>2167.91</ele>
        <time>2011-03-13T11:51:56Z</time>
      </trkpt>
      <trkpt lat="42.62518" lon="0.92971">
        <ele>2169.83</ele>
        <time>2011-03-13T11:52:05Z</time>
      </trkpt>
      <trkpt lat="42.62518" lon="0.92968">
        <ele>2171.27</ele>
        <time>2011-03-13T11:52:14Z</time>
      </trkpt>
      <trkpt lat="42.62509" lon="0.92965">
        <ele>2173.68</ele>
        <time>2011-03-13T11:52:26Z</time>
      </trkpt>
      <trkpt lat="42.62508" lon="0.92966">
        <ele>2173.68</ele>
        <time>2011-03-13T11:52:27Z</time>
      </trkpt>
      <trkpt lat="42.62501" lon="0.92972">
        <ele>2174.16</ele>
        <time>2011-03-13T11:52:36Z</time>
      </trkpt>
      <trkpt lat="42.62493" lon="0.92971">
        <ele>2174.16</ele>
        <time>2011-03-13T11:52:44Z</time>
      </trkpt>
      <trkpt lat="42.62483" lon="0.92971">
        <ele>2175.12</ele>
        <time>2011-03-13T11:52:54Z</time>
      </trkpt>
      <trkpt lat="42.62467" lon="0.92971">
        <ele>2176.56</ele>
        <time>2011-03-13T11:53:07Z</time>
      </trkpt>
      <trkpt lat="42.62458" lon="0.92973">
        <ele>2177.52</ele>
        <time>2011-03-13T11:53:18Z</time>
      </trkpt>
      <trkpt lat="42.62455" lon="0.92976">
        <ele>2177.52</ele>
        <time>2011-03-13T11:53:21Z</time>
      </trkpt>
      <trkpt lat="42.62443" lon="0.92983">
        <ele>2177.04</ele>
        <time>2011-03-13T11:53:32Z</time>
      </trkpt>
      <trkpt lat="42.62423" lon="0.92994">
        <ele>2173.68</ele>
        <time>2011-03-13T11:53:45Z</time>
      </trkpt>
      <trkpt lat="42.62419" lon="0.93002">
        <ele>2172.72</ele>
        <time>2011-03-13T11:53:47Z</time>
      </trkpt>
      <trkpt lat="42.62416" lon="0.93008">
        <ele>2171.27</ele>
        <time>2011-03-13T11:53:49Z</time>
      </trkpt>
      <trkpt lat="42.6241" lon="0.93013">
        <ele>2170.31</ele>
        <time>2011-03-13T11:53:55Z</time>
      </trkpt>
      <trkpt lat="42.62405" lon="0.93013">
        <ele>2170.31</ele>
        <time>2011-03-13T11:54:09Z</time>
      </trkpt>
      <trkpt lat="42.62405" lon="0.93013">
        <ele>2170.79</ele>
        <time>2011-03-13T11:54:30Z</time>
      </trkpt>
      <trkpt lat="42.62396" lon="0.93012">
        <ele>2169.35</ele>
        <time>2011-03-13T11:54:48Z</time>
      </trkpt>
      <trkpt lat="42.6238" lon="0.93011">
        <ele>2165.51</ele>
        <time>2011-03-13T11:54:56Z</time>
      </trkpt>
      <trkpt lat="42.62376" lon="0.93011">
        <ele>2165.99</ele>
        <time>2011-03-13T11:55:13Z</time>
      </trkpt>
      <trkpt lat="42.62375" lon="0.93011">
        <ele>2166.47</ele>
        <time>2011-03-13T11:55:20Z</time>
      </trkpt>
      <trkpt lat="42.62362" lon="0.93009">
        <ele>2166.95</ele>
        <time>2011-03-13T11:55:31Z</time>
      </trkpt>
      <trkpt lat="42.62358" lon="0.93007">
        <ele>2167.91</ele>
        <time>2011-03-13T11:55:37Z</time>
      </trkpt>
      <trkpt lat="42.62353" lon="0.92999">
        <ele>2170.79</ele>
        <time>2011-03-13T11:55:50Z</time>
      </trkpt>
      <trkpt lat="42.62347" lon="0.92994">
        <ele>2171.76</ele>
        <time>2011-03-13T11:56:00Z</time>
      </trkpt>
      <trkpt lat="42.62341" lon="0.92992">
        <ele>2172.72</ele>
        <time>2011-03-13T11:56:07Z</time>
      </trkpt>
      <trkpt lat="42.62333" lon="0.92988">
        <ele>2173.2</ele>
        <time>2011-03-13T11:56:19Z</time>
      </trkpt>
      <trkpt lat="42.62324" lon="0.92987">
        <ele>2176.08</ele>
        <time>2011-03-13T11:56:31Z</time>
      </trkpt>
      <trkpt lat="42.62315" lon="0.92981">
        <ele>2176.56</ele>
        <time>2011-03-13T11:56:42Z</time>
      </trkpt>
      <trkpt lat="42.62307" lon="0.92981">
        <ele>2177.52</ele>
        <time>2011-03-13T11:56:50Z</time>
      </trkpt>
      <trkpt lat="42.62302" lon="0.92981">
        <ele>2177.52</ele>
        <time>2011-03-13T11:56:55Z</time>
      </trkpt>
      <trkpt lat="42.62292" lon="0.92981">
        <ele>2178.97</ele>
        <time>2011-03-13T11:57:07Z</time>
      </trkpt>
      <trkpt lat="42.62291" lon="0.9298">
        <ele>2179.93</ele>
        <time>2011-03-13T11:57:10Z</time>
      </trkpt>
      <trkpt lat="42.62281" lon="0.92979">
        <ele>2182.33</ele>
        <time>2011-03-13T11:57:23Z</time>
      </trkpt>
      <trkpt lat="42.6228" lon="0.92978">
        <ele>2182.81</ele>
        <time>2011-03-13T11:57:25Z</time>
      </trkpt>
      <trkpt lat="42.62277" lon="0.92975">
        <ele>2182.33</ele>
        <time>2011-03-13T11:57:42Z</time>
      </trkpt>
      <trkpt lat="42.62272" lon="0.9297">
        <ele>2184.25</ele>
        <time>2011-03-13T11:57:53Z</time>
      </trkpt>
      <trkpt lat="42.62271" lon="0.92969">
        <ele>2183.77</ele>
        <time>2011-03-13T11:57:54Z</time>
      </trkpt>
      <trkpt lat="42.62267" lon="0.92966">
        <ele>2185.69</ele>
        <time>2011-03-13T11:58:02Z</time>
      </trkpt>
      <trkpt lat="42.62264" lon="0.92952">
        <ele>2188.58</ele>
        <time>2011-03-13T11:58:14Z</time>
      </trkpt>
      <trkpt lat="42.6226" lon="0.92937">
        <ele>2189.54</ele>
        <time>2011-03-13T11:58:27Z</time>
      </trkpt>
      <trkpt lat="42.62259" lon="0.92929">
        <ele>2190.5</ele>
        <time>2011-03-13T11:58:34Z</time>
      </trkpt>
      <trkpt lat="42.62258" lon="0.92912">
        <ele>2190.98</ele>
        <time>2011-03-13T11:58:47Z</time>
      </trkpt>
      <trkpt lat="42.62258" lon="0.92911">
        <ele>2190.98</ele>
        <time>2011-03-13T11:58:48Z</time>
      </trkpt>
      <trkpt lat="42.62254" lon="0.92898">
        <ele>2192.42</ele>
        <time>2011-03-13T11:58:59Z</time>
      </trkpt>
      <trkpt lat="42.62248" lon="0.92881">
        <ele>2191.46</ele>
        <time>2011-03-13T11:59:11Z</time>
      </trkpt>
      <trkpt lat="42.62244" lon="0.92867">
        <ele>2189.54</ele>
        <time>2011-03-13T11:59:23Z</time>
      </trkpt>
      <trkpt lat="42.62244" lon="0.92865">
        <ele>2189.54</ele>
        <time>2011-03-13T11:59:24Z</time>
      </trkpt>
      <trkpt lat="42.62243" lon="0.92852">
        <ele>2189.06</ele>
        <time>2011-03-13T11:59:33Z</time>
      </trkpt>
      <trkpt lat="42.62233" lon="0.92834">
        <ele>2187.14</ele>
        <time>2011-03-13T11:59:46Z</time>
      </trkpt>
      <trkpt lat="42.62229" lon="0.92831">
        <ele>2187.14</ele>
        <time>2011-03-13T11:59:50Z</time>
      </trkpt>
      <trkpt lat="42.62218" lon="0.92823">
        <ele>2188.1</ele>
        <time>2011-03-13T12:00:01Z</time>
      </trkpt>
      <trkpt lat="42.62218" lon="0.92822">
        <ele>2189.06</ele>
        <time>2011-03-13T12:00:02Z</time>
      </trkpt>
      <trkpt lat="42.62214" lon="0.92819">
        <ele>2189.06</ele>
        <time>2011-03-13T12:00:05Z</time>
      </trkpt>
      <trkpt lat="42.62207" lon="0.92804">
        <ele>2189.06</ele>
        <time>2011-03-13T12:00:20Z</time>
      </trkpt>
      <trkpt lat="42.62206" lon="0.92803">
        <ele>2190.02</ele>
        <time>2011-03-13T12:00:21Z</time>
      </trkpt>
      <trkpt lat="42.62205" lon="0.92797">
        <ele>2189.06</ele>
        <time>2011-03-13T12:00:35Z</time>
      </trkpt>
      <trkpt lat="42.62205" lon="0.92796">
        <ele>2188.58</ele>
        <time>2011-03-13T12:00:59Z</time>
      </trkpt>
      <trkpt lat="42.62205" lon="0.92796">
        <ele>2188.1</ele>
        <time>2011-03-13T12:01:25Z</time>
      </trkpt>
      <trkpt lat="42.62205" lon="0.92797">
        <ele>2188.1</ele>
        <time>2011-03-13T12:01:52Z</time>
      </trkpt>
      <trkpt lat="42.62204" lon="0.92797">
        <ele>2188.58</ele>
        <time>2011-03-13T12:02:25Z</time>
      </trkpt>
      <trkpt lat="42.62204" lon="0.92797">
        <ele>2188.1</ele>
        <time>2011-03-13T12:02:56Z</time>
      </trkpt>
      <trkpt lat="42.62204" lon="0.92797">
        <ele>2188.58</ele>
        <time>2011-03-13T12:02:59Z</time>
      </trkpt>
      <trkpt lat="42.62206" lon="0.92793">
        <ele>2188.58</ele>
        <time>2011-03-13T12:03:02Z</time>
      </trkpt>
      <trkpt lat="42.6221" lon="0.9278">
        <ele>2187.14</ele>
        <time>2011-03-13T12:03:08Z</time>
      </trkpt>
      <trkpt lat="42.62207" lon="0.92757">
        <ele>2184.25</ele>
        <time>2011-03-13T12:03:20Z</time>
      </trkpt>
      <trkpt lat="42.62206" lon="0.92756">
        <ele>2183.77</ele>
        <time>2011-03-13T12:03:30Z</time>
      </trkpt>
      <trkpt lat="42.62206" lon="0.92756">
        <ele>2182.81</ele>
        <time>2011-03-13T12:03:34Z</time>
      </trkpt>
      <trkpt lat="42.62206" lon="0.92756">
        <ele>2181.85</ele>
        <time>2011-03-13T12:04:14Z</time>
      </trkpt>
      <trkpt lat="42.62207" lon="0.92755">
        <ele>2182.33</ele>
        <time>2011-03-13T12:07:09Z</time>
      </trkpt>
      <trkpt lat="42.62206" lon="0.92757">
        <ele>2179.93</ele>
        <time>2011-03-13T12:07:11Z</time>
      </trkpt>
      <trkpt lat="42.62206" lon="0.92757">
        <ele>2183.29</ele>
        <time>2011-03-13T12:07:16Z</time>
      </trkpt>
      <trkpt lat="42.62206" lon="0.92757">
        <ele>2183.77</ele>
        <time>2011-03-13T12:07:25Z</time>
      </trkpt>
      <trkpt lat="42.62207" lon="0.92757">
        <ele>2183.29</ele>
        <time>2011-03-13T12:08:25Z</time>
      </trkpt>
      <trkpt lat="42.62207" lon="0.92757">
        <ele>2183.29</ele>
        <time>2011-03-13T12:08:43Z</time>
      </trkpt>
      <trkpt lat="42.62206" lon="0.92756">
        <ele>2182.81</ele>
        <time>2011-03-13T12:09:03Z</time>
      </trkpt>
      <trkpt lat="42.62206" lon="0.92756">
        <ele>2183.77</ele>
        <time>2011-03-13T12:09:31Z</time>
      </trkpt>
      <trkpt lat="42.62206" lon="0.92756">
        <ele>2183.77</ele>
        <time>2011-03-13T12:10:15Z</time>
      </trkpt>
      <trkpt lat="42.62204" lon="0.92753">
        <ele>2182.81</ele>
        <time>2011-03-13T12:10:32Z</time>
      </trkpt>
      <trkpt lat="42.62197" lon="0.92748">
        <ele>2182.33</ele>
        <time>2011-03-13T12:10:36Z</time>
      </trkpt>
      <trkpt lat="42.622" lon="0.9273">
        <ele>2178</ele>
        <time>2011-03-13T12:10:40Z</time>
      </trkpt>
      <trkpt lat="42.622" lon="0.92722">
        <ele>2174.64</ele>
        <time>2011-03-13T12:10:42Z</time>
      </trkpt>
      <trkpt lat="42.62202" lon="0.92705">
        <ele>2169.83</ele>
        <time>2011-03-13T12:10:45Z</time>
      </trkpt>
      <trkpt lat="42.62211" lon="0.92688">
        <ele>2164.55</ele>
        <time>2011-03-13T12:10:48Z</time>
      </trkpt>
      <trkpt lat="42.62215" lon="0.92681">
        <ele>2161.18</ele>
        <time>2011-03-13T12:10:50Z</time>
      </trkpt>
      <trkpt lat="42.62215" lon="0.92679">
        <ele>2160.22</ele>
        <time>2011-03-13T12:10:59Z</time>
      </trkpt>
      <trkpt lat="42.62215" lon="0.92679">
        <ele>2160.22</ele>
        <time>2011-03-13T12:11:28Z</time>
      </trkpt>
      <trkpt lat="42.62211" lon="0.92656">
        <ele>2156.86</ele>
        <time>2011-03-13T12:11:34Z</time>
      </trkpt>
      <trkpt lat="42.62205" lon="0.92639">
        <ele>2152.53</ele>
        <time>2011-03-13T12:11:37Z</time>
      </trkpt>
      <trkpt lat="42.62198" lon="0.92617">
        <ele>2147.24</ele>
        <time>2011-03-13T12:11:41Z</time>
      </trkpt>
      <trkpt lat="42.62195" lon="0.92612">
        <ele>2145.32</ele>
        <time>2011-03-13T12:11:48Z</time>
      </trkpt>
      <trkpt lat="42.62194" lon="0.9261">
        <ele>2144.36</ele>
        <time>2011-03-13T12:12:01Z</time>
      </trkpt>
      <trkpt lat="42.62192" lon="0.92608">
        <ele>2145.32</ele>
        <time>2011-03-13T12:12:13Z</time>
      </trkpt>
      <trkpt lat="42.62191" lon="0.92604">
        <ele>2146.28</ele>
        <time>2011-03-13T12:12:20Z</time>
      </trkpt>
      <trkpt lat="42.6219" lon="0.926">
        <ele>2147.24</ele>
        <time>2011-03-13T12:12:30Z</time>
      </trkpt>
      <trkpt lat="42.62188" lon="0.92595">
        <ele>2146.76</ele>
        <time>2011-03-13T12:12:36Z</time>
      </trkpt>
      <trkpt lat="42.62184" lon="0.92591">
        <ele>2147.24</ele>
        <time>2011-03-13T12:12:47Z</time>
      </trkpt>
      <trkpt lat="42.62183" lon="0.92588">
        <ele>2146.76</ele>
        <time>2011-03-13T12:13:02Z</time>
      </trkpt>
      <trkpt lat="42.62181" lon="0.92586">
        <ele>2146.28</ele>
        <time>2011-03-13T12:13:13Z</time>
      </trkpt>
      <trkpt lat="42.62176" lon="0.92572">
        <ele>2145.32</ele>
        <time>2011-03-13T12:13:18Z</time>
      </trkpt>
      <trkpt lat="42.62169" lon="0.92561">
        <ele>2143.4</ele>
        <time>2011-03-13T12:13:21Z</time>
      </trkpt>
      <trkpt lat="42.62166" lon="0.92556">
        <ele>2142.92</ele>
        <time>2011-03-13T12:13:31Z</time>
      </trkpt>
      <trkpt lat="42.6217" lon="0.92543">
        <ele>2140.03</ele>
        <time>2011-03-13T12:13:35Z</time>
      </trkpt>
      <trkpt lat="42.62176" lon="0.92525">
        <ele>2134.74</ele>
        <time>2011-03-13T12:13:38Z</time>
      </trkpt>
      <trkpt lat="42.62181" lon="0.92513">
        <ele>2128.98</ele>
        <time>2011-03-13T12:13:40Z</time>
      </trkpt>
      <trkpt lat="42.62185" lon="0.92506">
        <ele>2126.09</ele>
        <time>2011-03-13T12:13:41Z</time>
      </trkpt>
      <trkpt lat="42.62187" lon="0.92491">
        <ele>2121.29</ele>
        <time>2011-03-13T12:13:43Z</time>
      </trkpt>
      <trkpt lat="42.62186" lon="0.92477">
        <ele>2116</ele>
        <time>2011-03-13T12:13:45Z</time>
      </trkpt>
      <trkpt lat="42.62182" lon="0.92462">
        <ele>2113.12</ele>
        <time>2011-03-13T12:13:48Z</time>
      </trkpt>
      <trkpt lat="42.62181" lon="0.92459">
        <ele>2113.12</ele>
        <time>2011-03-13T12:13:49Z</time>
      </trkpt>
      <trkpt lat="42.6218" lon="0.92446">
        <ele>2112.15</ele>
        <time>2011-03-13T12:13:59Z</time>
      </trkpt>
      <trkpt lat="42.6218" lon="0.92445">
        <ele>2111.67</ele>
        <time>2011-03-13T12:14:15Z</time>
      </trkpt>
      <trkpt lat="42.62182" lon="0.92445">
        <ele>2111.67</ele>
        <time>2011-03-13T12:14:26Z</time>
      </trkpt>
      <trkpt lat="42.62183" lon="0.92445">
        <ele>2111.19</ele>
        <time>2011-03-13T12:14:32Z</time>
      </trkpt>
      <trkpt lat="42.62184" lon="0.92445">
        <ele>2110.23</ele>
        <time>2011-03-13T12:14:36Z</time>
      </trkpt>
      <trkpt lat="42.62184" lon="0.92444">
        <ele>2111.67</ele>
        <time>2011-03-13T12:14:48Z</time>
      </trkpt>
      <trkpt lat="42.62185" lon="0.92444">
        <ele>2110.71</ele>
        <time>2011-03-13T12:15:01Z</time>
      </trkpt>
      <trkpt lat="42.62185" lon="0.92445">
        <ele>2110.23</ele>
        <time>2011-03-13T12:15:11Z</time>
      </trkpt>
      <trkpt lat="42.62187" lon="0.92446">
        <ele>2110.71</ele>
        <time>2011-03-13T12:15:18Z</time>
      </trkpt>
      <trkpt lat="42.62187" lon="0.92446">
        <ele>2110.71</ele>
        <time>2011-03-13T12:18:01Z</time>
      </trkpt>
      <trkpt lat="42.62185" lon="0.92446">
        <ele>2110.71</ele>
        <time>2011-03-13T12:18:47Z</time>
      </trkpt>
      <trkpt lat="42.62183" lon="0.92448">
        <ele>2112.15</ele>
        <time>2011-03-13T12:19:32Z</time>
      </trkpt>
      <trkpt lat="42.62183" lon="0.92447">
        <ele>2111.19</ele>
        <time>2011-03-13T12:19:47Z</time>
      </trkpt>
      <trkpt lat="42.62183" lon="0.92444">
        <ele>2111.19</ele>
        <time>2011-03-13T12:20:04Z</time>
      </trkpt>
      <trkpt lat="42.62186" lon="0.92444">
        <ele>2111.67</ele>
        <time>2011-03-13T12:20:13Z</time>
      </trkpt>
      <trkpt lat="42.62187" lon="0.92441">
        <ele>2111.67</ele>
        <time>2011-03-13T12:20:23Z</time>
      </trkpt>
      <trkpt lat="42.62187" lon="0.9244">
        <ele>2111.67</ele>
        <time>2011-03-13T12:21:06Z</time>
      </trkpt>
      <trkpt lat="42.62188" lon="0.92437">
        <ele>2111.67</ele>
        <time>2011-03-13T12:21:43Z</time>
      </trkpt>
      <trkpt lat="42.62186" lon="0.92434">
        <ele>2112.15</ele>
        <time>2011-03-13T12:21:46Z</time>
      </trkpt>
      <trkpt lat="42.62183" lon="0.92431">
        <ele>2113.12</ele>
        <time>2011-03-13T12:21:49Z</time>
      </trkpt>
      <trkpt lat="42.62178" lon="0.92428">
        <ele>2114.08</ele>
        <time>2011-03-13T12:21:55Z</time>
      </trkpt>
      <trkpt lat="42.62176" lon="0.92425">
        <ele>2114.56</ele>
        <time>2011-03-13T12:22:00Z</time>
      </trkpt>
      <trkpt lat="42.62172" lon="0.92415">
        <ele>2114.08</ele>
        <time>2011-03-13T12:22:09Z</time>
      </trkpt>
      <trkpt lat="42.62172" lon="0.92413">
        <ele>2114.08</ele>
        <time>2011-03-13T12:22:11Z</time>
      </trkpt>
      <trkpt lat="42.6217" lon="0.92408">
        <ele>2114.56</ele>
        <time>2011-03-13T12:22:15Z</time>
      </trkpt>
      <trkpt lat="42.62169" lon="0.92404">
        <ele>2115.52</ele>
        <time>2011-03-13T12:22:21Z</time>
      </trkpt>
      <trkpt lat="42.62167" lon="0.92398">
        <ele>2115.52</ele>
        <time>2011-03-13T12:22:27Z</time>
      </trkpt>
      <trkpt lat="42.62164" lon="0.92389">
        <ele>2115.52</ele>
        <time>2011-03-13T12:22:34Z</time>
      </trkpt>
      <trkpt lat="42.62161" lon="0.92381">
        <ele>2115.52</ele>
        <time>2011-03-13T12:22:39Z</time>
      </trkpt>
      <trkpt lat="42.62161" lon="0.9238">
        <ele>2115.52</ele>
        <time>2011-03-13T12:22:40Z</time>
      </trkpt>
      <trkpt lat="42.62159" lon="0.92377">
        <ele>2115.04</ele>
        <time>2011-03-13T12:22:43Z</time>
      </trkpt>
      <trkpt lat="42.62157" lon="0.92369">
        <ele>2115.52</ele>
        <time>2011-03-13T12:22:49Z</time>
      </trkpt>
      <trkpt lat="42.62148" lon="0.92352">
        <ele>2114.56</ele>
        <time>2011-03-13T12:23:00Z</time>
      </trkpt>
      <trkpt lat="42.62145" lon="0.92341">
        <ele>2114.08</ele>
        <time>2011-03-13T12:23:06Z</time>
      </trkpt>
      <trkpt lat="42.62145" lon="0.92337">
        <ele>2114.08</ele>
        <time>2011-03-13T12:23:09Z</time>
      </trkpt>
      <trkpt lat="42.62144" lon="0.92327">
        <ele>2113.6</ele>
        <time>2011-03-13T12:23:14Z</time>
      </trkpt>
      <trkpt lat="42.62145" lon="0.9231">
        <ele>2114.08</ele>
        <time>2011-03-13T12:23:24Z</time>
      </trkpt>
      <trkpt lat="42.62145" lon="0.92293">
        <ele>2114.56</ele>
        <time>2011-03-13T12:23:35Z</time>
      </trkpt>
      <trkpt lat="42.62146" lon="0.92291">
        <ele>2114.56</ele>
        <time>2011-03-13T12:23:37Z</time>
      </trkpt>
      <trkpt lat="42.62146" lon="0.92284">
        <ele>2113.6</ele>
        <time>2011-03-13T12:23:41Z</time>
      </trkpt>
      <trkpt lat="42.62145" lon="0.92275">
        <ele>2112.63</ele>
        <time>2011-03-13T12:23:45Z</time>
      </trkpt>
      <trkpt lat="42.62145" lon="0.92271">
        <ele>2113.6</ele>
        <time>2011-03-13T12:23:48Z</time>
      </trkpt>
      <trkpt lat="42.62145" lon="0.92254">
        <ele>2113.12</ele>
        <time>2011-03-13T12:23:59Z</time>
      </trkpt>
      <trkpt lat="42.6215" lon="0.92245">
        <ele>2113.6</ele>
        <time>2011-03-13T12:24:06Z</time>
      </trkpt>
      <trkpt lat="42.62151" lon="0.92242">
        <ele>2114.56</ele>
        <time>2011-03-13T12:24:10Z</time>
      </trkpt>
      <trkpt lat="42.62154" lon="0.92239">
        <ele>2114.56</ele>
        <time>2011-03-13T12:24:14Z</time>
      </trkpt>
      <trkpt lat="42.62157" lon="0.92229">
        <ele>2115.04</ele>
        <time>2011-03-13T12:24:21Z</time>
      </trkpt>
      <trkpt lat="42.62159" lon="0.92218">
        <ele>2114.56</ele>
        <time>2011-03-13T12:24:29Z</time>
      </trkpt>
      <trkpt lat="42.62161" lon="0.92213">
        <ele>2115.04</ele>
        <time>2011-03-13T12:24:32Z</time>
      </trkpt>
      <trkpt lat="42.62163" lon="0.92208">
        <ele>2114.56</ele>
        <time>2011-03-13T12:24:36Z</time>
      </trkpt>
      <trkpt lat="42.62167" lon="0.922">
        <ele>2114.56</ele>
        <time>2011-03-13T12:24:43Z</time>
      </trkpt>
      <trkpt lat="42.62171" lon="0.92188">
        <ele>2115.04</ele>
        <time>2011-03-13T12:24:53Z</time>
      </trkpt>
      <trkpt lat="42.62174" lon="0.92181">
        <ele>2115.52</ele>
        <time>2011-03-13T12:24:58Z</time>
      </trkpt>
      <trkpt lat="42.6218" lon="0.92173">
        <ele>2115.52</ele>
        <time>2011-03-13T12:25:05Z</time>
      </trkpt>
      <trkpt lat="42.62184" lon="0.92164">
        <ele>2115.04</ele>
        <time>2011-03-13T12:25:11Z</time>
      </trkpt>
      <trkpt lat="42.62188" lon="0.92153">
        <ele>2115.52</ele>
        <time>2011-03-13T12:25:20Z</time>
      </trkpt>
      <trkpt lat="42.62191" lon="0.92146">
        <ele>2116</ele>
        <time>2011-03-13T12:25:26Z</time>
      </trkpt>
      <trkpt lat="42.62193" lon="0.92141">
        <ele>2115.04</ele>
        <time>2011-03-13T12:25:29Z</time>
      </trkpt>
      <trkpt lat="42.62196" lon="0.92136">
        <ele>2115.04</ele>
        <time>2011-03-13T12:25:33Z</time>
      </trkpt>
      <trkpt lat="42.622" lon="0.9213">
        <ele>2115.52</ele>
        <time>2011-03-13T12:25:38Z</time>
      </trkpt>
      <trkpt lat="42.62207" lon="0.92115">
        <ele>2114.56</ele>
        <time>2011-03-13T12:25:49Z</time>
      </trkpt>
      <trkpt lat="42.6221" lon="0.92108">
        <ele>2116.48</ele>
        <time>2011-03-13T12:25:55Z</time>
      </trkpt>
      <trkpt lat="42.62212" lon="0.92106">
        <ele>2116</ele>
        <time>2011-03-13T12:25:57Z</time>
      </trkpt>
      <trkpt lat="42.62216" lon="0.92097">
        <ele>2116</ele>
        <time>2011-03-13T12:26:04Z</time>
      </trkpt>
      <trkpt lat="42.6222" lon="0.92085">
        <ele>2118.4</ele>
        <time>2011-03-13T12:26:14Z</time>
      </trkpt>
      <trkpt lat="42.62222" lon="0.92081">
        <ele>2118.4</ele>
        <time>2011-03-13T12:26:18Z</time>
      </trkpt>
      <trkpt lat="42.62226" lon="0.92077">
        <ele>2119.36</ele>
        <time>2011-03-13T12:26:23Z</time>
      </trkpt>
      <trkpt lat="42.62236" lon="0.92065">
        <ele>2117.92</ele>
        <time>2011-03-13T12:26:33Z</time>
      </trkpt>
      <trkpt lat="42.62241" lon="0.92057">
        <ele>2117.44</ele>
        <time>2011-03-13T12:26:39Z</time>
      </trkpt>
      <trkpt lat="42.6225" lon="0.92047">
        <ele>2117.44</ele>
        <time>2011-03-13T12:26:50Z</time>
      </trkpt>
      <trkpt lat="42.62265" lon="0.92038">
        <ele>2115.52</ele>
        <time>2011-03-13T12:27:00Z</time>
      </trkpt>
      <trkpt lat="42.62279" lon="0.92032">
        <ele>2114.56</ele>
        <time>2011-03-13T12:27:11Z</time>
      </trkpt>
      <trkpt lat="42.62298" lon="0.92029">
        <ele>2112.63</ele>
        <time>2011-03-13T12:27:24Z</time>
      </trkpt>
      <trkpt lat="42.62308" lon="0.92026">
        <ele>2112.63</ele>
        <time>2011-03-13T12:27:32Z</time>
      </trkpt>
      <trkpt lat="42.62324" lon="0.92031">
        <ele>2111.67</ele>
        <time>2011-03-13T12:27:44Z</time>
      </trkpt>
      <trkpt lat="42.62332" lon="0.92036">
        <ele>2112.15</ele>
        <time>2011-03-13T12:27:55Z</time>
      </trkpt>
      <trkpt lat="42.6234" lon="0.92039">
        <ele>2112.15</ele>
        <time>2011-03-13T12:28:04Z</time>
      </trkpt>
      <trkpt lat="42.62353" lon="0.92047">
        <ele>2113.12</ele>
        <time>2011-03-13T12:28:17Z</time>
      </trkpt>
      <trkpt lat="42.62353" lon="0.92049">
        <ele>2113.12</ele>
        <time>2011-03-13T12:28:19Z</time>
      </trkpt>
      <trkpt lat="42.62357" lon="0.92053">
        <ele>2114.56</ele>
        <time>2011-03-13T12:28:24Z</time>
      </trkpt>
      <trkpt lat="42.62365" lon="0.9206">
        <ele>2114.56</ele>
        <time>2011-03-13T12:28:35Z</time>
      </trkpt>
      <trkpt lat="42.6237" lon="0.92065">
        <ele>2114.56</ele>
        <time>2011-03-13T12:28:43Z</time>
      </trkpt>
      <trkpt lat="42.62377" lon="0.92075">
        <ele>2116.96</ele>
        <time>2011-03-13T12:28:55Z</time>
      </trkpt>
      <trkpt lat="42.62379" lon="0.92082">
        <ele>2118.4</ele>
        <time>2011-03-13T12:29:02Z</time>
      </trkpt>
      <trkpt lat="42.62384" lon="0.92092">
        <ele>2120.81</ele>
        <time>2011-03-13T12:29:14Z</time>
      </trkpt>
      <trkpt lat="42.62387" lon="0.92093">
        <ele>2122.25</ele>
        <time>2011-03-13T12:29:19Z</time>
      </trkpt>
      <trkpt lat="42.62393" lon="0.92088">
        <ele>2123.69</ele>
        <time>2011-03-13T12:29:30Z</time>
      </trkpt>
      <trkpt lat="42.62395" lon="0.92083">
        <ele>2124.65</ele>
        <time>2011-03-13T12:29:48Z</time>
      </trkpt>
      <trkpt lat="42.62397" lon="0.92074">
        <ele>2126.57</ele>
        <time>2011-03-13T12:29:58Z</time>
      </trkpt>
      <trkpt lat="42.62401" lon="0.92066">
        <ele>2127.53</ele>
        <time>2011-03-13T12:30:06Z</time>
      </trkpt>
      <trkpt lat="42.62401" lon="0.92062">
        <ele>2128.5</ele>
        <time>2011-03-13T12:30:09Z</time>
      </trkpt>
      <trkpt lat="42.62403" lon="0.9206">
        <ele>2128.98</ele>
        <time>2011-03-13T12:30:11Z</time>
      </trkpt>
      <trkpt lat="42.62405" lon="0.92051">
        <ele>2129.94</ele>
        <time>2011-03-13T12:30:18Z</time>
      </trkpt>
      <trkpt lat="42.62409" lon="0.92045">
        <ele>2130.9</ele>
        <time>2011-03-13T12:30:24Z</time>
      </trkpt>
      <trkpt lat="42.62411" lon="0.92044">
        <ele>2131.86</ele>
        <time>2011-03-13T12:30:29Z</time>
      </trkpt>
      <trkpt lat="42.62414" lon="0.92045">
        <ele>2133.3</ele>
        <time>2011-03-13T12:30:32Z</time>
      </trkpt>
      <trkpt lat="42.62415" lon="0.92046">
        <ele>2133.3</ele>
        <time>2011-03-13T12:30:33Z</time>
      </trkpt>
      <trkpt lat="42.62422" lon="0.92055">
        <ele>2135.23</ele>
        <time>2011-03-13T12:30:46Z</time>
      </trkpt>
      <trkpt lat="42.62422" lon="0.92055">
        <ele>2133.78</ele>
        <time>2011-03-13T12:30:50Z</time>
      </trkpt>
      <trkpt lat="42.62421" lon="0.92055">
        <ele>2133.78</ele>
        <time>2011-03-13T12:31:12Z</time>
      </trkpt>
      <trkpt lat="42.6242" lon="0.92055">
        <ele>2133.78</ele>
        <time>2011-03-13T12:31:28Z</time>
      </trkpt>
      <trkpt lat="42.62422" lon="0.9206">
        <ele>2133.78</ele>
        <time>2011-03-13T12:36:48Z</time>
      </trkpt>
      <trkpt lat="42.62421" lon="0.92059">
        <ele>2135.23</ele>
        <time>2011-03-13T12:36:58Z</time>
      </trkpt>
      <trkpt lat="42.62421" lon="0.92057">
        <ele>2134.74</ele>
        <time>2011-03-13T12:37:20Z</time>
      </trkpt>
      <trkpt lat="42.62421" lon="0.92056">
        <ele>2135.71</ele>
        <time>2011-03-13T12:37:21Z</time>
      </trkpt>
      <trkpt lat="42.62421" lon="0.92055">
        <ele>2133.78</ele>
        <time>2011-03-13T12:37:32Z</time>
      </trkpt>
      <trkpt lat="42.62421" lon="0.92055">
        <ele>2135.23</ele>
        <time>2011-03-13T12:37:35Z</time>
      </trkpt>
      <trkpt lat="42.6242" lon="0.92055">
        <ele>2135.23</ele>
        <time>2011-03-13T12:37:50Z</time>
      </trkpt>
      <trkpt lat="42.62419" lon="0.92054">
        <ele>2135.23</ele>
        <time>2011-03-13T12:37:51Z</time>
      </trkpt>
      <trkpt lat="42.62419" lon="0.92052">
        <ele>2135.23</ele>
        <time>2011-03-13T12:37:53Z</time>
      </trkpt>
      <trkpt lat="42.62426" lon="0.92047">
        <ele>2136.67</ele>
        <time>2011-03-13T12:38:01Z</time>
      </trkpt>
      <trkpt lat="42.62428" lon="0.92044">
        <ele>2136.67</ele>
        <time>2011-03-13T12:38:04Z</time>
      </trkpt>
      <trkpt lat="42.62429" lon="0.9204">
        <ele>2138.11</ele>
        <time>2011-03-13T12:38:08Z</time>
      </trkpt>
      <trkpt lat="42.62428" lon="0.92035">
        <ele>2139.55</ele>
        <time>2011-03-13T12:38:12Z</time>
      </trkpt>
      <trkpt lat="42.62428" lon="0.92032">
        <ele>2139.07</ele>
        <time>2011-03-13T12:38:14Z</time>
      </trkpt>
      <trkpt lat="42.62435" lon="0.92024">
        <ele>2140.51</ele>
        <time>2011-03-13T12:38:24Z</time>
      </trkpt>
      <trkpt lat="42.62443" lon="0.92015">
        <ele>2141.95</ele>
        <time>2011-03-13T12:38:38Z</time>
      </trkpt>
      <trkpt lat="42.62446" lon="0.92007">
        <ele>2142.92</ele>
        <time>2011-03-13T12:38:48Z</time>
      </trkpt>
      <trkpt lat="42.62446" lon="0.91988">
        <ele>2142.92</ele>
        <time>2011-03-13T12:39:00Z</time>
      </trkpt>
      <trkpt lat="42.62448" lon="0.91971">
        <ele>2143.4</ele>
        <time>2011-03-13T12:39:11Z</time>
      </trkpt>
      <trkpt lat="42.62457" lon="0.91961">
        <ele>2144.36</ele>
        <time>2011-03-13T12:39:22Z</time>
      </trkpt>
      <trkpt lat="42.62469" lon="0.9195">
        <ele>2143.4</ele>
        <time>2011-03-13T12:39:34Z</time>
      </trkpt>
      <trkpt lat="42.62484" lon="0.91942">
        <ele>2142.92</ele>
        <time>2011-03-13T12:39:46Z</time>
      </trkpt>
      <trkpt lat="42.62486" lon="0.91941">
        <ele>2143.88</ele>
        <time>2011-03-13T12:39:52Z</time>
      </trkpt>
      <trkpt lat="42.62486" lon="0.91941">
        <ele>2143.88</ele>
        <time>2011-03-13T12:40:01Z</time>
      </trkpt>
      <trkpt lat="42.62489" lon="0.91939">
        <ele>2143.4</ele>
        <time>2011-03-13T12:40:04Z</time>
      </trkpt>
      <trkpt lat="42.62494" lon="0.91938">
        <ele>2142.92</ele>
        <time>2011-03-13T12:40:18Z</time>
      </trkpt>
      <trkpt lat="42.625" lon="0.91936">
        <ele>2143.4</ele>
        <time>2011-03-13T12:40:29Z</time>
      </trkpt>
      <trkpt lat="42.62513" lon="0.91937">
        <ele>2140.51</ele>
        <time>2011-03-13T12:40:35Z</time>
      </trkpt>
      <trkpt lat="42.62516" lon="0.91938">
        <ele>2140.99</ele>
        <time>2011-03-13T12:40:48Z</time>
      </trkpt>
      <trkpt lat="42.62517" lon="0.91939">
        <ele>2140.99</ele>
        <time>2011-03-13T12:41:11Z</time>
      </trkpt>
      <trkpt lat="42.62518" lon="0.91939">
        <ele>2140.51</ele>
        <time>2011-03-13T12:41:12Z</time>
      </trkpt>
      <trkpt lat="42.62522" lon="0.91943">
        <ele>2140.03</ele>
        <time>2011-03-13T12:41:18Z</time>
      </trkpt>
      <trkpt lat="42.62536" lon="0.91951">
        <ele>2138.11</ele>
        <time>2011-03-13T12:41:26Z</time>
      </trkpt>
      <trkpt lat="42.62543" lon="0.91956">
        <ele>2137.15</ele>
        <time>2011-03-13T12:41:37Z</time>
      </trkpt>
      <trkpt lat="42.62543" lon="0.91956">
        <ele>2137.63</ele>
        <time>2011-03-13T12:42:03Z</time>
      </trkpt>
      <trkpt lat="42.62546" lon="0.91961">
        <ele>2136.19</ele>
        <time>2011-03-13T12:42:12Z</time>
      </trkpt>
      <trkpt lat="42.62562" lon="0.91973">
        <ele>2132.34</ele>
        <time>2011-03-13T12:42:18Z</time>
      </trkpt>
      <trkpt lat="42.62582" lon="0.91984">
        <ele>2130.42</ele>
        <time>2011-03-13T12:42:31Z</time>
      </trkpt>
      <trkpt lat="42.62588" lon="0.91991">
        <ele>2129.94</ele>
        <time>2011-03-13T12:42:37Z</time>
      </trkpt>
      <trkpt lat="42.62592" lon="0.91997">
        <ele>2129.94</ele>
        <time>2011-03-13T12:42:53Z</time>
      </trkpt>
      <trkpt lat="42.62595" lon="0.92">
        <ele>2129.46</ele>
        <time>2011-03-13T12:43:23Z</time>
      </trkpt>
      <trkpt lat="42.62595" lon="0.92">
        <ele>2129.46</ele>
        <time>2011-03-13T12:43:34Z</time>
      </trkpt>
      <trkpt lat="42.62602" lon="0.9201">
        <ele>2127.05</ele>
        <time>2011-03-13T12:43:41Z</time>
      </trkpt>
      <trkpt lat="42.62617" lon="0.92024">
        <ele>2123.69</ele>
        <time>2011-03-13T12:43:45Z</time>
      </trkpt>
      <trkpt lat="42.62619" lon="0.92027">
        <ele>2123.21</ele>
        <time>2011-03-13T12:43:46Z</time>
      </trkpt>
      <trkpt lat="42.62623" lon="0.92033">
        <ele>2123.21</ele>
        <time>2011-03-13T12:43:51Z</time>
      </trkpt>
      <trkpt lat="42.6263" lon="0.92036">
        <ele>2125.13</ele>
        <time>2011-03-13T12:44:02Z</time>
      </trkpt>
      <trkpt lat="42.6263" lon="0.92036">
        <ele>2124.65</ele>
        <time>2011-03-13T12:44:08Z</time>
      </trkpt>
      <trkpt lat="42.62634" lon="0.9204">
        <ele>2125.13</ele>
        <time>2011-03-13T12:44:24Z</time>
      </trkpt>
      <trkpt lat="42.6264" lon="0.92049">
        <ele>2124.17</ele>
        <time>2011-03-13T12:45:24Z</time>
      </trkpt>
      <trkpt lat="42.62649" lon="0.92066">
        <ele>2123.21</ele>
        <time>2011-03-13T12:45:33Z</time>
      </trkpt>
      <trkpt lat="42.62653" lon="0.92072">
        <ele>2124.17</ele>
        <time>2011-03-13T12:45:38Z</time>
      </trkpt>
      <trkpt lat="42.62659" lon="0.92084">
        <ele>2124.65</ele>
        <time>2011-03-13T12:45:47Z</time>
      </trkpt>
      <trkpt lat="42.62661" lon="0.92091">
        <ele>2124.17</ele>
        <time>2011-03-13T12:45:51Z</time>
      </trkpt>
      <trkpt lat="42.62664" lon="0.92099">
        <ele>2123.69</ele>
        <time>2011-03-13T12:45:56Z</time>
      </trkpt>
      <trkpt lat="42.62666" lon="0.9211">
        <ele>2124.65</ele>
        <time>2011-03-13T12:46:08Z</time>
      </trkpt>
      <trkpt lat="42.62667" lon="0.9211">
        <ele>2124.65</ele>
        <time>2011-03-13T12:46:26Z</time>
      </trkpt>
      <trkpt lat="42.62668" lon="0.92112">
        <ele>2124.17</ele>
        <time>2011-03-13T12:46:28Z</time>
      </trkpt>
      <trkpt lat="42.6267" lon="0.92123">
        <ele>2124.65</ele>
        <time>2011-03-13T12:46:35Z</time>
      </trkpt>
      <trkpt lat="42.6267" lon="0.92133">
        <ele>2126.57</ele>
        <time>2011-03-13T12:46:44Z</time>
      </trkpt>
      <trkpt lat="42.62676" lon="0.92143">
        <ele>2128.5</ele>
        <time>2011-03-13T12:46:55Z</time>
      </trkpt>
      <trkpt lat="42.62672" lon="0.92152">
        <ele>2130.42</ele>
        <time>2011-03-13T12:47:01Z</time>
      </trkpt>
      <trkpt lat="42.6267" lon="0.92155">
        <ele>2131.38</ele>
        <time>2011-03-13T12:47:04Z</time>
      </trkpt>
      <trkpt lat="42.62666" lon="0.92165">
        <ele>2133.78</ele>
        <time>2011-03-13T12:47:15Z</time>
      </trkpt>
      <trkpt lat="42.62658" lon="0.92173">
        <ele>2131.38</ele>
        <time>2011-03-13T12:47:24Z</time>
      </trkpt>
      <trkpt lat="42.62658" lon="0.92172">
        <ele>2130.42</ele>
        <time>2011-03-13T12:47:26Z</time>
      </trkpt>
      <trkpt lat="42.62658" lon="0.92172">
        <ele>2130.42</ele>
        <time>2011-03-13T12:47:27Z</time>
      </trkpt>
      <trkpt lat="42.62657" lon="0.92171">
        <ele>2128.98</ele>
        <time>2011-03-13T12:47:31Z</time>
      </trkpt>
      <trkpt lat="42.62657" lon="0.92171">
        <ele>2129.94</ele>
        <time>2011-03-13T12:47:41Z</time>
      </trkpt>
      <trkpt lat="42.62656" lon="0.92175">
        <ele>2128.98</ele>
        <time>2011-03-13T12:47:51Z</time>
      </trkpt>
      <trkpt lat="42.62656" lon="0.92176">
        <ele>2128.02</ele>
        <time>2011-03-13T12:48:02Z</time>
      </trkpt>
      <trkpt lat="42.62656" lon="0.92176">
        <ele>2128.02</ele>
        <time>2011-03-13T12:48:09Z</time>
      </trkpt>
      <trkpt lat="42.62657" lon="0.92175">
        <ele>2127.05</ele>
        <time>2011-03-13T12:48:13Z</time>
      </trkpt>
      <trkpt lat="42.62657" lon="0.92175">
        <ele>2127.05</ele>
        <time>2011-03-13T12:48:21Z</time>
      </trkpt>
      <trkpt lat="42.62655" lon="0.92176">
        <ele>2129.94</ele>
        <time>2011-03-13T12:54:27Z</time>
      </trkpt>
      <trkpt lat="42.62656" lon="0.92176">
        <ele>2127.53</ele>
        <time>2011-03-13T12:54:35Z</time>
      </trkpt>
      <trkpt lat="42.62654" lon="0.92173">
        <ele>2127.05</ele>
        <time>2011-03-13T12:59:49Z</time>
      </trkpt>
      <trkpt lat="42.62651" lon="0.92172">
        <ele>2127.53</ele>
        <time>2011-03-13T13:07:43Z</time>
      </trkpt>
      <trkpt lat="42.62651" lon="0.92172">
        <ele>2126.57</ele>
        <time>2011-03-13T13:07:45Z</time>
      </trkpt>
      <trkpt lat="42.62652" lon="0.92172">
        <ele>2116.96</ele>
        <time>2011-03-13T13:09:51Z</time>
      </trkpt>
      <trkpt lat="42.62652" lon="0.92172">
        <ele>2118.88</ele>
        <time>2011-03-13T13:09:52Z</time>
      </trkpt>
      <trkpt lat="42.62652" lon="0.92172">
        <ele>2124.65</ele>
        <time>2011-03-13T13:09:53Z</time>
      </trkpt>
      <trkpt lat="42.62652" lon="0.92172">
        <ele>2126.57</ele>
        <time>2011-03-13T13:09:55Z</time>
      </trkpt>
      <trkpt lat="42.62653" lon="0.92172">
        <ele>2126.57</ele>
        <time>2011-03-13T13:10:54Z</time>
      </trkpt>
      <trkpt lat="42.62655" lon="0.92173">
        <ele>2127.53</ele>
        <time>2011-03-13T13:11:29Z</time>
      </trkpt>
      <trkpt lat="42.62655" lon="0.92173">
        <ele>2129.46</ele>
        <time>2011-03-13T13:11:36Z</time>
      </trkpt>
      <trkpt lat="42.62655" lon="0.92174">
        <ele>2128.5</ele>
        <time>2011-03-13T13:11:46Z</time>
      </trkpt>
      <trkpt lat="42.62655" lon="0.92174">
        <ele>2128.5</ele>
        <time>2011-03-13T13:11:51Z</time>
      </trkpt>
      <trkpt lat="42.62656" lon="0.9218">
        <ele>2126.57</ele>
        <time>2011-03-13T13:11:57Z</time>
      </trkpt>
      <trkpt lat="42.62657" lon="0.92178">
        <ele>2127.53</ele>
        <time>2011-03-13T13:12:15Z</time>
      </trkpt>
      <trkpt lat="42.62659" lon="0.92174">
        <ele>2128.02</ele>
        <time>2011-03-13T13:12:29Z</time>
      </trkpt>
      <trkpt lat="42.62659" lon="0.92174">
        <ele>2128.02</ele>
        <time>2011-03-13T13:12:44Z</time>
      </trkpt>
      <trkpt lat="42.62659" lon="0.92174">
        <ele>2128.5</ele>
        <time>2011-03-13T13:12:51Z</time>
      </trkpt>
      <trkpt lat="42.62667" lon="0.92168">
        <ele>2130.9</ele>
        <time>2011-03-13T13:13:04Z</time>
      </trkpt>
      <trkpt lat="42.62671" lon="0.92173">
        <ele>2130.9</ele>
        <time>2011-03-13T13:13:12Z</time>
      </trkpt>
      <trkpt lat="42.62677" lon="0.92185">
        <ele>2129.94</ele>
        <time>2011-03-13T13:13:26Z</time>
      </trkpt>
      <trkpt lat="42.62674" lon="0.92189">
        <ele>2128.5</ele>
        <time>2011-03-13T13:13:36Z</time>
      </trkpt>
      <trkpt lat="42.62669" lon="0.92191">
        <ele>2127.05</ele>
        <time>2011-03-13T13:13:42Z</time>
      </trkpt>
      <trkpt lat="42.62666" lon="0.92196">
        <ele>2125.13</ele>
        <time>2011-03-13T13:13:53Z</time>
      </trkpt>
      <trkpt lat="42.62664" lon="0.92196">
        <ele>2124.65</ele>
        <time>2011-03-13T13:13:57Z</time>
      </trkpt>
      <trkpt lat="42.62659" lon="0.92196">
        <ele>2121.29</ele>
        <time>2011-03-13T13:14:06Z</time>
      </trkpt>
      <trkpt lat="42.62658" lon="0.92196">
        <ele>2121.29</ele>
        <time>2011-03-13T13:14:07Z</time>
      </trkpt>
      <trkpt lat="42.62658" lon="0.92195">
        <ele>2121.77</ele>
        <time>2011-03-13T13:14:11Z</time>
      </trkpt>
      <trkpt lat="42.62654" lon="0.92192">
        <ele>2120.32</ele>
        <time>2011-03-13T13:14:21Z</time>
      </trkpt>
      <trkpt lat="42.62654" lon="0.92192">
        <ele>2120.32</ele>
        <time>2011-03-13T13:14:30Z</time>
      </trkpt>
      <trkpt lat="42.62654" lon="0.92192">
        <ele>2119.84</ele>
        <time>2011-03-13T13:15:00Z</time>
      </trkpt>
      <trkpt lat="42.62653" lon="0.92192">
        <ele>2119.36</ele>
        <time>2011-03-13T13:15:15Z</time>
      </trkpt>
      <trkpt lat="42.62655" lon="0.92192">
        <ele>2120.32</ele>
        <time>2011-03-13T13:15:46Z</time>
      </trkpt>
      <trkpt lat="42.62655" lon="0.92192">
        <ele>2121.29</ele>
        <time>2011-03-13T13:16:01Z</time>
      </trkpt>
      <trkpt lat="42.62655" lon="0.92192">
        <ele>2120.32</ele>
        <time>2011-03-13T13:16:19Z</time>
      </trkpt>
      <trkpt lat="42.62656" lon="0.92192">
        <ele>2119.36</ele>
        <time>2011-03-13T13:17:02Z</time>
      </trkpt>
      <trkpt lat="42.62656" lon="0.92192">
        <ele>2119.84</ele>
        <time>2011-03-13T13:17:28Z</time>
      </trkpt>
      <trkpt lat="42.62656" lon="0.92192">
        <ele>2119.84</ele>
        <time>2011-03-13T13:18:01Z</time>
      </trkpt>
      <trkpt lat="42.62656" lon="0.92192">
        <ele>2120.81</ele>
        <time>2011-03-13T13:18:07Z</time>
      </trkpt>
      <trkpt lat="42.6265" lon="0.9221">
        <ele>2116.96</ele>
        <time>2011-03-13T13:18:12Z</time>
      </trkpt>
      <trkpt lat="42.62648" lon="0.92213">
        <ele>2116.48</ele>
        <time>2011-03-13T13:18:13Z</time>
      </trkpt>
      <trkpt lat="42.62644" lon="0.92237">
        <ele>2110.23</ele>
        <time>2011-03-13T13:18:17Z</time>
      </trkpt>
      <trkpt lat="42.62642" lon="0.9224">
        <ele>2108.31</ele>
        <time>2011-03-13T13:18:23Z</time>
      </trkpt>
      <trkpt lat="42.62647" lon="0.92272">
        <ele>2105.42</ele>
        <time>2011-03-13T13:18:30Z</time>
      </trkpt>
      <trkpt lat="42.62647" lon="0.92277">
        <ele>2105.42</ele>
        <time>2011-03-13T13:18:31Z</time>
      </trkpt>
      <trkpt lat="42.62646" lon="0.9228">
        <ele>2103.98</ele>
        <time>2011-03-13T13:18:34Z</time>
      </trkpt>
      <trkpt lat="42.62647" lon="0.9228">
        <ele>2103.98</ele>
        <time>2011-03-13T13:19:02Z</time>
      </trkpt>
      <trkpt lat="42.6265" lon="0.92281">
        <ele>2103.98</ele>
        <time>2011-03-13T13:19:09Z</time>
      </trkpt>
      <trkpt lat="42.62654" lon="0.92297">
        <ele>2100.14</ele>
        <time>2011-03-13T13:19:13Z</time>
      </trkpt>
      <trkpt lat="42.6267" lon="0.92307">
        <ele>2098.21</ele>
        <time>2011-03-13T13:19:16Z</time>
      </trkpt>
      <trkpt lat="42.62679" lon="0.92312">
        <ele>2095.33</ele>
        <time>2011-03-13T13:19:34Z</time>
      </trkpt>
      <trkpt lat="42.62679" lon="0.92312">
        <ele>2095.33</ele>
        <time>2011-03-13T13:19:49Z</time>
      </trkpt>
      <trkpt lat="42.62699" lon="0.92327">
        <ele>2092.93</ele>
        <time>2011-03-13T13:19:58Z</time>
      </trkpt>
      <trkpt lat="42.62702" lon="0.92327">
        <ele>2090.52</ele>
        <time>2011-03-13T13:19:59Z</time>
      </trkpt>
      <trkpt lat="42.62708" lon="0.92325">
        <ele>2089.08</ele>
        <time>2011-03-13T13:20:03Z</time>
      </trkpt>
      <trkpt lat="42.6271" lon="0.92325">
        <ele>2088.12</ele>
        <time>2011-03-13T13:20:08Z</time>
      </trkpt>
      <trkpt lat="42.62713" lon="0.9232">
        <ele>2087.64</ele>
        <time>2011-03-13T13:20:15Z</time>
      </trkpt>
      <trkpt lat="42.62714" lon="0.9233">
        <ele>2084.76</ele>
        <time>2011-03-13T13:20:19Z</time>
      </trkpt>
      <trkpt lat="42.62715" lon="0.92347">
        <ele>2082.35</ele>
        <time>2011-03-13T13:20:25Z</time>
      </trkpt>
      <trkpt lat="42.62717" lon="0.92353">
        <ele>2079.47</ele>
        <time>2011-03-13T13:20:28Z</time>
      </trkpt>
      <trkpt lat="42.62718" lon="0.92353">
        <ele>2078.51</ele>
        <time>2011-03-13T13:20:31Z</time>
      </trkpt>
      <trkpt lat="42.62731" lon="0.92354">
        <ele>2074.66</ele>
        <time>2011-03-13T13:20:39Z</time>
      </trkpt>
      <trkpt lat="42.62738" lon="0.92357">
        <ele>2071.78</ele>
        <time>2011-03-13T13:20:41Z</time>
      </trkpt>
      <trkpt lat="42.62748" lon="0.92377">
        <ele>2067.93</ele>
        <time>2011-03-13T13:20:45Z</time>
      </trkpt>
      <trkpt lat="42.62749" lon="0.92386">
        <ele>2068.41</ele>
        <time>2011-03-13T13:20:46Z</time>
      </trkpt>
      <trkpt lat="42.62753" lon="0.92401">
        <ele>2064.09</ele>
        <time>2011-03-13T13:20:49Z</time>
      </trkpt>
      <trkpt lat="42.62756" lon="0.92402">
        <ele>2064.09</ele>
        <time>2011-03-13T13:20:50Z</time>
      </trkpt>
      <trkpt lat="42.62758" lon="0.92403">
        <ele>2063.61</ele>
        <time>2011-03-13T13:20:51Z</time>
      </trkpt>
      <trkpt lat="42.62773" lon="0.924">
        <ele>2062.17</ele>
        <time>2011-03-13T13:21:02Z</time>
      </trkpt>
      <trkpt lat="42.62773" lon="0.92399">
        <ele>2062.17</ele>
        <time>2011-03-13T13:21:23Z</time>
      </trkpt>
      <trkpt lat="42.62783" lon="0.92399">
        <ele>2061.2</ele>
        <time>2011-03-13T13:21:41Z</time>
      </trkpt>
      <trkpt lat="42.62797" lon="0.92401">
        <ele>2059.28</ele>
        <time>2011-03-13T13:21:44Z</time>
      </trkpt>
      <trkpt lat="42.62817" lon="0.92402">
        <ele>2057.36</ele>
        <time>2011-03-13T13:21:48Z</time>
      </trkpt>
      <trkpt lat="42.62835" lon="0.92402">
        <ele>2053.03</ele>
        <time>2011-03-13T13:21:52Z</time>
      </trkpt>
      <trkpt lat="42.62838" lon="0.92405">
        <ele>2051.11</ele>
        <time>2011-03-13T13:21:56Z</time>
      </trkpt>
      <trkpt lat="42.62838" lon="0.92405">
        <ele>2051.11</ele>
        <time>2011-03-13T13:22:07Z</time>
      </trkpt>
      <trkpt lat="42.62838" lon="0.9241">
        <ele>2051.59</ele>
        <time>2011-03-13T13:22:10Z</time>
      </trkpt>
      <trkpt lat="42.62857" lon="0.92434">
        <ele>2048.23</ele>
        <time>2011-03-13T13:22:19Z</time>
      </trkpt>
      <trkpt lat="42.62872" lon="0.92441">
        <ele>2045.82</ele>
        <time>2011-03-13T13:22:22Z</time>
      </trkpt>
      <trkpt lat="42.62899" lon="0.92471">
        <ele>2041.98</ele>
        <time>2011-03-13T13:22:31Z</time>
      </trkpt>
      <trkpt lat="42.62921" lon="0.92503">
        <ele>2040.54</ele>
        <time>2011-03-13T13:22:41Z</time>
      </trkpt>
      <trkpt lat="42.62936" lon="0.92524">
        <ele>2040.54</ele>
        <time>2011-03-13T13:22:51Z</time>
      </trkpt>
      <trkpt lat="42.62952" lon="0.92535">
        <ele>2038.61</ele>
        <time>2011-03-13T13:23:03Z</time>
      </trkpt>
      <trkpt lat="42.62955" lon="0.92532">
        <ele>2038.13</ele>
        <time>2011-03-13T13:23:07Z</time>
      </trkpt>
      <trkpt lat="42.62958" lon="0.92528">
        <ele>2038.61</ele>
        <time>2011-03-13T13:23:20Z</time>
      </trkpt>
      <trkpt lat="42.62958" lon="0.92527">
        <ele>2038.61</ele>
        <time>2011-03-13T13:23:36Z</time>
      </trkpt>
      <trkpt lat="42.62958" lon="0.92526">
        <ele>2038.13</ele>
        <time>2011-03-13T13:23:51Z</time>
      </trkpt>
      <trkpt lat="42.62959" lon="0.92526">
        <ele>2037.65</ele>
        <time>2011-03-13T13:24:21Z</time>
      </trkpt>
      <trkpt lat="42.62959" lon="0.92526">
        <ele>2037.17</ele>
        <time>2011-03-13T13:24:38Z</time>
      </trkpt>
      <trkpt lat="42.62962" lon="0.92524">
        <ele>2038.61</ele>
        <time>2011-03-13T13:25:09Z</time>
      </trkpt>
      <trkpt lat="42.62975" lon="0.92514">
        <ele>2038.13</ele>
        <time>2011-03-13T13:25:21Z</time>
      </trkpt>
      <trkpt lat="42.62991" lon="0.92498">
        <ele>2038.61</ele>
        <time>2011-03-13T13:25:33Z</time>
      </trkpt>
      <trkpt lat="42.62998" lon="0.92475">
        <ele>2038.13</ele>
        <time>2011-03-13T13:25:46Z</time>
      </trkpt>
      <trkpt lat="42.63008" lon="0.92454">
        <ele>2038.13</ele>
        <time>2011-03-13T13:25:58Z</time>
      </trkpt>
      <trkpt lat="42.63019" lon="0.92431">
        <ele>2037.65</ele>
        <time>2011-03-13T13:26:11Z</time>
      </trkpt>
      <trkpt lat="42.63031" lon="0.92409">
        <ele>2038.13</ele>
        <time>2011-03-13T13:26:25Z</time>
      </trkpt>
      <trkpt lat="42.63037" lon="0.92396">
        <ele>2038.13</ele>
        <time>2011-03-13T13:26:33Z</time>
      </trkpt>
      <trkpt lat="42.63041" lon="0.92386">
        <ele>2038.13</ele>
        <time>2011-03-13T13:26:39Z</time>
      </trkpt>
      <trkpt lat="42.63044" lon="0.92373">
        <ele>2038.61</ele>
        <time>2011-03-13T13:26:47Z</time>
      </trkpt>
      <trkpt lat="42.63044" lon="0.92372">
        <ele>2038.13</ele>
        <time>2011-03-13T13:26:48Z</time>
      </trkpt>
      <trkpt lat="42.63048" lon="0.92365">
        <ele>2038.13</ele>
        <time>2011-03-13T13:26:53Z</time>
      </trkpt>
      <trkpt lat="42.63051" lon="0.92357">
        <ele>2037.65</ele>
        <time>2011-03-13T13:27:04Z</time>
      </trkpt>
      <trkpt lat="42.63051" lon="0.92358">
        <ele>2037.17</ele>
        <time>2011-03-13T13:27:18Z</time>
      </trkpt>
      <trkpt lat="42.63051" lon="0.92358">
        <ele>2036.69</ele>
        <time>2011-03-13T13:27:24Z</time>
      </trkpt>
      <trkpt lat="42.63052" lon="0.92358">
        <ele>2037.17</ele>
        <time>2011-03-13T13:27:37Z</time>
      </trkpt>
      <trkpt lat="42.63052" lon="0.92358">
        <ele>2038.61</ele>
        <time>2011-03-13T13:27:47Z</time>
      </trkpt>
      <trkpt lat="42.63051" lon="0.92357">
        <ele>2036.69</ele>
        <time>2011-03-13T13:28:42Z</time>
      </trkpt>
      <trkpt lat="42.63051" lon="0.92335">
        <ele>2034.29</ele>
        <time>2011-03-13T13:28:49Z</time>
      </trkpt>
      <trkpt lat="42.63051" lon="0.92334">
        <ele>2034.29</ele>
        <time>2011-03-13T13:28:50Z</time>
      </trkpt>
      <trkpt lat="42.63062" lon="0.92313">
        <ele>2030.92</ele>
        <time>2011-03-13T13:28:55Z</time>
      </trkpt>
      <trkpt lat="42.63058" lon="0.92312">
        <ele>2029</ele>
        <time>2011-03-13T13:28:57Z</time>
      </trkpt>
      <trkpt lat="42.63049" lon="0.92288">
        <ele>2026.12</ele>
        <time>2011-03-13T13:29:03Z</time>
      </trkpt>
      <trkpt lat="42.6305" lon="0.92286">
        <ele>2026.12</ele>
        <time>2011-03-13T13:29:13Z</time>
      </trkpt>
      <trkpt lat="42.6305" lon="0.92286">
        <ele>2024.67</ele>
        <time>2011-03-13T13:29:21Z</time>
      </trkpt>
      <trkpt lat="42.63063" lon="0.92277">
        <ele>2020.83</ele>
        <time>2011-03-13T13:29:27Z</time>
      </trkpt>
      <trkpt lat="42.63064" lon="0.92264">
        <ele>2016.02</ele>
        <time>2011-03-13T13:29:30Z</time>
      </trkpt>
      <trkpt lat="42.63064" lon="0.92264">
        <ele>2016.5</ele>
        <time>2011-03-13T13:29:31Z</time>
      </trkpt>
      <trkpt lat="42.63065" lon="0.92262">
        <ele>2015.54</ele>
        <time>2011-03-13T13:29:33Z</time>
      </trkpt>
      <trkpt lat="42.63076" lon="0.92246">
        <ele>2011.7</ele>
        <time>2011-03-13T13:29:38Z</time>
      </trkpt>
      <trkpt lat="42.63078" lon="0.92241">
        <ele>2010.25</ele>
        <time>2011-03-13T13:29:45Z</time>
      </trkpt>
      <trkpt lat="42.63078" lon="0.9224">
        <ele>2010.73</ele>
        <time>2011-03-13T13:30:54Z</time>
      </trkpt>
      <trkpt lat="42.63088" lon="0.92236">
        <ele>2007.37</ele>
        <time>2011-03-13T13:30:58Z</time>
      </trkpt>
      <trkpt lat="42.63094" lon="0.92229">
        <ele>2004.01</ele>
        <time>2011-03-13T13:31:00Z</time>
      </trkpt>
      <trkpt lat="42.63095" lon="0.92224">
        <ele>2003.52</ele>
        <time>2011-03-13T13:31:01Z</time>
      </trkpt>
      <trkpt lat="42.63099" lon="0.9222">
        <ele>2001.12</ele>
        <time>2011-03-13T13:31:03Z</time>
      </trkpt>
      <trkpt lat="42.63112" lon="0.92214">
        <ele>1996.8</ele>
        <time>2011-03-13T13:31:09Z</time>
      </trkpt>
      <trkpt lat="42.63123" lon="0.92211">
        <ele>1996.32</ele>
        <time>2011-03-13T13:31:21Z</time>
      </trkpt>
      <trkpt lat="42.63128" lon="0.92212">
        <ele>1994.87</ele>
        <time>2011-03-13T13:31:23Z</time>
      </trkpt>
      <trkpt lat="42.63144" lon="0.92208">
        <ele>1991.51</ele>
        <time>2011-03-13T13:31:27Z</time>
      </trkpt>
      <trkpt lat="42.63148" lon="0.92206">
        <ele>1990.55</ele>
        <time>2011-03-13T13:31:31Z</time>
      </trkpt>
      <trkpt lat="42.63148" lon="0.92205">
        <ele>1989.59</ele>
        <time>2011-03-13T13:31:32Z</time>
      </trkpt>
      <trkpt lat="42.63154" lon="0.9219">
        <ele>1987.66</ele>
        <time>2011-03-13T13:31:36Z</time>
      </trkpt>
      <trkpt lat="42.63157" lon="0.92189">
        <ele>1986.22</ele>
        <time>2011-03-13T13:31:37Z</time>
      </trkpt>
      <trkpt lat="42.63158" lon="0.92179">
        <ele>1983.82</ele>
        <time>2011-03-13T13:31:42Z</time>
      </trkpt>
      <trkpt lat="42.63158" lon="0.92178">
        <ele>1983.34</ele>
        <time>2011-03-13T13:31:59Z</time>
      </trkpt>
      <trkpt lat="42.63166" lon="0.92168">
        <ele>1981.41</ele>
        <time>2011-03-13T13:32:06Z</time>
      </trkpt>
      <trkpt lat="42.63166" lon="0.92168">
        <ele>1980.93</ele>
        <time>2011-03-13T13:32:08Z</time>
      </trkpt>
      <trkpt lat="42.63172" lon="0.9216">
        <ele>1979.49</ele>
        <time>2011-03-13T13:32:13Z</time>
      </trkpt>
      <trkpt lat="42.63185" lon="0.9215">
        <ele>1978.05</ele>
        <time>2011-03-13T13:32:17Z</time>
      </trkpt>
      <trkpt lat="42.63197" lon="0.92146">
        <ele>1974.69</ele>
        <time>2011-03-13T13:32:21Z</time>
      </trkpt>
      <trkpt lat="42.63209" lon="0.92141">
        <ele>1972.76</ele>
        <time>2011-03-13T13:32:25Z</time>
      </trkpt>
      <trkpt lat="42.63231" lon="0.92143">
        <ele>1967.96</ele>
        <time>2011-03-13T13:32:29Z</time>
      </trkpt>
      <trkpt lat="42.63235" lon="0.92145">
        <ele>1967.96</ele>
        <time>2011-03-13T13:32:30Z</time>
      </trkpt>
      <trkpt lat="42.63248" lon="0.92149">
        <ele>1966.03</ele>
        <time>2011-03-13T13:32:33Z</time>
      </trkpt>
      <trkpt lat="42.63257" lon="0.9215">
        <ele>1966.51</ele>
        <time>2011-03-13T13:32:35Z</time>
      </trkpt>
      <trkpt lat="42.6328" lon="0.92127">
        <ele>1964.59</ele>
        <time>2011-03-13T13:32:45Z</time>
      </trkpt>
      <trkpt lat="42.6329" lon="0.921">
        <ele>1963.63</ele>
        <time>2011-03-13T13:33:00Z</time>
      </trkpt>
      <trkpt lat="42.63294" lon="0.92084">
        <ele>1962.67</ele>
        <time>2011-03-13T13:33:14Z</time>
      </trkpt>
      <trkpt lat="42.63309" lon="0.92066">
        <ele>1962.67</ele>
        <time>2011-03-13T13:33:29Z</time>
      </trkpt>
      <trkpt lat="42.63327" lon="0.9206">
        <ele>1962.19</ele>
        <time>2011-03-13T13:33:42Z</time>
      </trkpt>
      <trkpt lat="42.63343" lon="0.92046">
        <ele>1962.19</ele>
        <time>2011-03-13T13:33:53Z</time>
      </trkpt>
      <trkpt lat="42.63374" lon="0.92046">
        <ele>1958.82</ele>
        <time>2011-03-13T13:34:07Z</time>
      </trkpt>
      <trkpt lat="42.6339" lon="0.92046">
        <ele>1957.38</ele>
        <time>2011-03-13T13:34:11Z</time>
      </trkpt>
      <trkpt lat="42.63398" lon="0.92046">
        <ele>1956.9</ele>
        <time>2011-03-13T13:34:13Z</time>
      </trkpt>
      <trkpt lat="42.63412" lon="0.92048">
        <ele>1954.98</ele>
        <time>2011-03-13T13:34:16Z</time>
      </trkpt>
      <trkpt lat="42.63423" lon="0.9205">
        <ele>1954.98</ele>
        <time>2011-03-13T13:34:18Z</time>
      </trkpt>
      <trkpt lat="42.63447" lon="0.92075">
        <ele>1950.65</ele>
        <time>2011-03-13T13:34:24Z</time>
      </trkpt>
      <trkpt lat="42.63449" lon="0.92112">
        <ele>1948.25</ele>
        <time>2011-03-13T13:34:29Z</time>
      </trkpt>
      <trkpt lat="42.63462" lon="0.92144">
        <ele>1945.85</ele>
        <time>2011-03-13T13:34:34Z</time>
      </trkpt>
      <trkpt lat="42.63501" lon="0.9216">
        <ele>1942.48</ele>
        <time>2011-03-13T13:34:42Z</time>
      </trkpt>
      <trkpt lat="42.6354" lon="0.9216">
        <ele>1937.67</ele>
        <time>2011-03-13T13:34:49Z</time>
      </trkpt>
      <trkpt lat="42.63552" lon="0.92177">
        <ele>1934.31</ele>
        <time>2011-03-13T13:34:52Z</time>
      </trkpt>
      <trkpt lat="42.63562" lon="0.92187">
        <ele>1933.35</ele>
        <time>2011-03-13T13:34:54Z</time>
      </trkpt>
      <trkpt lat="42.63573" lon="0.92195">
        <ele>1931.43</ele>
        <time>2011-03-13T13:34:56Z</time>
      </trkpt>
      <trkpt lat="42.63588" lon="0.92205">
        <ele>1930.46</ele>
        <time>2011-03-13T13:34:59Z</time>
      </trkpt>
      <trkpt lat="42.63596" lon="0.92214">
        <ele>1928.06</ele>
        <time>2011-03-13T13:35:01Z</time>
      </trkpt>
      <trkpt lat="42.63626" lon="0.9224">
        <ele>1925.18</ele>
        <time>2011-03-13T13:35:07Z</time>
      </trkpt>
      <trkpt lat="42.6364" lon="0.92251">
        <ele>1923.74</ele>
        <time>2011-03-13T13:35:10Z</time>
      </trkpt>
      <trkpt lat="42.63654" lon="0.92267">
        <ele>1921.81</ele>
        <time>2011-03-13T13:35:14Z</time>
      </trkpt>
      <trkpt lat="42.63662" lon="0.92276">
        <ele>1920.85</ele>
        <time>2011-03-13T13:35:16Z</time>
      </trkpt>
      <trkpt lat="42.63669" lon="0.92286">
        <ele>1918.93</ele>
        <time>2011-03-13T13:35:18Z</time>
      </trkpt>
      <trkpt lat="42.63675" lon="0.92295">
        <ele>1917.97</ele>
        <time>2011-03-13T13:35:20Z</time>
      </trkpt>
      <trkpt lat="42.63677" lon="0.92307">
        <ele>1916.53</ele>
        <time>2011-03-13T13:35:23Z</time>
      </trkpt>
      <trkpt lat="42.63678" lon="0.92319">
        <ele>1916.53</ele>
        <time>2011-03-13T13:35:26Z</time>
      </trkpt>
      <trkpt lat="42.63674" lon="0.92363">
        <ele>1914.6</ele>
        <time>2011-03-13T13:35:39Z</time>
      </trkpt>
      <trkpt lat="42.63652" lon="0.92382">
        <ele>1913.16</ele>
        <time>2011-03-13T13:35:52Z</time>
      </trkpt>
      <trkpt lat="42.63633" lon="0.92407">
        <ele>1912.2</ele>
        <time>2011-03-13T13:36:04Z</time>
      </trkpt>
      <trkpt lat="42.63626" lon="0.92462">
        <ele>1910.28</ele>
        <time>2011-03-13T13:36:19Z</time>
      </trkpt>
      <trkpt lat="42.63604" lon="0.92489">
        <ele>1907.87</ele>
        <time>2011-03-13T13:36:30Z</time>
      </trkpt>
      <trkpt lat="42.63598" lon="0.92499">
        <ele>1906.91</ele>
        <time>2011-03-13T13:36:33Z</time>
      </trkpt>
      <trkpt lat="42.63599" lon="0.92526">
        <ele>1905.47</ele>
        <time>2011-03-13T13:36:38Z</time>
      </trkpt>
      <trkpt lat="42.63614" lon="0.92558">
        <ele>1903.07</ele>
        <time>2011-03-13T13:36:44Z</time>
      </trkpt>
      <trkpt lat="42.63652" lon="0.92599">
        <ele>1900.18</ele>
        <time>2011-03-13T13:36:58Z</time>
      </trkpt>
      <trkpt lat="42.63671" lon="0.9261">
        <ele>1899.22</ele>
        <time>2011-03-13T13:37:06Z</time>
      </trkpt>
      <trkpt lat="42.63691" lon="0.92608">
        <ele>1898.74</ele>
        <time>2011-03-13T13:37:18Z</time>
      </trkpt>
      <trkpt lat="42.63692" lon="0.92608">
        <ele>1898.26</ele>
        <time>2011-03-13T13:37:32Z</time>
      </trkpt>
      <trkpt lat="42.63692" lon="0.92609">
        <ele>1896.82</ele>
        <time>2011-03-13T13:39:10Z</time>
      </trkpt>
      <trkpt lat="42.63692" lon="0.92609">
        <ele>1897.78</ele>
        <time>2011-03-13T13:39:57Z</time>
      </trkpt>
      <trkpt lat="42.63692" lon="0.92609">
        <ele>1897.3</ele>
        <time>2011-03-13T13:40:39Z</time>
      </trkpt>
      <trkpt lat="42.63692" lon="0.92609">
        <ele>1896.82</ele>
        <time>2011-03-13T13:40:56Z</time>
      </trkpt>
      <trkpt lat="42.63695" lon="0.9262">
        <ele>1896.34</ele>
        <time>2011-03-13T13:41:01Z</time>
      </trkpt>
      <trkpt lat="42.63702" lon="0.92633">
        <ele>1894.9</ele>
        <time>2011-03-13T13:41:04Z</time>
      </trkpt>
      <trkpt lat="42.63704" lon="0.92665">
        <ele>1888.65</ele>
        <time>2011-03-13T13:41:09Z</time>
      </trkpt>
      <trkpt lat="42.637" lon="0.92678">
        <ele>1886.72</ele>
        <time>2011-03-13T13:41:12Z</time>
      </trkpt>
      <trkpt lat="42.63698" lon="0.92684">
        <ele>1885.28</ele>
        <time>2011-03-13T13:41:13Z</time>
      </trkpt>
      <trkpt lat="42.63692" lon="0.92693">
        <ele>1884.8</ele>
        <time>2011-03-13T13:41:15Z</time>
      </trkpt>
      <trkpt lat="42.63677" lon="0.92713">
        <ele>1883.36</ele>
        <time>2011-03-13T13:41:19Z</time>
      </trkpt>
      <trkpt lat="42.63674" lon="0.92717">
        <ele>1881.92</ele>
        <time>2011-03-13T13:41:20Z</time>
      </trkpt>
      <trkpt lat="42.63665" lon="0.92724">
        <ele>1881.44</ele>
        <time>2011-03-13T13:41:22Z</time>
      </trkpt>
      <trkpt lat="42.63652" lon="0.92735">
        <ele>1879.51</ele>
        <time>2011-03-13T13:41:25Z</time>
      </trkpt>
      <trkpt lat="42.63636" lon="0.92773">
        <ele>1875.67</ele>
        <time>2011-03-13T13:41:31Z</time>
      </trkpt>
      <trkpt lat="42.63628" lon="0.92793">
        <ele>1873.75</ele>
        <time>2011-03-13T13:41:35Z</time>
      </trkpt>
      <trkpt lat="42.63628" lon="0.92815">
        <ele>1870.86</ele>
        <time>2011-03-13T13:41:40Z</time>
      </trkpt>
      <trkpt lat="42.63645" lon="0.92815">
        <ele>1868.94</ele>
        <time>2011-03-13T13:41:44Z</time>
      </trkpt>
      <trkpt lat="42.63682" lon="0.9279">
        <ele>1867.02</ele>
        <time>2011-03-13T13:41:57Z</time>
      </trkpt>
      <trkpt lat="42.63715" lon="0.92776">
        <ele>1864.61</ele>
        <time>2011-03-13T13:42:09Z</time>
      </trkpt>
      <trkpt lat="42.63724" lon="0.92779">
        <ele>1863.65</ele>
        <time>2011-03-13T13:42:13Z</time>
      </trkpt>
      <trkpt lat="42.63736" lon="0.92816">
        <ele>1862.69</ele>
        <time>2011-03-13T13:42:24Z</time>
      </trkpt>
      <trkpt lat="42.63755" lon="0.92861">
        <ele>1860.29</ele>
        <time>2011-03-13T13:42:35Z</time>
      </trkpt>
      <trkpt lat="42.63774" lon="0.92875">
        <ele>1857.89</ele>
        <time>2011-03-13T13:42:41Z</time>
      </trkpt>
      <trkpt lat="42.63784" lon="0.92898">
        <ele>1857.4</ele>
        <time>2011-03-13T13:42:46Z</time>
      </trkpt>
      <trkpt lat="42.63787" lon="0.92945">
        <ele>1854.52</ele>
        <time>2011-03-13T13:42:56Z</time>
      </trkpt>
      <trkpt lat="42.63784" lon="0.92952">
        <ele>1854.04</ele>
        <time>2011-03-13T13:42:58Z</time>
      </trkpt>
      <trkpt lat="42.63788" lon="0.92967">
        <ele>1853.08</ele>
        <time>2011-03-13T13:43:04Z</time>
      </trkpt>
      <trkpt lat="42.63795" lon="0.9298">
        <ele>1853.08</ele>
        <time>2011-03-13T13:43:09Z</time>
      </trkpt>
      <trkpt lat="42.63811" lon="0.93006">
        <ele>1851.64</ele>
        <time>2011-03-13T13:43:19Z</time>
      </trkpt>
      <trkpt lat="42.63812" lon="0.93007">
        <ele>1850.68</ele>
        <time>2011-03-13T13:43:30Z</time>
      </trkpt>
      <trkpt lat="42.63813" lon="0.93008">
        <ele>1850.68</ele>
        <time>2011-03-13T13:43:40Z</time>
      </trkpt>
      <trkpt lat="42.63814" lon="0.9301">
        <ele>1850.68</ele>
        <time>2011-03-13T13:44:11Z</time>
      </trkpt>
      <trkpt lat="42.63816" lon="0.93011">
        <ele>1852.12</ele>
        <time>2011-03-13T13:44:22Z</time>
      </trkpt>
      <trkpt lat="42.63838" lon="0.93027">
        <ele>1851.64</ele>
        <time>2011-03-13T13:44:35Z</time>
      </trkpt>
      <trkpt lat="42.63859" lon="0.93034">
        <ele>1851.16</ele>
        <time>2011-03-13T13:44:49Z</time>
      </trkpt>
      <trkpt lat="42.6386" lon="0.93034">
        <ele>1850.68</ele>
        <time>2011-03-13T13:45:05Z</time>
      </trkpt>
      <trkpt lat="42.63878" lon="0.93027">
        <ele>1850.19</ele>
        <time>2011-03-13T13:45:20Z</time>
      </trkpt>
      <trkpt lat="42.63897" lon="0.93014">
        <ele>1849.71</ele>
        <time>2011-03-13T13:45:33Z</time>
      </trkpt>
      <trkpt lat="42.63913" lon="0.93004">
        <ele>1849.23</ele>
        <time>2011-03-13T13:45:42Z</time>
      </trkpt>
      <trkpt lat="42.63925" lon="0.93">
        <ele>1849.71</ele>
        <time>2011-03-13T13:45:49Z</time>
      </trkpt>
      <trkpt lat="42.63944" lon="0.92994">
        <ele>1849.23</ele>
        <time>2011-03-13T13:46:01Z</time>
      </trkpt>
      <trkpt lat="42.63968" lon="0.9299">
        <ele>1849.23</ele>
        <time>2011-03-13T13:46:16Z</time>
      </trkpt>
      <trkpt lat="42.63989" lon="0.92991">
        <ele>1849.23</ele>
        <time>2011-03-13T13:46:29Z</time>
      </trkpt>
      <trkpt lat="42.64" lon="0.92997">
        <ele>1848.75</ele>
        <time>2011-03-13T13:46:39Z</time>
      </trkpt>
      <trkpt lat="42.64017" lon="0.93011">
        <ele>1848.75</ele>
        <time>2011-03-13T13:46:51Z</time>
      </trkpt>
      <trkpt lat="42.64029" lon="0.9302">
        <ele>1848.75</ele>
        <time>2011-03-13T13:47:03Z</time>
      </trkpt>
      <trkpt lat="42.64035" lon="0.93026">
        <ele>1849.23</ele>
        <time>2011-03-13T13:47:08Z</time>
      </trkpt>
      <trkpt lat="42.64037" lon="0.93027">
        <ele>1849.71</ele>
        <time>2011-03-13T13:47:10Z</time>
      </trkpt>
      <trkpt lat="42.6404" lon="0.93032">
        <ele>1849.71</ele>
        <time>2011-03-13T13:47:14Z</time>
      </trkpt>
      <trkpt lat="42.64054" lon="0.93047">
        <ele>1851.16</ele>
        <time>2011-03-13T13:47:30Z</time>
      </trkpt>
      <trkpt lat="42.64066" lon="0.93061">
        <ele>1852.12</ele>
        <time>2011-03-13T13:47:42Z</time>
      </trkpt>
      <trkpt lat="42.64074" lon="0.93067">
        <ele>1852.6</ele>
        <time>2011-03-13T13:47:49Z</time>
      </trkpt>
      <trkpt lat="42.64083" lon="0.93075">
        <ele>1853.08</ele>
        <time>2011-03-13T13:47:56Z</time>
      </trkpt>
      <trkpt lat="42.64093" lon="0.93083">
        <ele>1853.56</ele>
        <time>2011-03-13T13:48:04Z</time>
      </trkpt>
      <trkpt lat="42.64103" lon="0.93091">
        <ele>1853.08</ele>
        <time>2011-03-13T13:48:11Z</time>
      </trkpt>
      <trkpt lat="42.6411" lon="0.931">
        <ele>1853.08</ele>
        <time>2011-03-13T13:48:16Z</time>
      </trkpt>
      <trkpt lat="42.64132" lon="0.93128">
        <ele>1851.64</ele>
        <time>2011-03-13T13:48:31Z</time>
      </trkpt>
      <trkpt lat="42.64157" lon="0.93147">
        <ele>1851.16</ele>
        <time>2011-03-13T13:48:46Z</time>
      </trkpt>
      <trkpt lat="42.64177" lon="0.93163">
        <ele>1851.16</ele>
        <time>2011-03-13T13:48:59Z</time>
      </trkpt>
      <trkpt lat="42.64178" lon="0.93164">
        <ele>1851.16</ele>
        <time>2011-03-13T13:49:00Z</time>
      </trkpt>
      <trkpt lat="42.64186" lon="0.93179">
        <ele>1851.16</ele>
        <time>2011-03-13T13:49:12Z</time>
      </trkpt>
      <trkpt lat="42.64189" lon="0.93192">
        <ele>1851.16</ele>
        <time>2011-03-13T13:49:20Z</time>
      </trkpt>
      <trkpt lat="42.64196" lon="0.93218">
        <ele>1850.68</ele>
        <time>2011-03-13T13:49:33Z</time>
      </trkpt>
      <trkpt lat="42.64209" lon="0.93257">
        <ele>1849.23</ele>
        <time>2011-03-13T13:49:49Z</time>
      </trkpt>
      <trkpt lat="42.64238" lon="0.93297">
        <ele>1846.83</ele>
        <time>2011-03-13T13:50:03Z</time>
      </trkpt>
      <trkpt lat="42.64249" lon="0.93308">
        <ele>1846.35</ele>
        <time>2011-03-13T13:50:10Z</time>
      </trkpt>
      <trkpt lat="42.64254" lon="0.9331">
        <ele>1844.91</ele>
        <time>2011-03-13T13:50:21Z</time>
      </trkpt>
      <trkpt lat="42.64253" lon="0.9331">
        <ele>1843.47</ele>
        <time>2011-03-13T13:50:36Z</time>
      </trkpt>
      <trkpt lat="42.64254" lon="0.93312">
        <ele>1845.87</ele>
        <time>2011-03-13T13:50:54Z</time>
      </trkpt>
      <trkpt lat="42.64254" lon="0.93313">
        <ele>1846.35</ele>
        <time>2011-03-13T13:51:23Z</time>
      </trkpt>
      <trkpt lat="42.6426" lon="0.9332">
        <ele>1846.35</ele>
        <time>2011-03-13T13:51:27Z</time>
      </trkpt>
      <trkpt lat="42.64286" lon="0.93334">
        <ele>1844.91</ele>
        <time>2011-03-13T13:51:40Z</time>
      </trkpt>
      <trkpt lat="42.64307" lon="0.93335">
        <ele>1845.39</ele>
        <time>2011-03-13T13:51:52Z</time>
      </trkpt>
      <trkpt lat="42.64327" lon="0.93333">
        <ele>1845.87</ele>
        <time>2011-03-13T13:52:04Z</time>
      </trkpt>
      <trkpt lat="42.64346" lon="0.93335">
        <ele>1846.35</ele>
        <time>2011-03-13T13:52:17Z</time>
      </trkpt>
      <trkpt lat="42.64366" lon="0.93337">
        <ele>1846.35</ele>
        <time>2011-03-13T13:52:29Z</time>
      </trkpt>
      <trkpt lat="42.64386" lon="0.93335">
        <ele>1846.35</ele>
        <time>2011-03-13T13:52:42Z</time>
      </trkpt>
      <trkpt lat="42.64408" lon="0.93325">
        <ele>1845.87</ele>
        <time>2011-03-13T13:52:55Z</time>
      </trkpt>
      <trkpt lat="42.64436" lon="0.93322">
        <ele>1845.87</ele>
        <time>2011-03-13T13:53:10Z</time>
      </trkpt>
      <trkpt lat="42.64462" lon="0.93321">
        <ele>1845.39</ele>
        <time>2011-03-13T13:53:24Z</time>
      </trkpt>
      <trkpt lat="42.64488" lon="0.93322">
        <ele>1844.91</ele>
        <time>2011-03-13T13:53:36Z</time>
      </trkpt>
      <trkpt lat="42.64515" lon="0.93325">
        <ele>1842.98</ele>
        <time>2011-03-13T13:53:49Z</time>
      </trkpt>
      <trkpt lat="42.64547" lon="0.9333">
        <ele>1841.54</ele>
        <time>2011-03-13T13:54:03Z</time>
      </trkpt>
      <trkpt lat="42.64576" lon="0.93331">
        <ele>1841.06</ele>
        <time>2011-03-13T13:54:15Z</time>
      </trkpt>
      <trkpt lat="42.64607" lon="0.93336">
        <ele>1839.14</ele>
        <time>2011-03-13T13:54:27Z</time>
      </trkpt>
      <trkpt lat="42.64622" lon="0.93339">
        <ele>1839.62</ele>
        <time>2011-03-13T13:54:35Z</time>
      </trkpt>
      <trkpt lat="42.64629" lon="0.9334">
        <ele>1839.14</ele>
        <time>2011-03-13T13:54:39Z</time>
      </trkpt>
      <trkpt lat="42.64652" lon="0.93349">
        <ele>1839.62</ele>
        <time>2011-03-13T13:54:53Z</time>
      </trkpt>
      <trkpt lat="42.64675" lon="0.93361">
        <ele>1838.66</ele>
        <time>2011-03-13T13:55:06Z</time>
      </trkpt>
      <trkpt lat="42.64694" lon="0.9337">
        <ele>1838.18</ele>
        <time>2011-03-13T13:55:17Z</time>
      </trkpt>
      <trkpt lat="42.64718" lon="0.93381">
        <ele>1837.22</ele>
        <time>2011-03-13T13:55:31Z</time>
      </trkpt>
      <trkpt lat="42.64748" lon="0.93401">
        <ele>1836.74</ele>
        <time>2011-03-13T13:55:47Z</time>
      </trkpt>
      <trkpt lat="42.64767" lon="0.93424">
        <ele>1835.77</ele>
        <time>2011-03-13T13:56:00Z</time>
      </trkpt>
      <trkpt lat="42.64786" lon="0.93446">
        <ele>1835.77</ele>
        <time>2011-03-13T13:56:12Z</time>
      </trkpt>
      <trkpt lat="42.64814" lon="0.93464">
        <ele>1832.89</ele>
        <time>2011-03-13T13:56:21Z</time>
      </trkpt>
      <trkpt lat="42.64821" lon="0.93462">
        <ele>1831.93</ele>
        <time>2011-03-13T13:56:23Z</time>
      </trkpt>
      <trkpt lat="42.64834" lon="0.93453">
        <ele>1830.97</ele>
        <time>2011-03-13T13:56:27Z</time>
      </trkpt>
      <trkpt lat="42.6484" lon="0.93445">
        <ele>1830.49</ele>
        <time>2011-03-13T13:56:29Z</time>
      </trkpt>
      <trkpt lat="42.64848" lon="0.93426">
        <ele>1828.56</ele>
        <time>2011-03-13T13:56:32Z</time>
      </trkpt>
      <trkpt lat="42.64872" lon="0.93399">
        <ele>1825.2</ele>
        <time>2011-03-13T13:56:37Z</time>
      </trkpt>
      <trkpt lat="42.64884" lon="0.93392">
        <ele>1824.24</ele>
        <time>2011-03-13T13:56:39Z</time>
      </trkpt>
      <trkpt lat="42.64897" lon="0.93386">
        <ele>1822.32</ele>
        <time>2011-03-13T13:56:41Z</time>
      </trkpt>
      <trkpt lat="42.6491" lon="0.93378">
        <ele>1820.87</ele>
        <time>2011-03-13T13:56:43Z</time>
      </trkpt>
      <trkpt lat="42.64922" lon="0.93371">
        <ele>1819.91</ele>
        <time>2011-03-13T13:56:45Z</time>
      </trkpt>
      <trkpt lat="42.64951" lon="0.93363">
        <ele>1816.55</ele>
        <time>2011-03-13T13:56:50Z</time>
      </trkpt>
      <trkpt lat="42.64957" lon="0.93362">
        <ele>1815.11</ele>
        <time>2011-03-13T13:56:51Z</time>
      </trkpt>
      <trkpt lat="42.64999" lon="0.93363">
        <ele>1811.26</ele>
        <time>2011-03-13T13:56:58Z</time>
      </trkpt>
      <trkpt lat="42.65005" lon="0.93362">
        <ele>1810.78</ele>
        <time>2011-03-13T13:56:59Z</time>
      </trkpt>
      <trkpt lat="42.6501" lon="0.93361">
        <ele>1810.3</ele>
        <time>2011-03-13T13:57:00Z</time>
      </trkpt>
      <trkpt lat="42.65028" lon="0.93362">
        <ele>1808.38</ele>
        <time>2011-03-13T13:57:03Z</time>
      </trkpt>
      <trkpt lat="42.65039" lon="0.93368">
        <ele>1806.94</ele>
        <time>2011-03-13T13:57:05Z</time>
      </trkpt>
      <trkpt lat="42.6505" lon="0.93375">
        <ele>1806.94</ele>
        <time>2011-03-13T13:57:07Z</time>
      </trkpt>
      <trkpt lat="42.65065" lon="0.9338">
        <ele>1804.53</ele>
        <time>2011-03-13T13:57:10Z</time>
      </trkpt>
      <trkpt lat="42.65077" lon="0.9338">
        <ele>1802.61</ele>
        <time>2011-03-13T13:57:13Z</time>
      </trkpt>
      <trkpt lat="42.65099" lon="0.93361">
        <ele>1801.65</ele>
        <time>2011-03-13T13:57:24Z</time>
      </trkpt>
      <trkpt lat="42.65109" lon="0.93338">
        <ele>1801.17</ele>
        <time>2011-03-13T13:57:33Z</time>
      </trkpt>
      <trkpt lat="42.65122" lon="0.93302">
        <ele>1800.21</ele>
        <time>2011-03-13T13:57:46Z</time>
      </trkpt>
      <trkpt lat="42.65133" lon="0.93281">
        <ele>1800.21</ele>
        <time>2011-03-13T13:57:56Z</time>
      </trkpt>
      <trkpt lat="42.65142" lon="0.9327">
        <ele>1798.76</ele>
        <time>2011-03-13T13:58:02Z</time>
      </trkpt>
      <trkpt lat="42.65169" lon="0.93231">
        <ele>1796.84</ele>
        <time>2011-03-13T13:58:19Z</time>
      </trkpt>
      <trkpt lat="42.65189" lon="0.93205">
        <ele>1795.88</ele>
        <time>2011-03-13T13:58:31Z</time>
      </trkpt>
      <trkpt lat="42.65214" lon="0.93175">
        <ele>1793.96</ele>
        <time>2011-03-13T13:58:42Z</time>
      </trkpt>
      <trkpt lat="42.65188" lon="0.93207">
        <ele>1848.75</ele>
        <time>2011-03-13T14:43:04Z</time>
      </trkpt>
      <trkpt lat="42.65188" lon="0.93207">
        <ele>1466.15</ele>
        <time>2011-03-13T14:43:05Z</time>
      </trkpt>
      <trkpt lat="42.65188" lon="0.93207">
        <ele>1466.15</ele>
        <time>2011-03-13T14:43:06Z</time>
      </trkpt>
      <trkpt lat="42.6783" lon="0.91587">
        <ele>1467.59</ele>
        <time>2011-03-13T14:43:09Z</time>
      </trkpt>
      <trkpt lat="42.6783" lon="0.91589">
        <ele>1464.23</ele>
        <time>2011-03-13T14:43:14Z</time>
      </trkpt>
      <trkpt lat="42.6783" lon="0.91588">
        <ele>1466.15</ele>
        <time>2011-03-13T14:43:15Z</time>
      </trkpt>
      <trkpt lat="42.67828" lon="0.91592">
        <ele>1465.19</ele>
        <time>2011-03-13T14:43:21Z</time>
      </trkpt>
      <trkpt lat="42.67827" lon="0.91594">
        <ele>1466.63</ele>
        <time>2011-03-13T14:43:24Z</time>
      </trkpt>
    </trkseg>
  </trk>
</gpx>